<?xml version="1.0" encoding="UTF-8" standalone="no" ?>
<gpx xmlns="http://www.topografix.com/GPX/1/1" xmlns:xsi="http://www.w3.org/2001/XMLSchema-instance" xsi:schemaLocation="http://www.topografix.com/GPX/1/1 http://www.topografix.com/GPX/1/1/gpx.xsd" version="1.1" creator="VisuGPX - https://www.visugpx.com">
  <metadata>
    <name>Reconnaissance MaxiRace-Tecnica#2</name>
    <desc><![CDATA[Reconnaissance MaxiRace-Tecnica#2]]></desc>
  </metadata>
  <trk>
    <name><![CDATA[Move_2013_04_17_17_24_50_trail Running on GPSies.com]]></name>
    <trkseg>
      <trkpt lat="45.79503" lon="6.14851">
        <ele>741</ele>
        <time>2010-01-01T00:00:00Z</time>
      </trkpt>
      <trkpt lat="45.79495" lon="6.14847">
        <ele>741</ele>
        <time>2010-01-01T00:00:03Z</time>
      </trkpt>
      <trkpt lat="45.79485" lon="6.14845">
        <ele>741</ele>
        <time>2010-01-01T00:00:07Z</time>
      </trkpt>
      <trkpt lat="45.79469" lon="6.14847">
        <ele>743</ele>
        <time>2010-01-01T00:00:13Z</time>
      </trkpt>
      <trkpt lat="45.7946" lon="6.14843">
        <ele>745</ele>
        <time>2010-01-01T00:00:17Z</time>
      </trkpt>
      <trkpt lat="45.79439" lon="6.14847">
        <ele>747</ele>
        <time>2010-01-01T00:00:25Z</time>
      </trkpt>
      <trkpt lat="45.7942" lon="6.14852">
        <ele>751</ele>
        <time>2010-01-01T00:00:33Z</time>
      </trkpt>
      <trkpt lat="45.79406" lon="6.14865">
        <ele>751</ele>
        <time>2010-01-01T00:00:40Z</time>
      </trkpt>
      <trkpt lat="45.79391" lon="6.14872">
        <ele>753</ele>
        <time>2010-01-01T00:00:46Z</time>
      </trkpt>
      <trkpt lat="45.79386" lon="6.14873">
        <ele>756</ele>
        <time>2010-01-01T00:00:48Z</time>
      </trkpt>
      <trkpt lat="45.7937" lon="6.14872">
        <ele>759</ele>
        <time>2010-01-01T00:00:55Z</time>
      </trkpt>
      <trkpt lat="45.79365" lon="6.14871">
        <ele>760</ele>
        <time>2010-01-01T00:00:57Z</time>
      </trkpt>
      <trkpt lat="45.79361" lon="6.14868">
        <ele>761</ele>
        <time>2010-01-01T00:00:59Z</time>
      </trkpt>
      <trkpt lat="45.79342" lon="6.14865">
        <ele>763</ele>
        <time>2010-01-01T00:01:06Z</time>
      </trkpt>
      <trkpt lat="45.79323" lon="6.14865">
        <ele>765</ele>
        <time>2010-01-01T00:01:14Z</time>
      </trkpt>
      <trkpt lat="45.79319" lon="6.14864">
        <ele>767</ele>
        <time>2010-01-01T00:01:15Z</time>
      </trkpt>
      <trkpt lat="45.79305" lon="6.14863">
        <ele>768</ele>
        <time>2010-01-01T00:01:21Z</time>
      </trkpt>
      <trkpt lat="45.79293" lon="6.14867">
        <ele>770</ele>
        <time>2010-01-01T00:01:26Z</time>
      </trkpt>
      <trkpt lat="45.7929" lon="6.14873">
        <ele>770</ele>
        <time>2010-01-01T00:01:28Z</time>
      </trkpt>
      <trkpt lat="45.79272" lon="6.14892">
        <ele>772.01998</ele>
        <time>2010-01-01T00:01:37Z</time>
      </trkpt>
      <trkpt lat="45.79261" lon="6.14912">
        <ele>773</ele>
        <time>2010-01-01T00:01:44Z</time>
      </trkpt>
      <trkpt lat="45.79256" lon="6.14932">
        <ele>775</ele>
        <time>2010-01-01T00:01:50Z</time>
      </trkpt>
      <trkpt lat="45.79254" lon="6.14952">
        <ele>776.04</ele>
        <time>2010-01-01T00:01:56Z</time>
      </trkpt>
      <trkpt lat="45.79243" lon="6.14987">
        <ele>778</ele>
        <time>2010-01-01T00:02:06Z</time>
      </trkpt>
      <trkpt lat="45.7923" lon="6.15018">
        <ele>780</ele>
        <time>2010-01-01T00:02:16Z</time>
      </trkpt>
      <trkpt lat="45.79225" lon="6.15048">
        <ele>781</ele>
        <time>2010-01-01T00:02:25Z</time>
      </trkpt>
      <trkpt lat="45.7922" lon="6.15058">
        <ele>781</ele>
        <time>2010-01-01T00:02:28Z</time>
      </trkpt>
      <trkpt lat="45.79208" lon="6.15076">
        <ele>783</ele>
        <time>2010-01-01T00:02:35Z</time>
      </trkpt>
      <trkpt lat="45.79199" lon="6.15086">
        <ele>784.00988</ele>
        <time>2010-01-01T00:02:40Z</time>
      </trkpt>
      <trkpt lat="45.79189" lon="6.15104">
        <ele>785</ele>
        <time>2010-01-01T00:02:46Z</time>
      </trkpt>
      <trkpt lat="45.79184" lon="6.15108">
        <ele>786</ele>
        <time>2010-01-01T00:02:49Z</time>
      </trkpt>
      <trkpt lat="45.79171" lon="6.15128">
        <ele>786</ele>
        <time>2010-01-01T00:02:56Z</time>
      </trkpt>
      <trkpt lat="45.79162" lon="6.15156">
        <ele>786</ele>
        <time>2010-01-01T00:03:05Z</time>
      </trkpt>
      <trkpt lat="45.79152" lon="6.15168">
        <ele>786</ele>
        <time>2010-01-01T00:03:10Z</time>
      </trkpt>
      <trkpt lat="45.79146" lon="6.15183">
        <ele>786</ele>
        <time>2010-01-01T00:03:15Z</time>
      </trkpt>
      <trkpt lat="45.79143" lon="6.15193">
        <ele>786</ele>
        <time>2010-01-01T00:03:18Z</time>
      </trkpt>
      <trkpt lat="45.79143" lon="6.15198">
        <ele>786</ele>
        <time>2010-01-01T00:03:19Z</time>
      </trkpt>
      <trkpt lat="45.79145" lon="6.152">
        <ele>786</ele>
        <time>2010-01-01T00:03:21Z</time>
      </trkpt>
      <trkpt lat="45.79145" lon="6.15202">
        <ele>785.6</ele>
        <time>2010-01-01T00:03:21Z</time>
      </trkpt>
      <trkpt lat="45.79143" lon="6.15215">
        <ele>785</ele>
        <time>2010-01-01T00:03:25Z</time>
      </trkpt>
      <trkpt lat="45.79143" lon="6.15216">
        <ele>785</ele>
        <time>2010-01-01T00:03:25Z</time>
      </trkpt>
      <trkpt lat="45.79147" lon="6.15219">
        <ele>785</ele>
        <time>2010-01-01T00:03:27Z</time>
      </trkpt>
      <trkpt lat="45.79151" lon="6.15225">
        <ele>785.39</ele>
        <time>2010-01-01T00:03:30Z</time>
      </trkpt>
      <trkpt lat="45.79155" lon="6.15227">
        <ele>786</ele>
        <time>2010-01-01T00:03:31Z</time>
      </trkpt>
      <trkpt lat="45.79157" lon="6.15234">
        <ele>786</ele>
        <time>2010-01-01T00:03:33Z</time>
      </trkpt>
      <trkpt lat="45.79159" lon="6.15236">
        <ele>786</ele>
        <time>2010-01-01T00:03:34Z</time>
      </trkpt>
      <trkpt lat="45.79166" lon="6.15234">
        <ele>787</ele>
        <time>2010-01-01T00:03:37Z</time>
      </trkpt>
      <trkpt lat="45.79173" lon="6.15236">
        <ele>787</ele>
        <time>2010-01-01T00:03:40Z</time>
      </trkpt>
      <trkpt lat="45.79187" lon="6.15234">
        <ele>789</ele>
        <time>2010-01-01T00:03:45Z</time>
      </trkpt>
      <trkpt lat="45.792" lon="6.15241">
        <ele>791</ele>
        <time>2010-01-01T00:03:51Z</time>
      </trkpt>
      <trkpt lat="45.79221" lon="6.15247">
        <ele>793</ele>
        <time>2010-01-01T00:03:59Z</time>
      </trkpt>
      <trkpt lat="45.79224" lon="6.1525">
        <ele>793</ele>
        <time>2010-01-01T00:04:01Z</time>
      </trkpt>
      <trkpt lat="45.79231" lon="6.15249">
        <ele>793</ele>
        <time>2010-01-01T00:04:04Z</time>
      </trkpt>
      <trkpt lat="45.79236" lon="6.15251">
        <ele>795</ele>
        <time>2010-01-01T00:04:06Z</time>
      </trkpt>
      <trkpt lat="45.79244" lon="6.15259">
        <ele>795</ele>
        <time>2010-01-01T00:04:10Z</time>
      </trkpt>
      <trkpt lat="45.79257" lon="6.15265">
        <ele>795</ele>
        <time>2010-01-01T00:04:15Z</time>
      </trkpt>
      <trkpt lat="45.79261" lon="6.15271">
        <ele>795</ele>
        <time>2010-01-01T00:04:17Z</time>
      </trkpt>
      <trkpt lat="45.79271" lon="6.15281">
        <ele>796</ele>
        <time>2010-01-01T00:04:22Z</time>
      </trkpt>
      <trkpt lat="45.7928" lon="6.15295">
        <ele>796</ele>
        <time>2010-01-01T00:04:28Z</time>
      </trkpt>
      <trkpt lat="45.79295" lon="6.15305">
        <ele>802</ele>
        <time>2010-01-01T00:04:34Z</time>
      </trkpt>
      <trkpt lat="45.79304" lon="6.15313">
        <ele>802.56999</ele>
        <time>2010-01-01T00:04:38Z</time>
      </trkpt>
      <trkpt lat="45.7931" lon="6.15316">
        <ele>803</ele>
        <time>2010-01-01T00:04:41Z</time>
      </trkpt>
      <trkpt lat="45.79312" lon="6.15321">
        <ele>804</ele>
        <time>2010-01-01T00:04:43Z</time>
      </trkpt>
      <trkpt lat="45.79318" lon="6.15329">
        <ele>805</ele>
        <time>2010-01-01T00:04:46Z</time>
      </trkpt>
      <trkpt lat="45.7932" lon="6.15334">
        <ele>805</ele>
        <time>2010-01-01T00:04:48Z</time>
      </trkpt>
      <trkpt lat="45.79322" lon="6.15349">
        <ele>808</ele>
        <time>2010-01-01T00:04:52Z</time>
      </trkpt>
      <trkpt lat="45.79328" lon="6.1536">
        <ele>813</ele>
        <time>2010-01-01T00:04:56Z</time>
      </trkpt>
      <trkpt lat="45.79332" lon="6.15356">
        <ele>813</ele>
        <time>2010-01-01T00:04:58Z</time>
      </trkpt>
      <trkpt lat="45.79342" lon="6.15354">
        <ele>813</ele>
        <time>2010-01-01T00:05:02Z</time>
      </trkpt>
      <trkpt lat="45.79351" lon="6.15358">
        <ele>813</ele>
        <time>2010-01-01T00:05:06Z</time>
      </trkpt>
      <trkpt lat="45.79356" lon="6.15358">
        <ele>811</ele>
        <time>2010-01-01T00:05:08Z</time>
      </trkpt>
      <trkpt lat="45.79358" lon="6.15361">
        <ele>811</ele>
        <time>2010-01-01T00:05:09Z</time>
      </trkpt>
      <trkpt lat="45.79366" lon="6.15362">
        <ele>811</ele>
        <time>2010-01-01T00:05:12Z</time>
      </trkpt>
      <trkpt lat="45.79381" lon="6.15381">
        <ele>805.44</ele>
        <time>2010-01-01T00:05:20Z</time>
      </trkpt>
      <trkpt lat="45.79388" lon="6.15384">
        <ele>804</ele>
        <time>2010-01-01T00:05:23Z</time>
      </trkpt>
      <trkpt lat="45.79401" lon="6.15394">
        <ele>803</ele>
        <time>2010-01-01T00:05:29Z</time>
      </trkpt>
      <trkpt lat="45.79411" lon="6.15406">
        <ele>800</ele>
        <time>2010-01-01T00:05:34Z</time>
      </trkpt>
      <trkpt lat="45.79423" lon="6.15424">
        <ele>797.65</ele>
        <time>2010-01-01T00:05:41Z</time>
      </trkpt>
      <trkpt lat="45.79427" lon="6.15435">
        <ele>796</ele>
        <time>2010-01-01T00:05:44Z</time>
      </trkpt>
      <trkpt lat="45.7944" lon="6.15446">
        <ele>795</ele>
        <time>2010-01-01T00:05:50Z</time>
      </trkpt>
      <trkpt lat="45.79444" lon="6.15455">
        <ele>792</ele>
        <time>2010-01-01T00:05:54Z</time>
      </trkpt>
      <trkpt lat="45.79447" lon="6.15465">
        <ele>791.45544</ele>
        <time>2010-01-01T00:05:57Z</time>
      </trkpt>
      <trkpt lat="45.79451" lon="6.1547">
        <ele>791</ele>
        <time>2010-01-01T00:05:59Z</time>
      </trkpt>
      <trkpt lat="45.79454" lon="6.15477">
        <ele>789.38001</ele>
        <time>2010-01-01T00:06:01Z</time>
      </trkpt>
      <trkpt lat="45.79459" lon="6.15481">
        <ele>788</ele>
        <time>2010-01-01T00:06:03Z</time>
      </trkpt>
      <trkpt lat="45.79463" lon="6.15486">
        <ele>788</ele>
        <time>2010-01-01T00:06:05Z</time>
      </trkpt>
      <trkpt lat="45.79464" lon="6.15491">
        <ele>786</ele>
        <time>2010-01-01T00:06:07Z</time>
      </trkpt>
      <trkpt lat="45.79461" lon="6.15543">
        <ele>781</ele>
        <time>2010-01-01T00:06:21Z</time>
      </trkpt>
      <trkpt lat="45.79456" lon="6.15568">
        <ele>779</ele>
        <time>2010-01-01T00:06:29Z</time>
      </trkpt>
      <trkpt lat="45.79445" lon="6.15583">
        <ele>779</ele>
        <time>2010-01-01T00:06:35Z</time>
      </trkpt>
      <trkpt lat="45.79438" lon="6.15597">
        <ele>779</ele>
        <time>2010-01-01T00:06:40Z</time>
      </trkpt>
      <trkpt lat="45.7943" lon="6.15604">
        <ele>778.46535</ele>
        <time>2010-01-01T00:06:43Z</time>
      </trkpt>
      <trkpt lat="45.79427" lon="6.15604">
        <ele>778</ele>
        <time>2010-01-01T00:06:44Z</time>
      </trkpt>
      <trkpt lat="45.79431" lon="6.15598">
        <ele>778</ele>
        <time>2010-01-01T00:06:47Z</time>
      </trkpt>
      <trkpt lat="45.79441" lon="6.15589">
        <ele>780</ele>
        <time>2010-01-01T00:06:52Z</time>
      </trkpt>
      <trkpt lat="45.79457" lon="6.15587">
        <ele>780.85998</ele>
        <time>2010-01-01T00:06:58Z</time>
      </trkpt>
      <trkpt lat="45.79467" lon="6.15589">
        <ele>782</ele>
        <time>2010-01-01T00:07:02Z</time>
      </trkpt>
      <trkpt lat="45.79475" lon="6.15587">
        <ele>782</ele>
        <time>2010-01-01T00:07:05Z</time>
      </trkpt>
      <trkpt lat="45.79479" lon="6.15588">
        <ele>783.28997</ele>
        <time>2010-01-01T00:07:07Z</time>
      </trkpt>
      <trkpt lat="45.79486" lon="6.15585">
        <ele>785.80807</ele>
        <time>2010-01-01T00:07:10Z</time>
      </trkpt>
      <trkpt lat="45.79489" lon="6.15585">
        <ele>787</ele>
        <time>2010-01-01T00:07:11Z</time>
      </trkpt>
      <trkpt lat="45.79496" lon="6.15582">
        <ele>789</ele>
        <time>2010-01-01T00:07:14Z</time>
      </trkpt>
      <trkpt lat="45.79503" lon="6.15585">
        <ele>792</ele>
        <time>2010-01-01T00:07:17Z</time>
      </trkpt>
      <trkpt lat="45.79505" lon="6.15588">
        <ele>793</ele>
        <time>2010-01-01T00:07:18Z</time>
      </trkpt>
      <trkpt lat="45.7951" lon="6.15586">
        <ele>793</ele>
        <time>2010-01-01T00:07:20Z</time>
      </trkpt>
      <trkpt lat="45.79523" lon="6.15585">
        <ele>793</ele>
        <time>2010-01-01T00:07:25Z</time>
      </trkpt>
      <trkpt lat="45.79533" lon="6.15581">
        <ele>795</ele>
        <time>2010-01-01T00:07:30Z</time>
      </trkpt>
      <trkpt lat="45.79549" lon="6.1558">
        <ele>795</ele>
        <time>2010-01-01T00:07:36Z</time>
      </trkpt>
      <trkpt lat="45.79556" lon="6.15578">
        <ele>798</ele>
        <time>2010-01-01T00:07:39Z</time>
      </trkpt>
      <trkpt lat="45.79564" lon="6.15578">
        <ele>798</ele>
        <time>2010-01-01T00:07:42Z</time>
      </trkpt>
      <trkpt lat="45.79574" lon="6.15579">
        <ele>798</ele>
        <time>2010-01-01T00:07:46Z</time>
      </trkpt>
      <trkpt lat="45.79585" lon="6.15585">
        <ele>799</ele>
        <time>2010-01-01T00:07:51Z</time>
      </trkpt>
      <trkpt lat="45.7959" lon="6.15586">
        <ele>799</ele>
        <time>2010-01-01T00:07:53Z</time>
      </trkpt>
      <trkpt lat="45.79593" lon="6.15588">
        <ele>799.50999</ele>
        <time>2010-01-01T00:07:54Z</time>
      </trkpt>
      <trkpt lat="45.79594" lon="6.1559">
        <ele>800</ele>
        <time>2010-01-01T00:07:55Z</time>
      </trkpt>
      <trkpt lat="45.79586" lon="6.15601">
        <ele>802</ele>
        <time>2010-01-01T00:07:59Z</time>
      </trkpt>
      <trkpt lat="45.79581" lon="6.15605">
        <ele>802</ele>
        <time>2010-01-01T00:08:02Z</time>
      </trkpt>
      <trkpt lat="45.79581" lon="6.1561">
        <ele>804</ele>
        <time>2010-01-01T00:08:03Z</time>
      </trkpt>
      <trkpt lat="45.79577" lon="6.15615">
        <ele>804</ele>
        <time>2010-01-01T00:08:05Z</time>
      </trkpt>
      <trkpt lat="45.79577" lon="6.15618">
        <ele>806</ele>
        <time>2010-01-01T00:08:06Z</time>
      </trkpt>
      <trkpt lat="45.79573" lon="6.15628">
        <ele>806</ele>
        <time>2010-01-01T00:08:09Z</time>
      </trkpt>
      <trkpt lat="45.79563" lon="6.15636">
        <ele>808</ele>
        <time>2010-01-01T00:08:14Z</time>
      </trkpt>
      <trkpt lat="45.79553" lon="6.15656">
        <ele>810</ele>
        <time>2010-01-01T00:08:21Z</time>
      </trkpt>
      <trkpt lat="45.79553" lon="6.15659">
        <ele>811.13998</ele>
        <time>2010-01-01T00:08:22Z</time>
      </trkpt>
      <trkpt lat="45.7955" lon="6.15663">
        <ele>813</ele>
        <time>2010-01-01T00:08:23Z</time>
      </trkpt>
      <trkpt lat="45.7955" lon="6.15669">
        <ele>814</ele>
        <time>2010-01-01T00:08:25Z</time>
      </trkpt>
      <trkpt lat="45.79546" lon="6.15675">
        <ele>815</ele>
        <time>2010-01-01T00:08:27Z</time>
      </trkpt>
      <trkpt lat="45.79546" lon="6.15677">
        <ele>815</ele>
        <time>2010-01-01T00:08:28Z</time>
      </trkpt>
      <trkpt lat="45.79543" lon="6.15683">
        <ele>816</ele>
        <time>2010-01-01T00:08:30Z</time>
      </trkpt>
      <trkpt lat="45.79537" lon="6.15687">
        <ele>816</ele>
        <time>2010-01-01T00:08:33Z</time>
      </trkpt>
      <trkpt lat="45.79534" lon="6.15691">
        <ele>816.48999</ele>
        <time>2010-01-01T00:08:34Z</time>
      </trkpt>
      <trkpt lat="45.79526" lon="6.15697">
        <ele>817</ele>
        <time>2010-01-01T00:08:38Z</time>
      </trkpt>
      <trkpt lat="45.79499" lon="6.15712">
        <ele>819</ele>
        <time>2010-01-01T00:08:50Z</time>
      </trkpt>
      <trkpt lat="45.79496" lon="6.15719">
        <ele>821</ele>
        <time>2010-01-01T00:08:52Z</time>
      </trkpt>
      <trkpt lat="45.79483" lon="6.15729">
        <ele>821</ele>
        <time>2010-01-01T00:08:58Z</time>
      </trkpt>
      <trkpt lat="45.79473" lon="6.15744">
        <ele>822.37623</ele>
        <time>2010-01-01T00:09:03Z</time>
      </trkpt>
      <trkpt lat="45.79465" lon="6.15748">
        <ele>823</ele>
        <time>2010-01-01T00:09:07Z</time>
      </trkpt>
      <trkpt lat="45.79453" lon="6.1575">
        <ele>824</ele>
        <time>2010-01-01T00:09:12Z</time>
      </trkpt>
      <trkpt lat="45.79448" lon="6.15755">
        <ele>824</ele>
        <time>2010-01-01T00:09:14Z</time>
      </trkpt>
      <trkpt lat="45.79437" lon="6.15758">
        <ele>822</ele>
        <time>2010-01-01T00:09:19Z</time>
      </trkpt>
      <trkpt lat="45.79431" lon="6.15761">
        <ele>822</ele>
        <time>2010-01-01T00:09:21Z</time>
      </trkpt>
      <trkpt lat="45.79427" lon="6.15766">
        <ele>822</ele>
        <time>2010-01-01T00:09:23Z</time>
      </trkpt>
      <trkpt lat="45.79421" lon="6.1577">
        <ele>818</ele>
        <time>2010-01-01T00:09:26Z</time>
      </trkpt>
      <trkpt lat="45.7942" lon="6.15776">
        <ele>813</ele>
        <time>2010-01-01T00:09:28Z</time>
      </trkpt>
      <trkpt lat="45.79414" lon="6.15782">
        <ele>813</ele>
        <time>2010-01-01T00:09:30Z</time>
      </trkpt>
      <trkpt lat="45.79403" lon="6.15787">
        <ele>812</ele>
        <time>2010-01-01T00:09:35Z</time>
      </trkpt>
      <trkpt lat="45.79381" lon="6.15792">
        <ele>813</ele>
        <time>2010-01-01T00:09:44Z</time>
      </trkpt>
      <trkpt lat="45.79375" lon="6.15798">
        <ele>813</ele>
        <time>2010-01-01T00:09:47Z</time>
      </trkpt>
      <trkpt lat="45.7937" lon="6.15799">
        <ele>812</ele>
        <time>2010-01-01T00:09:49Z</time>
      </trkpt>
      <trkpt lat="45.79364" lon="6.15803">
        <ele>812</ele>
        <time>2010-01-01T00:09:52Z</time>
      </trkpt>
      <trkpt lat="45.79356" lon="6.15816">
        <ele>812</ele>
        <time>2010-01-01T00:09:56Z</time>
      </trkpt>
      <trkpt lat="45.79345" lon="6.15823">
        <ele>811</ele>
        <time>2010-01-01T00:10:01Z</time>
      </trkpt>
      <trkpt lat="45.79337" lon="6.15831">
        <ele>811</ele>
        <time>2010-01-01T00:10:05Z</time>
      </trkpt>
      <trkpt lat="45.7933" lon="6.15834">
        <ele>812</ele>
        <time>2010-01-01T00:10:08Z</time>
      </trkpt>
      <trkpt lat="45.79316" lon="6.15847">
        <ele>812.55</ele>
        <time>2010-01-01T00:10:15Z</time>
      </trkpt>
      <trkpt lat="45.79312" lon="6.15848">
        <ele>813</ele>
        <time>2010-01-01T00:10:16Z</time>
      </trkpt>
      <trkpt lat="45.79309" lon="6.15853">
        <ele>813</ele>
        <time>2010-01-01T00:10:18Z</time>
      </trkpt>
      <trkpt lat="45.793" lon="6.15855">
        <ele>815</ele>
        <time>2010-01-01T00:10:22Z</time>
      </trkpt>
      <trkpt lat="45.79295" lon="6.15862">
        <ele>817</ele>
        <time>2010-01-01T00:10:24Z</time>
      </trkpt>
      <trkpt lat="45.79288" lon="6.15866">
        <ele>817</ele>
        <time>2010-01-01T00:10:27Z</time>
      </trkpt>
      <trkpt lat="45.79278" lon="6.15877">
        <ele>822</ele>
        <time>2010-01-01T00:10:32Z</time>
      </trkpt>
      <trkpt lat="45.79264" lon="6.15888">
        <ele>822</ele>
        <time>2010-01-01T00:10:39Z</time>
      </trkpt>
      <trkpt lat="45.79245" lon="6.15895">
        <ele>825.67997</ele>
        <time>2010-01-01T00:10:47Z</time>
      </trkpt>
      <trkpt lat="45.79241" lon="6.15892">
        <ele>831</ele>
        <time>2010-01-01T00:10:48Z</time>
      </trkpt>
      <trkpt lat="45.79226" lon="6.15902">
        <ele>835</ele>
        <time>2010-01-01T00:10:55Z</time>
      </trkpt>
      <trkpt lat="45.79224" lon="6.15898">
        <ele>837</ele>
        <time>2010-01-01T00:10:56Z</time>
      </trkpt>
      <trkpt lat="45.79222" lon="6.15901">
        <ele>839</ele>
        <time>2010-01-01T00:10:57Z</time>
      </trkpt>
      <trkpt lat="45.79218" lon="6.15901">
        <ele>841</ele>
        <time>2010-01-01T00:10:59Z</time>
      </trkpt>
      <trkpt lat="45.79215" lon="6.15903">
        <ele>843</ele>
        <time>2010-01-01T00:11:00Z</time>
      </trkpt>
      <trkpt lat="45.79209" lon="6.15905">
        <ele>845.06929</ele>
        <time>2010-01-01T00:11:03Z</time>
      </trkpt>
      <trkpt lat="45.79204" lon="6.15908">
        <ele>848</ele>
        <time>2010-01-01T00:11:05Z</time>
      </trkpt>
      <trkpt lat="45.79205" lon="6.15909">
        <ele>849</ele>
        <time>2010-01-01T00:11:05Z</time>
      </trkpt>
      <trkpt lat="45.79204" lon="6.1591">
        <ele>849.52</ele>
        <time>2010-01-01T00:11:06Z</time>
      </trkpt>
      <trkpt lat="45.79201" lon="6.15914">
        <ele>850</ele>
        <time>2010-01-01T00:11:07Z</time>
      </trkpt>
      <trkpt lat="45.79191" lon="6.1592">
        <ele>856</ele>
        <time>2010-01-01T00:11:12Z</time>
      </trkpt>
      <trkpt lat="45.79178" lon="6.15943">
        <ele>863</ele>
        <time>2010-01-01T00:11:20Z</time>
      </trkpt>
      <trkpt lat="45.79175" lon="6.15945">
        <ele>863.96969</ele>
        <time>2010-01-01T00:11:22Z</time>
      </trkpt>
      <trkpt lat="45.79169" lon="6.1596">
        <ele>867</ele>
        <time>2010-01-01T00:11:26Z</time>
      </trkpt>
      <trkpt lat="45.79162" lon="6.15972">
        <ele>869</ele>
        <time>2010-01-01T00:11:31Z</time>
      </trkpt>
      <trkpt lat="45.79147" lon="6.15977">
        <ele>871</ele>
        <time>2010-01-01T00:11:37Z</time>
      </trkpt>
      <trkpt lat="45.79141" lon="6.15983">
        <ele>876</ele>
        <time>2010-01-01T00:11:40Z</time>
      </trkpt>
      <trkpt lat="45.7914" lon="6.15994">
        <ele>881</ele>
        <time>2010-01-01T00:11:43Z</time>
      </trkpt>
      <trkpt lat="45.79141" lon="6.15996">
        <ele>881</ele>
        <time>2010-01-01T00:11:43Z</time>
      </trkpt>
      <trkpt lat="45.79139" lon="6.16001">
        <ele>882</ele>
        <time>2010-01-01T00:11:45Z</time>
      </trkpt>
      <trkpt lat="45.7914" lon="6.16003">
        <ele>882</ele>
        <time>2010-01-01T00:11:46Z</time>
      </trkpt>
      <trkpt lat="45.79137" lon="6.16011">
        <ele>884.48484</ele>
        <time>2010-01-01T00:11:48Z</time>
      </trkpt>
      <trkpt lat="45.79132" lon="6.16015">
        <ele>885</ele>
        <time>2010-01-01T00:11:51Z</time>
      </trkpt>
      <trkpt lat="45.79123" lon="6.16028">
        <ele>886.97029</ele>
        <time>2010-01-01T00:11:56Z</time>
      </trkpt>
      <trkpt lat="45.79117" lon="6.16033">
        <ele>888</ele>
        <time>2010-01-01T00:11:59Z</time>
      </trkpt>
      <trkpt lat="45.79113" lon="6.1604">
        <ele>891</ele>
        <time>2010-01-01T00:12:01Z</time>
      </trkpt>
      <trkpt lat="45.79112" lon="6.16042">
        <ele>891</ele>
        <time>2010-01-01T00:12:02Z</time>
      </trkpt>
      <trkpt lat="45.79112" lon="6.16039">
        <ele>891.52</ele>
        <time>2010-01-01T00:12:02Z</time>
      </trkpt>
      <trkpt lat="45.79109" lon="6.16039">
        <ele>891</ele>
        <time>2010-01-01T00:12:03Z</time>
      </trkpt>
      <trkpt lat="45.79108" lon="6.16037">
        <ele>891.48</ele>
        <time>2010-01-01T00:12:04Z</time>
      </trkpt>
      <trkpt lat="45.7911" lon="6.16038">
        <ele>892</ele>
        <time>2010-01-01T00:12:05Z</time>
      </trkpt>
      <trkpt lat="45.79113" lon="6.16035">
        <ele>892</ele>
        <time>2010-01-01T00:12:06Z</time>
      </trkpt>
      <trkpt lat="45.79114" lon="6.16036">
        <ele>892</ele>
        <time>2010-01-01T00:12:07Z</time>
      </trkpt>
      <trkpt lat="45.79113" lon="6.16036">
        <ele>892</ele>
        <time>2010-01-01T00:12:07Z</time>
      </trkpt>
      <trkpt lat="45.79112" lon="6.16038">
        <ele>891</ele>
        <time>2010-01-01T00:12:08Z</time>
      </trkpt>
      <trkpt lat="45.79113" lon="6.1604">
        <ele>891</ele>
        <time>2010-01-01T00:12:09Z</time>
      </trkpt>
      <trkpt lat="45.79114" lon="6.16038">
        <ele>891</ele>
        <time>2010-01-01T00:12:09Z</time>
      </trkpt>
      <trkpt lat="45.79114" lon="6.16036">
        <ele>891</ele>
        <time>2010-01-01T00:12:10Z</time>
      </trkpt>
      <trkpt lat="45.79113" lon="6.16036">
        <ele>891</ele>
        <time>2010-01-01T00:12:10Z</time>
      </trkpt>
      <trkpt lat="45.79115" lon="6.16042">
        <ele>893</ele>
        <time>2010-01-01T00:12:12Z</time>
      </trkpt>
      <trkpt lat="45.79113" lon="6.16046">
        <ele>893</ele>
        <time>2010-01-01T00:12:13Z</time>
      </trkpt>
      <trkpt lat="45.79113" lon="6.16049">
        <ele>893</ele>
        <time>2010-01-01T00:12:15Z</time>
      </trkpt>
      <trkpt lat="45.79117" lon="6.16048">
        <ele>892</ele>
        <time>2010-01-01T00:12:16Z</time>
      </trkpt>
      <trkpt lat="45.79117" lon="6.16043">
        <ele>893</ele>
        <time>2010-01-01T00:12:18Z</time>
      </trkpt>
      <trkpt lat="45.79114" lon="6.16044">
        <ele>893</ele>
        <time>2010-01-01T00:12:19Z</time>
      </trkpt>
      <trkpt lat="45.79117" lon="6.16044">
        <ele>893</ele>
        <time>2010-01-01T00:12:20Z</time>
      </trkpt>
      <trkpt lat="45.79117" lon="6.16042">
        <ele>892</ele>
        <time>2010-01-01T00:12:20Z</time>
      </trkpt>
      <trkpt lat="45.79118" lon="6.16045">
        <ele>892</ele>
        <time>2010-01-01T00:12:21Z</time>
      </trkpt>
      <trkpt lat="45.79121" lon="6.16048">
        <ele>892</ele>
        <time>2010-01-01T00:12:22Z</time>
      </trkpt>
      <trkpt lat="45.79123" lon="6.16057">
        <ele>892</ele>
        <time>2010-01-01T00:12:25Z</time>
      </trkpt>
      <trkpt lat="45.79119" lon="6.16074">
        <ele>891</ele>
        <time>2010-01-01T00:12:30Z</time>
      </trkpt>
      <trkpt lat="45.79108" lon="6.16084">
        <ele>892</ele>
        <time>2010-01-01T00:12:35Z</time>
      </trkpt>
      <trkpt lat="45.79105" lon="6.16094">
        <ele>892</ele>
        <time>2010-01-01T00:12:38Z</time>
      </trkpt>
      <trkpt lat="45.79105" lon="6.16112">
        <ele>894</ele>
        <time>2010-01-01T00:12:43Z</time>
      </trkpt>
      <trkpt lat="45.79104" lon="6.16115">
        <ele>894</ele>
        <time>2010-01-01T00:12:44Z</time>
      </trkpt>
      <trkpt lat="45.79109" lon="6.16127">
        <ele>894</ele>
        <time>2010-01-01T00:12:48Z</time>
      </trkpt>
      <trkpt lat="45.79108" lon="6.16129">
        <ele>894</ele>
        <time>2010-01-01T00:12:49Z</time>
      </trkpt>
      <trkpt lat="45.79107" lon="6.16127">
        <ele>894</ele>
        <time>2010-01-01T00:12:50Z</time>
      </trkpt>
      <trkpt lat="45.79108" lon="6.16128">
        <ele>894</ele>
        <time>2010-01-01T00:12:50Z</time>
      </trkpt>
      <trkpt lat="45.79107" lon="6.1613">
        <ele>894</ele>
        <time>2010-01-01T00:12:51Z</time>
      </trkpt>
      <trkpt lat="45.79107" lon="6.16125">
        <ele>894</ele>
        <time>2010-01-01T00:12:52Z</time>
      </trkpt>
      <trkpt lat="45.79114" lon="6.16123">
        <ele>894</ele>
        <time>2010-01-01T00:12:55Z</time>
      </trkpt>
      <trkpt lat="45.79124" lon="6.1611">
        <ele>892</ele>
        <time>2010-01-01T00:13:01Z</time>
      </trkpt>
      <trkpt lat="45.79129" lon="6.16108">
        <ele>892</ele>
        <time>2010-01-01T00:13:02Z</time>
      </trkpt>
      <trkpt lat="45.79134" lon="6.16098">
        <ele>887</ele>
        <time>2010-01-01T00:13:06Z</time>
      </trkpt>
      <trkpt lat="45.79142" lon="6.1609">
        <ele>884</ele>
        <time>2010-01-01T00:13:10Z</time>
      </trkpt>
      <trkpt lat="45.79145" lon="6.16084">
        <ele>884</ele>
        <time>2010-01-01T00:13:12Z</time>
      </trkpt>
      <trkpt lat="45.79154" lon="6.16082">
        <ele>880</ele>
        <time>2010-01-01T00:13:15Z</time>
      </trkpt>
      <trkpt lat="45.79166" lon="6.16084">
        <ele>879</ele>
        <time>2010-01-01T00:13:20Z</time>
      </trkpt>
      <trkpt lat="45.79184" lon="6.16083">
        <ele>878</ele>
        <time>2010-01-01T00:13:28Z</time>
      </trkpt>
      <trkpt lat="45.7919" lon="6.16079">
        <ele>878.41999</ele>
        <time>2010-01-01T00:13:30Z</time>
      </trkpt>
      <trkpt lat="45.79195" lon="6.16078">
        <ele>879</ele>
        <time>2010-01-01T00:13:32Z</time>
      </trkpt>
      <trkpt lat="45.79198" lon="6.16073">
        <ele>879</ele>
        <time>2010-01-01T00:13:34Z</time>
      </trkpt>
      <trkpt lat="45.79201" lon="6.16073">
        <ele>879</ele>
        <time>2010-01-01T00:13:35Z</time>
      </trkpt>
      <trkpt lat="45.79211" lon="6.16064">
        <ele>880.00988</ele>
        <time>2010-01-01T00:13:40Z</time>
      </trkpt>
      <trkpt lat="45.79221" lon="6.16061">
        <ele>881</ele>
        <time>2010-01-01T00:13:44Z</time>
      </trkpt>
      <trkpt lat="45.79253" lon="6.1606">
        <ele>888</ele>
        <time>2010-01-01T00:13:57Z</time>
      </trkpt>
      <trkpt lat="45.79259" lon="6.16064">
        <ele>888</ele>
        <time>2010-01-01T00:14:00Z</time>
      </trkpt>
      <trkpt lat="45.79264" lon="6.16065">
        <ele>890</ele>
        <time>2010-01-01T00:14:01Z</time>
      </trkpt>
      <trkpt lat="45.79285" lon="6.16057">
        <ele>892</ele>
        <time>2010-01-01T00:14:10Z</time>
      </trkpt>
      <trkpt lat="45.79313" lon="6.16054">
        <ele>894</ele>
        <time>2010-01-01T00:14:21Z</time>
      </trkpt>
      <trkpt lat="45.79323" lon="6.16055">
        <ele>894</ele>
        <time>2010-01-01T00:14:25Z</time>
      </trkpt>
      <trkpt lat="45.79347" lon="6.16052">
        <ele>894</ele>
        <time>2010-01-01T00:14:35Z</time>
      </trkpt>
      <trkpt lat="45.7936" lon="6.16049">
        <ele>894</ele>
        <time>2010-01-01T00:14:40Z</time>
      </trkpt>
      <trkpt lat="45.79368" lon="6.16048">
        <ele>894</ele>
        <time>2010-01-01T00:14:44Z</time>
      </trkpt>
      <trkpt lat="45.79385" lon="6.16043">
        <ele>896</ele>
        <time>2010-01-01T00:14:50Z</time>
      </trkpt>
      <trkpt lat="45.79424" lon="6.16043">
        <ele>897</ele>
        <time>2010-01-01T00:15:06Z</time>
      </trkpt>
      <trkpt lat="45.79429" lon="6.16045">
        <ele>897</ele>
        <time>2010-01-01T00:15:08Z</time>
      </trkpt>
      <trkpt lat="45.79445" lon="6.16053">
        <ele>898</ele>
        <time>2010-01-01T00:15:15Z</time>
      </trkpt>
      <trkpt lat="45.79453" lon="6.1606">
        <ele>898</ele>
        <time>2010-01-01T00:15:19Z</time>
      </trkpt>
      <trkpt lat="45.79458" lon="6.16067">
        <ele>898</ele>
        <time>2010-01-01T00:15:21Z</time>
      </trkpt>
      <trkpt lat="45.79467" lon="6.16086">
        <ele>898</ele>
        <time>2010-01-01T00:15:28Z</time>
      </trkpt>
      <trkpt lat="45.79472" lon="6.16097">
        <ele>896.56</ele>
        <time>2010-01-01T00:15:32Z</time>
      </trkpt>
      <trkpt lat="45.79474" lon="6.16118">
        <ele>894</ele>
        <time>2010-01-01T00:15:37Z</time>
      </trkpt>
      <trkpt lat="45.79487" lon="6.16145">
        <ele>892</ele>
        <time>2010-01-01T00:15:47Z</time>
      </trkpt>
      <trkpt lat="45.7949" lon="6.1616">
        <ele>891</ele>
        <time>2010-01-01T00:15:51Z</time>
      </trkpt>
      <trkpt lat="45.7949" lon="6.16176">
        <ele>890</ele>
        <time>2010-01-01T00:15:55Z</time>
      </trkpt>
      <trkpt lat="45.79483" lon="6.16207">
        <ele>887</ele>
        <time>2010-01-01T00:16:04Z</time>
      </trkpt>
      <trkpt lat="45.79481" lon="6.16237">
        <ele>885</ele>
        <time>2010-01-01T00:16:13Z</time>
      </trkpt>
      <trkpt lat="45.79485" lon="6.16261">
        <ele>883</ele>
        <time>2010-01-01T00:16:20Z</time>
      </trkpt>
      <trkpt lat="45.79499" lon="6.16295">
        <ele>882</ele>
        <time>2010-01-01T00:16:31Z</time>
      </trkpt>
      <trkpt lat="45.79504" lon="6.16318">
        <ele>880</ele>
        <time>2010-01-01T00:16:38Z</time>
      </trkpt>
      <trkpt lat="45.79529" lon="6.16341">
        <ele>877</ele>
        <time>2010-01-01T00:16:49Z</time>
      </trkpt>
      <trkpt lat="45.79535" lon="6.16342">
        <ele>876</ele>
        <time>2010-01-01T00:16:52Z</time>
      </trkpt>
      <trkpt lat="45.79541" lon="6.16345">
        <ele>875.54</ele>
        <time>2010-01-01T00:16:55Z</time>
      </trkpt>
      <trkpt lat="45.79546" lon="6.1635">
        <ele>875</ele>
        <time>2010-01-01T00:16:57Z</time>
      </trkpt>
      <trkpt lat="45.79547" lon="6.16358">
        <ele>875</ele>
        <time>2010-01-01T00:16:59Z</time>
      </trkpt>
      <trkpt lat="45.79556" lon="6.16352">
        <ele>875</ele>
        <time>2010-01-01T00:17:03Z</time>
      </trkpt>
      <trkpt lat="45.7957" lon="6.1633">
        <ele>870.88</ele>
        <time>2010-01-01T00:17:11Z</time>
      </trkpt>
      <trkpt lat="45.79579" lon="6.16325">
        <ele>870</ele>
        <time>2010-01-01T00:17:15Z</time>
      </trkpt>
      <trkpt lat="45.79584" lon="6.16323">
        <ele>868.89108</ele>
        <time>2010-01-01T00:17:17Z</time>
      </trkpt>
      <trkpt lat="45.79593" lon="6.16323">
        <ele>868</ele>
        <time>2010-01-01T00:17:21Z</time>
      </trkpt>
      <trkpt lat="45.79607" lon="6.16329">
        <ele>867</ele>
        <time>2010-01-01T00:17:27Z</time>
      </trkpt>
      <trkpt lat="45.79616" lon="6.1634">
        <ele>866</ele>
        <time>2010-01-01T00:17:31Z</time>
      </trkpt>
      <trkpt lat="45.79625" lon="6.16363">
        <ele>866</ele>
        <time>2010-01-01T00:17:39Z</time>
      </trkpt>
      <trkpt lat="45.79632" lon="6.16384">
        <ele>863</ele>
        <time>2010-01-01T00:17:45Z</time>
      </trkpt>
      <trkpt lat="45.79636" lon="6.16404">
        <ele>862</ele>
        <time>2010-01-01T00:17:51Z</time>
      </trkpt>
      <trkpt lat="45.79637" lon="6.16419">
        <ele>862</ele>
        <time>2010-01-01T00:17:55Z</time>
      </trkpt>
      <trkpt lat="45.79642" lon="6.16432">
        <ele>862</ele>
        <time>2010-01-01T00:17:59Z</time>
      </trkpt>
      <trkpt lat="45.79649" lon="6.1644">
        <ele>859</ele>
        <time>2010-01-01T00:18:03Z</time>
      </trkpt>
      <trkpt lat="45.79655" lon="6.16439">
        <ele>858.57575</ele>
        <time>2010-01-01T00:18:06Z</time>
      </trkpt>
      <trkpt lat="45.79667" lon="6.16435">
        <ele>857.42105</ele>
        <time>2010-01-01T00:18:10Z</time>
      </trkpt>
      <trkpt lat="45.79682" lon="6.16428">
        <ele>857</ele>
        <time>2010-01-01T00:18:17Z</time>
      </trkpt>
      <trkpt lat="45.79722" lon="6.16418">
        <ele>850.38001</ele>
        <time>2010-01-01T00:18:33Z</time>
      </trkpt>
      <trkpt lat="45.79752" lon="6.16415">
        <ele>847.41</ele>
        <time>2010-01-01T00:18:45Z</time>
      </trkpt>
      <trkpt lat="45.79758" lon="6.16416">
        <ele>846</ele>
        <time>2010-01-01T00:18:47Z</time>
      </trkpt>
      <trkpt lat="45.79764" lon="6.16422">
        <ele>844</ele>
        <time>2010-01-01T00:18:50Z</time>
      </trkpt>
      <trkpt lat="45.79765" lon="6.16425">
        <ele>844</ele>
        <time>2010-01-01T00:18:51Z</time>
      </trkpt>
      <trkpt lat="45.79764" lon="6.16441">
        <ele>843</ele>
        <time>2010-01-01T00:18:56Z</time>
      </trkpt>
      <trkpt lat="45.79758" lon="6.1646">
        <ele>848</ele>
        <time>2010-01-01T00:19:02Z</time>
      </trkpt>
      <trkpt lat="45.79754" lon="6.16468">
        <ele>849</ele>
        <time>2010-01-01T00:19:04Z</time>
      </trkpt>
      <trkpt lat="45.79753" lon="6.16476">
        <ele>851</ele>
        <time>2010-01-01T00:19:07Z</time>
      </trkpt>
      <trkpt lat="45.7975" lon="6.16483">
        <ele>851</ele>
        <time>2010-01-01T00:19:09Z</time>
      </trkpt>
      <trkpt lat="45.79751" lon="6.16497">
        <ele>853</ele>
        <time>2010-01-01T00:19:13Z</time>
      </trkpt>
      <trkpt lat="45.79747" lon="6.16507">
        <ele>856</ele>
        <time>2010-01-01T00:19:16Z</time>
      </trkpt>
      <trkpt lat="45.7975" lon="6.16511">
        <ele>858.58999</ele>
        <time>2010-01-01T00:19:18Z</time>
      </trkpt>
      <trkpt lat="45.7975" lon="6.16515">
        <ele>859</ele>
        <time>2010-01-01T00:19:19Z</time>
      </trkpt>
      <trkpt lat="45.79744" lon="6.16533">
        <ele>862</ele>
        <time>2010-01-01T00:19:25Z</time>
      </trkpt>
      <trkpt lat="45.79733" lon="6.16552">
        <ele>866</ele>
        <time>2010-01-01T00:19:31Z</time>
      </trkpt>
      <trkpt lat="45.79726" lon="6.16561">
        <ele>867</ele>
        <time>2010-01-01T00:19:35Z</time>
      </trkpt>
      <trkpt lat="45.79723" lon="6.16569">
        <ele>867</ele>
        <time>2010-01-01T00:19:37Z</time>
      </trkpt>
      <trkpt lat="45.79715" lon="6.16574">
        <ele>870</ele>
        <time>2010-01-01T00:19:41Z</time>
      </trkpt>
      <trkpt lat="45.79705" lon="6.16586">
        <ele>873</ele>
        <time>2010-01-01T00:19:46Z</time>
      </trkpt>
      <trkpt lat="45.79702" lon="6.16592">
        <ele>874</ele>
        <time>2010-01-01T00:19:48Z</time>
      </trkpt>
      <trkpt lat="45.79694" lon="6.16603">
        <ele>875</ele>
        <time>2010-01-01T00:19:53Z</time>
      </trkpt>
      <trkpt lat="45.79684" lon="6.16624">
        <ele>876</ele>
        <time>2010-01-01T00:20:00Z</time>
      </trkpt>
      <trkpt lat="45.79676" lon="6.16636">
        <ele>881</ele>
        <time>2010-01-01T00:20:04Z</time>
      </trkpt>
      <trkpt lat="45.79671" lon="6.16642">
        <ele>883</ele>
        <time>2010-01-01T00:20:07Z</time>
      </trkpt>
      <trkpt lat="45.79661" lon="6.16647">
        <ele>884</ele>
        <time>2010-01-01T00:20:11Z</time>
      </trkpt>
      <trkpt lat="45.79649" lon="6.16648">
        <ele>887</ele>
        <time>2010-01-01T00:20:16Z</time>
      </trkpt>
      <trkpt lat="45.79645" lon="6.1665">
        <ele>887</ele>
        <time>2010-01-01T00:20:18Z</time>
      </trkpt>
      <trkpt lat="45.79638" lon="6.16657">
        <ele>890</ele>
        <time>2010-01-01T00:20:21Z</time>
      </trkpt>
      <trkpt lat="45.79636" lon="6.16662">
        <ele>892</ele>
        <time>2010-01-01T00:20:23Z</time>
      </trkpt>
      <trkpt lat="45.79633" lon="6.16666">
        <ele>894</ele>
        <time>2010-01-01T00:20:25Z</time>
      </trkpt>
      <trkpt lat="45.79625" lon="6.16674">
        <ele>894</ele>
        <time>2010-01-01T00:20:29Z</time>
      </trkpt>
      <trkpt lat="45.79603" lon="6.1668">
        <ele>899</ele>
        <time>2010-01-01T00:20:37Z</time>
      </trkpt>
      <trkpt lat="45.79592" lon="6.16686">
        <ele>903</ele>
        <time>2010-01-01T00:20:42Z</time>
      </trkpt>
      <trkpt lat="45.79587" lon="6.16692">
        <ele>903</ele>
        <time>2010-01-01T00:20:45Z</time>
      </trkpt>
      <trkpt lat="45.79581" lon="6.16695">
        <ele>903</ele>
        <time>2010-01-01T00:20:47Z</time>
      </trkpt>
      <trkpt lat="45.79575" lon="6.16701">
        <ele>905</ele>
        <time>2010-01-01T00:20:50Z</time>
      </trkpt>
      <trkpt lat="45.79574" lon="6.16705">
        <ele>908</ele>
        <time>2010-01-01T00:20:51Z</time>
      </trkpt>
      <trkpt lat="45.79571" lon="6.16706">
        <ele>908</ele>
        <time>2010-01-01T00:20:52Z</time>
      </trkpt>
      <trkpt lat="45.79568" lon="6.16704">
        <ele>911</ele>
        <time>2010-01-01T00:20:54Z</time>
      </trkpt>
      <trkpt lat="45.7956" lon="6.1671">
        <ele>912</ele>
        <time>2010-01-01T00:20:57Z</time>
      </trkpt>
      <trkpt lat="45.79535" lon="6.16712">
        <ele>915.32</ele>
        <time>2010-01-01T00:21:08Z</time>
      </trkpt>
      <trkpt lat="45.79521" lon="6.1672">
        <ele>920</ele>
        <time>2010-01-01T00:21:14Z</time>
      </trkpt>
      <trkpt lat="45.79514" lon="6.16744">
        <ele>924</ele>
        <time>2010-01-01T00:21:21Z</time>
      </trkpt>
      <trkpt lat="45.79515" lon="6.16747">
        <ele>928</ele>
        <time>2010-01-01T00:21:22Z</time>
      </trkpt>
      <trkpt lat="45.79508" lon="6.16755">
        <ele>930.44554</ele>
        <time>2010-01-01T00:21:25Z</time>
      </trkpt>
      <trkpt lat="45.79499" lon="6.1676">
        <ele>933</ele>
        <time>2010-01-01T00:21:29Z</time>
      </trkpt>
      <trkpt lat="45.79494" lon="6.16768">
        <ele>936</ele>
        <time>2010-01-01T00:21:32Z</time>
      </trkpt>
      <trkpt lat="45.79489" lon="6.16785">
        <ele>940</ele>
        <time>2010-01-01T00:21:37Z</time>
      </trkpt>
      <trkpt lat="45.79475" lon="6.16803">
        <ele>945</ele>
        <time>2010-01-01T00:21:45Z</time>
      </trkpt>
      <trkpt lat="45.79471" lon="6.16805">
        <ele>948</ele>
        <time>2010-01-01T00:21:46Z</time>
      </trkpt>
      <trkpt lat="45.79466" lon="6.16813">
        <ele>949</ele>
        <time>2010-01-01T00:21:49Z</time>
      </trkpt>
      <trkpt lat="45.7946" lon="6.16818">
        <ele>952</ele>
        <time>2010-01-01T00:21:52Z</time>
      </trkpt>
      <trkpt lat="45.79465" lon="6.16834">
        <ele>956</ele>
        <time>2010-01-01T00:21:57Z</time>
      </trkpt>
      <trkpt lat="45.79472" lon="6.16841">
        <ele>958</ele>
        <time>2010-01-01T00:22:00Z</time>
      </trkpt>
      <trkpt lat="45.79477" lon="6.16844">
        <ele>958</ele>
        <time>2010-01-01T00:22:03Z</time>
      </trkpt>
      <trkpt lat="45.79482" lon="6.16852">
        <ele>960</ele>
        <time>2010-01-01T00:22:06Z</time>
      </trkpt>
      <trkpt lat="45.79487" lon="6.16855">
        <ele>960</ele>
        <time>2010-01-01T00:22:08Z</time>
      </trkpt>
      <trkpt lat="45.79495" lon="6.16871">
        <ele>963.64</ele>
        <time>2010-01-01T00:22:13Z</time>
      </trkpt>
      <trkpt lat="45.79496" lon="6.16878">
        <ele>965</ele>
        <time>2010-01-01T00:22:15Z</time>
      </trkpt>
      <trkpt lat="45.79496" lon="6.16885">
        <ele>966</ele>
        <time>2010-01-01T00:22:17Z</time>
      </trkpt>
      <trkpt lat="45.79493" lon="6.16888">
        <ele>966.41999</ele>
        <time>2010-01-01T00:22:19Z</time>
      </trkpt>
      <trkpt lat="45.79486" lon="6.16892">
        <ele>969</ele>
        <time>2010-01-01T00:22:22Z</time>
      </trkpt>
      <trkpt lat="45.79484" lon="6.16897">
        <ele>970</ele>
        <time>2010-01-01T00:22:23Z</time>
      </trkpt>
      <trkpt lat="45.79484" lon="6.16906">
        <ele>974</ele>
        <time>2010-01-01T00:22:26Z</time>
      </trkpt>
      <trkpt lat="45.79481" lon="6.16913">
        <ele>975</ele>
        <time>2010-01-01T00:22:28Z</time>
      </trkpt>
      <trkpt lat="45.79478" lon="6.16926">
        <ele>980</ele>
        <time>2010-01-01T00:22:32Z</time>
      </trkpt>
      <trkpt lat="45.79477" lon="6.16939">
        <ele>983</ele>
        <time>2010-01-01T00:22:36Z</time>
      </trkpt>
      <trkpt lat="45.79478" lon="6.16943">
        <ele>984</ele>
        <time>2010-01-01T00:22:37Z</time>
      </trkpt>
      <trkpt lat="45.79473" lon="6.16951">
        <ele>987</ele>
        <time>2010-01-01T00:22:40Z</time>
      </trkpt>
      <trkpt lat="45.79473" lon="6.16967">
        <ele>989</ele>
        <time>2010-01-01T00:22:44Z</time>
      </trkpt>
      <trkpt lat="45.7947" lon="6.16976">
        <ele>991</ele>
        <time>2010-01-01T00:22:47Z</time>
      </trkpt>
      <trkpt lat="45.79473" lon="6.16988">
        <ele>996.39</ele>
        <time>2010-01-01T00:22:50Z</time>
      </trkpt>
      <trkpt lat="45.79471" lon="6.16999">
        <ele>1003</ele>
        <time>2010-01-01T00:22:54Z</time>
      </trkpt>
      <trkpt lat="45.79473" lon="6.17004">
        <ele>1004</ele>
        <time>2010-01-01T00:22:55Z</time>
      </trkpt>
      <trkpt lat="45.79475" lon="6.17018">
        <ele>1006</ele>
        <time>2010-01-01T00:22:59Z</time>
      </trkpt>
      <trkpt lat="45.79479" lon="6.17024">
        <ele>1006</ele>
        <time>2010-01-01T00:23:01Z</time>
      </trkpt>
      <trkpt lat="45.79483" lon="6.17042">
        <ele>1004</ele>
        <time>2010-01-01T00:23:07Z</time>
      </trkpt>
      <trkpt lat="45.79484" lon="6.17054">
        <ele>1004</ele>
        <time>2010-01-01T00:23:10Z</time>
      </trkpt>
      <trkpt lat="45.7949" lon="6.1706">
        <ele>1002</ele>
        <time>2010-01-01T00:23:13Z</time>
      </trkpt>
      <trkpt lat="45.79488" lon="6.17077">
        <ele>1003</ele>
        <time>2010-01-01T00:23:18Z</time>
      </trkpt>
      <trkpt lat="45.79491" lon="6.17078">
        <ele>1003.2772</ele>
        <time>2010-01-01T00:23:19Z</time>
      </trkpt>
      <trkpt lat="45.79495" lon="6.17089">
        <ele>1004</ele>
        <time>2010-01-01T00:23:23Z</time>
      </trkpt>
      <trkpt lat="45.795" lon="6.17093">
        <ele>1006</ele>
        <time>2010-01-01T00:23:25Z</time>
      </trkpt>
      <trkpt lat="45.79502" lon="6.17102">
        <ele>1006</ele>
        <time>2010-01-01T00:23:28Z</time>
      </trkpt>
      <trkpt lat="45.79504" lon="6.17105">
        <ele>1008</ele>
        <time>2010-01-01T00:23:29Z</time>
      </trkpt>
      <trkpt lat="45.79501" lon="6.17116">
        <ele>1009</ele>
        <time>2010-01-01T00:23:32Z</time>
      </trkpt>
      <trkpt lat="45.79501" lon="6.17138">
        <ele>1011</ele>
        <time>2010-01-01T00:23:38Z</time>
      </trkpt>
      <trkpt lat="45.79498" lon="6.17146">
        <ele>1013</ele>
        <time>2010-01-01T00:23:40Z</time>
      </trkpt>
      <trkpt lat="45.79496" lon="6.17149">
        <ele>1013</ele>
        <time>2010-01-01T00:23:42Z</time>
      </trkpt>
      <trkpt lat="45.79494" lon="6.17156">
        <ele>1016</ele>
        <time>2010-01-01T00:23:44Z</time>
      </trkpt>
      <trkpt lat="45.795" lon="6.17163">
        <ele>1020.3399</ele>
        <time>2010-01-01T00:23:47Z</time>
      </trkpt>
      <trkpt lat="45.79501" lon="6.17167">
        <ele>1021</ele>
        <time>2010-01-01T00:23:48Z</time>
      </trkpt>
      <trkpt lat="45.79504" lon="6.17168">
        <ele>1022</ele>
        <time>2010-01-01T00:23:49Z</time>
      </trkpt>
      <trkpt lat="45.79508" lon="6.17173">
        <ele>1022</ele>
        <time>2010-01-01T00:23:51Z</time>
      </trkpt>
      <trkpt lat="45.79509" lon="6.17178">
        <ele>1022</ele>
        <time>2010-01-01T00:23:53Z</time>
      </trkpt>
      <trkpt lat="45.79514" lon="6.17181">
        <ele>1024</ele>
        <time>2010-01-01T00:23:55Z</time>
      </trkpt>
      <trkpt lat="45.79515" lon="6.17188">
        <ele>1024</ele>
        <time>2010-01-01T00:23:57Z</time>
      </trkpt>
      <trkpt lat="45.7952" lon="6.17199">
        <ele>1025</ele>
        <time>2010-01-01T00:24:01Z</time>
      </trkpt>
      <trkpt lat="45.79522" lon="6.17207">
        <ele>1027</ele>
        <time>2010-01-01T00:24:03Z</time>
      </trkpt>
      <trkpt lat="45.79525" lon="6.17214">
        <ele>1027</ele>
        <time>2010-01-01T00:24:06Z</time>
      </trkpt>
      <trkpt lat="45.7953" lon="6.17217">
        <ele>1029</ele>
        <time>2010-01-01T00:24:07Z</time>
      </trkpt>
      <trkpt lat="45.7953" lon="6.17228">
        <ele>1029</ele>
        <time>2010-01-01T00:24:11Z</time>
      </trkpt>
      <trkpt lat="45.79534" lon="6.17238">
        <ele>1031</ele>
        <time>2010-01-01T00:24:14Z</time>
      </trkpt>
      <trkpt lat="45.79545" lon="6.17237">
        <ele>1031.8712</ele>
        <time>2010-01-01T00:24:18Z</time>
      </trkpt>
      <trkpt lat="45.79547" lon="6.17236">
        <ele>1033</ele>
        <time>2010-01-01T00:24:19Z</time>
      </trkpt>
      <trkpt lat="45.79549" lon="6.17237">
        <ele>1033</ele>
        <time>2010-01-01T00:24:20Z</time>
      </trkpt>
      <trkpt lat="45.79554" lon="6.17247">
        <ele>1033</ele>
        <time>2010-01-01T00:24:23Z</time>
      </trkpt>
      <trkpt lat="45.79558" lon="6.17253">
        <ele>1036</ele>
        <time>2010-01-01T00:24:26Z</time>
      </trkpt>
      <trkpt lat="45.79562" lon="6.17256">
        <ele>1037</ele>
        <time>2010-01-01T00:24:28Z</time>
      </trkpt>
      <trkpt lat="45.79584" lon="6.17262">
        <ele>1036</ele>
        <time>2010-01-01T00:24:36Z</time>
      </trkpt>
      <trkpt lat="45.79591" lon="6.17267">
        <ele>1036</ele>
        <time>2010-01-01T00:24:40Z</time>
      </trkpt>
      <trkpt lat="45.79593" lon="6.17267">
        <ele>1035.56</ele>
        <time>2010-01-01T00:24:41Z</time>
      </trkpt>
      <trkpt lat="45.79601" lon="6.17265">
        <ele>1035</ele>
        <time>2010-01-01T00:24:43Z</time>
      </trkpt>
      <trkpt lat="45.79618" lon="6.17252">
        <ele>1032</ele>
        <time>2010-01-01T00:24:51Z</time>
      </trkpt>
      <trkpt lat="45.79622" lon="6.17248">
        <ele>1032</ele>
        <time>2010-01-01T00:24:53Z</time>
      </trkpt>
      <trkpt lat="45.79626" lon="6.17237">
        <ele>1031</ele>
        <time>2010-01-01T00:24:57Z</time>
      </trkpt>
      <trkpt lat="45.7963" lon="6.17232">
        <ele>1030</ele>
        <time>2010-01-01T00:24:59Z</time>
      </trkpt>
      <trkpt lat="45.79645" lon="6.17228">
        <ele>1030</ele>
        <time>2010-01-01T00:25:05Z</time>
      </trkpt>
      <trkpt lat="45.79665" lon="6.17208">
        <ele>1029</ele>
        <time>2010-01-01T00:25:15Z</time>
      </trkpt>
      <trkpt lat="45.79679" lon="6.17199">
        <ele>1027</ele>
        <time>2010-01-01T00:25:21Z</time>
      </trkpt>
      <trkpt lat="45.79701" lon="6.17194">
        <ele>1024</ele>
        <time>2010-01-01T00:25:30Z</time>
      </trkpt>
      <trkpt lat="45.79714" lon="6.17188">
        <ele>1021</ele>
        <time>2010-01-01T00:25:35Z</time>
      </trkpt>
      <trkpt lat="45.79735" lon="6.17168">
        <ele>1019</ele>
        <time>2010-01-01T00:25:45Z</time>
      </trkpt>
      <trkpt lat="45.79746" lon="6.17148">
        <ele>1016.58</ele>
        <time>2010-01-01T00:25:53Z</time>
      </trkpt>
      <trkpt lat="45.7976" lon="6.17148">
        <ele>1016</ele>
        <time>2010-01-01T00:25:58Z</time>
      </trkpt>
      <trkpt lat="45.79762" lon="6.17151">
        <ele>1016</ele>
        <time>2010-01-01T00:25:59Z</time>
      </trkpt>
      <trkpt lat="45.79761" lon="6.17158">
        <ele>1016</ele>
        <time>2010-01-01T00:26:01Z</time>
      </trkpt>
      <trkpt lat="45.79759" lon="6.1716">
        <ele>1016</ele>
        <time>2010-01-01T00:26:02Z</time>
      </trkpt>
      <trkpt lat="45.79758" lon="6.17174">
        <ele>1018</ele>
        <time>2010-01-01T00:26:06Z</time>
      </trkpt>
      <trkpt lat="45.7975" lon="6.17185">
        <ele>1025</ele>
        <time>2010-01-01T00:26:11Z</time>
      </trkpt>
      <trkpt lat="45.79753" lon="6.17201">
        <ele>1027</ele>
        <time>2010-01-01T00:26:15Z</time>
      </trkpt>
      <trkpt lat="45.79752" lon="6.17212">
        <ele>1027</ele>
        <time>2010-01-01T00:26:18Z</time>
      </trkpt>
      <trkpt lat="45.79756" lon="6.17214">
        <ele>1032</ele>
        <time>2010-01-01T00:26:20Z</time>
      </trkpt>
      <trkpt lat="45.79759" lon="6.17211">
        <ele>1035</ele>
        <time>2010-01-01T00:26:22Z</time>
      </trkpt>
      <trkpt lat="45.79759" lon="6.17214">
        <ele>1036</ele>
        <time>2010-01-01T00:26:23Z</time>
      </trkpt>
      <trkpt lat="45.79753" lon="6.17229">
        <ele>1038</ele>
        <time>2010-01-01T00:26:27Z</time>
      </trkpt>
      <trkpt lat="45.79753" lon="6.17226">
        <ele>1042</ele>
        <time>2010-01-01T00:26:28Z</time>
      </trkpt>
      <trkpt lat="45.79759" lon="6.17226">
        <ele>1043</ele>
        <time>2010-01-01T00:26:30Z</time>
      </trkpt>
      <trkpt lat="45.79767" lon="6.17219">
        <ele>1045</ele>
        <time>2010-01-01T00:26:34Z</time>
      </trkpt>
      <trkpt lat="45.79775" lon="6.17222">
        <ele>1045</ele>
        <time>2010-01-01T00:26:38Z</time>
      </trkpt>
      <trkpt lat="45.79781" lon="6.17226">
        <ele>1045</ele>
        <time>2010-01-01T00:26:40Z</time>
      </trkpt>
      <trkpt lat="45.79787" lon="6.17233">
        <ele>1048</ele>
        <time>2010-01-01T00:26:43Z</time>
      </trkpt>
      <trkpt lat="45.7979" lon="6.17238">
        <ele>1048.6938</ele>
        <time>2010-01-01T00:26:45Z</time>
      </trkpt>
      <trkpt lat="45.79797" lon="6.17245">
        <ele>1052</ele>
        <time>2010-01-01T00:26:48Z</time>
      </trkpt>
      <trkpt lat="45.79809" lon="6.17266">
        <ele>1054</ele>
        <time>2010-01-01T00:26:56Z</time>
      </trkpt>
      <trkpt lat="45.79811" lon="6.17267">
        <ele>1054.9307</ele>
        <time>2010-01-01T00:26:57Z</time>
      </trkpt>
      <trkpt lat="45.7981" lon="6.1727">
        <ele>1056</ele>
        <time>2010-01-01T00:26:58Z</time>
      </trkpt>
      <trkpt lat="45.79815" lon="6.17283">
        <ele>1058</ele>
        <time>2010-01-01T00:27:02Z</time>
      </trkpt>
      <trkpt lat="45.79819" lon="6.1729">
        <ele>1058</ele>
        <time>2010-01-01T00:27:04Z</time>
      </trkpt>
      <trkpt lat="45.79815" lon="6.17306">
        <ele>1058</ele>
        <time>2010-01-01T00:27:09Z</time>
      </trkpt>
      <trkpt lat="45.79811" lon="6.17309">
        <ele>1061</ele>
        <time>2010-01-01T00:27:11Z</time>
      </trkpt>
      <trkpt lat="45.79807" lon="6.17315">
        <ele>1065</ele>
        <time>2010-01-01T00:27:13Z</time>
      </trkpt>
      <trkpt lat="45.79808" lon="6.17318">
        <ele>1065</ele>
        <time>2010-01-01T00:27:14Z</time>
      </trkpt>
      <trkpt lat="45.79803" lon="6.17327">
        <ele>1068</ele>
        <time>2010-01-01T00:27:17Z</time>
      </trkpt>
      <trkpt lat="45.79805" lon="6.17329">
        <ele>1070</ele>
        <time>2010-01-01T00:27:18Z</time>
      </trkpt>
      <trkpt lat="45.79804" lon="6.17333">
        <ele>1070.3495</ele>
        <time>2010-01-01T00:27:19Z</time>
      </trkpt>
      <trkpt lat="45.79797" lon="6.17342">
        <ele>1072</ele>
        <time>2010-01-01T00:27:23Z</time>
      </trkpt>
      <trkpt lat="45.79797" lon="6.17343">
        <ele>1074</ele>
        <time>2010-01-01T00:27:24Z</time>
      </trkpt>
      <trkpt lat="45.79799" lon="6.17342">
        <ele>1074</ele>
        <time>2010-01-01T00:27:25Z</time>
      </trkpt>
      <trkpt lat="45.79799" lon="6.1734">
        <ele>1074</ele>
        <time>2010-01-01T00:27:25Z</time>
      </trkpt>
      <trkpt lat="45.79796" lon="6.17339">
        <ele>1074</ele>
        <time>2010-01-01T00:27:26Z</time>
      </trkpt>
      <trkpt lat="45.79795" lon="6.17336">
        <ele>1074</ele>
        <time>2010-01-01T00:27:27Z</time>
      </trkpt>
      <trkpt lat="45.79796" lon="6.17331">
        <ele>1074</ele>
        <time>2010-01-01T00:27:29Z</time>
      </trkpt>
      <trkpt lat="45.79793" lon="6.17321">
        <ele>1074</ele>
        <time>2010-01-01T00:27:32Z</time>
      </trkpt>
      <trkpt lat="45.79795" lon="6.17315">
        <ele>1074</ele>
        <time>2010-01-01T00:27:34Z</time>
      </trkpt>
      <trkpt lat="45.79793" lon="6.17317">
        <ele>1073</ele>
        <time>2010-01-01T00:27:34Z</time>
      </trkpt>
      <trkpt lat="45.79791" lon="6.17314">
        <ele>1073</ele>
        <time>2010-01-01T00:27:35Z</time>
      </trkpt>
      <trkpt lat="45.79793" lon="6.17317">
        <ele>1073</ele>
        <time>2010-01-01T00:27:36Z</time>
      </trkpt>
      <trkpt lat="45.79795" lon="6.17317">
        <ele>1073</ele>
        <time>2010-01-01T00:27:37Z</time>
      </trkpt>
      <trkpt lat="45.79795" lon="6.17311">
        <ele>1073</ele>
        <time>2010-01-01T00:27:39Z</time>
      </trkpt>
      <trkpt lat="45.79794" lon="6.17311">
        <ele>1073</ele>
        <time>2010-01-01T00:27:39Z</time>
      </trkpt>
      <trkpt lat="45.79792" lon="6.17316">
        <ele>1073</ele>
        <time>2010-01-01T00:27:41Z</time>
      </trkpt>
      <trkpt lat="45.79787" lon="6.17319">
        <ele>1074</ele>
        <time>2010-01-01T00:27:43Z</time>
      </trkpt>
      <trkpt lat="45.79789" lon="6.17319">
        <ele>1074</ele>
        <time>2010-01-01T00:27:44Z</time>
      </trkpt>
      <trkpt lat="45.79795" lon="6.17306">
        <ele>1070</ele>
        <time>2010-01-01T00:27:48Z</time>
      </trkpt>
      <trkpt lat="45.79804" lon="6.17301">
        <ele>1066</ele>
        <time>2010-01-01T00:27:52Z</time>
      </trkpt>
      <trkpt lat="45.79807" lon="6.17304">
        <ele>1065.57</ele>
        <time>2010-01-01T00:27:53Z</time>
      </trkpt>
      <trkpt lat="45.79811" lon="6.17312">
        <ele>1065</ele>
        <time>2010-01-01T00:27:56Z</time>
      </trkpt>
      <trkpt lat="45.79816" lon="6.17316">
        <ele>1065</ele>
        <time>2010-01-01T00:27:58Z</time>
      </trkpt>
      <trkpt lat="45.79819" lon="6.17323">
        <ele>1066</ele>
        <time>2010-01-01T00:28:01Z</time>
      </trkpt>
      <trkpt lat="45.79827" lon="6.17329">
        <ele>1069</ele>
        <time>2010-01-01T00:28:04Z</time>
      </trkpt>
      <trkpt lat="45.79829" lon="6.17336">
        <ele>1069.3299</ele>
        <time>2010-01-01T00:28:06Z</time>
      </trkpt>
      <trkpt lat="45.79839" lon="6.17339">
        <ele>1071</ele>
        <time>2010-01-01T00:28:10Z</time>
      </trkpt>
      <trkpt lat="45.79845" lon="6.17345">
        <ele>1071</ele>
        <time>2010-01-01T00:28:13Z</time>
      </trkpt>
      <trkpt lat="45.79852" lon="6.17355">
        <ele>1073</ele>
        <time>2010-01-01T00:28:17Z</time>
      </trkpt>
      <trkpt lat="45.7986" lon="6.17359">
        <ele>1075</ele>
        <time>2010-01-01T00:28:21Z</time>
      </trkpt>
      <trkpt lat="45.79863" lon="6.17365">
        <ele>1075</ele>
        <time>2010-01-01T00:28:23Z</time>
      </trkpt>
      <trkpt lat="45.79866" lon="6.17368">
        <ele>1075</ele>
        <time>2010-01-01T00:28:24Z</time>
      </trkpt>
      <trkpt lat="45.79872" lon="6.17378">
        <ele>1077</ele>
        <time>2010-01-01T00:28:28Z</time>
      </trkpt>
      <trkpt lat="45.79878" lon="6.17392">
        <ele>1077</ele>
        <time>2010-01-01T00:28:33Z</time>
      </trkpt>
      <trkpt lat="45.79885" lon="6.17397">
        <ele>1079</ele>
        <time>2010-01-01T00:28:36Z</time>
      </trkpt>
      <trkpt lat="45.79892" lon="6.17417">
        <ele>1081</ele>
        <time>2010-01-01T00:28:42Z</time>
      </trkpt>
      <trkpt lat="45.79895" lon="6.17421">
        <ele>1081</ele>
        <time>2010-01-01T00:28:44Z</time>
      </trkpt>
      <trkpt lat="45.79898" lon="6.17433">
        <ele>1083</ele>
        <time>2010-01-01T00:28:47Z</time>
      </trkpt>
      <trkpt lat="45.79907" lon="6.17447">
        <ele>1088</ele>
        <time>2010-01-01T00:28:52Z</time>
      </trkpt>
      <trkpt lat="45.79903" lon="6.1745">
        <ele>1088</ele>
        <time>2010-01-01T00:28:54Z</time>
      </trkpt>
      <trkpt lat="45.79882" lon="6.17455">
        <ele>1091</ele>
        <time>2010-01-01T00:29:02Z</time>
      </trkpt>
      <trkpt lat="45.79873" lon="6.17453">
        <ele>1091.792</ele>
        <time>2010-01-01T00:29:06Z</time>
      </trkpt>
      <trkpt lat="45.79865" lon="6.17454">
        <ele>1093</ele>
        <time>2010-01-01T00:29:09Z</time>
      </trkpt>
      <trkpt lat="45.7986" lon="6.17452">
        <ele>1096</ele>
        <time>2010-01-01T00:29:11Z</time>
      </trkpt>
      <trkpt lat="45.79857" lon="6.17453">
        <ele>1096</ele>
        <time>2010-01-01T00:29:13Z</time>
      </trkpt>
      <trkpt lat="45.7985" lon="6.17452">
        <ele>1097</ele>
        <time>2010-01-01T00:29:16Z</time>
      </trkpt>
      <trkpt lat="45.79842" lon="6.17453">
        <ele>1097</ele>
        <time>2010-01-01T00:29:19Z</time>
      </trkpt>
      <trkpt lat="45.79839" lon="6.17456">
        <ele>1099</ele>
        <time>2010-01-01T00:29:20Z</time>
      </trkpt>
      <trkpt lat="45.79844" lon="6.17454">
        <ele>1099</ele>
        <time>2010-01-01T00:29:22Z</time>
      </trkpt>
      <trkpt lat="45.79849" lon="6.17455">
        <ele>1099</ele>
        <time>2010-01-01T00:29:24Z</time>
      </trkpt>
      <trkpt lat="45.79854" lon="6.17461">
        <ele>1105</ele>
        <time>2010-01-01T00:29:27Z</time>
      </trkpt>
      <trkpt lat="45.79865" lon="6.17465">
        <ele>1105</ele>
        <time>2010-01-01T00:29:31Z</time>
      </trkpt>
      <trkpt lat="45.79866" lon="6.17469">
        <ele>1105</ele>
        <time>2010-01-01T00:29:32Z</time>
      </trkpt>
      <trkpt lat="45.79875" lon="6.17475">
        <ele>1108.27</ele>
        <time>2010-01-01T00:29:36Z</time>
      </trkpt>
      <trkpt lat="45.79877" lon="6.17479">
        <ele>1109</ele>
        <time>2010-01-01T00:29:38Z</time>
      </trkpt>
      <trkpt lat="45.79884" lon="6.17481">
        <ele>1111</ele>
        <time>2010-01-01T00:29:40Z</time>
      </trkpt>
      <trkpt lat="45.79891" lon="6.17491">
        <ele>1114</ele>
        <time>2010-01-01T00:29:44Z</time>
      </trkpt>
      <trkpt lat="45.79897" lon="6.175">
        <ele>1116</ele>
        <time>2010-01-01T00:29:48Z</time>
      </trkpt>
      <trkpt lat="45.79901" lon="6.1751">
        <ele>1117</ele>
        <time>2010-01-01T00:29:51Z</time>
      </trkpt>
      <trkpt lat="45.79905" lon="6.17514">
        <ele>1119</ele>
        <time>2010-01-01T00:29:53Z</time>
      </trkpt>
      <trkpt lat="45.79909" lon="6.17525">
        <ele>1121</ele>
        <time>2010-01-01T00:29:57Z</time>
      </trkpt>
      <trkpt lat="45.79918" lon="6.17535">
        <ele>1123</ele>
        <time>2010-01-01T00:30:01Z</time>
      </trkpt>
      <trkpt lat="45.79921" lon="6.17542">
        <ele>1123</ele>
        <time>2010-01-01T00:30:03Z</time>
      </trkpt>
      <trkpt lat="45.79916" lon="6.17554">
        <ele>1126.41</ele>
        <time>2010-01-01T00:30:07Z</time>
      </trkpt>
      <trkpt lat="45.7992" lon="6.17552">
        <ele>1128</ele>
        <time>2010-01-01T00:30:08Z</time>
      </trkpt>
      <trkpt lat="45.7992" lon="6.17554">
        <ele>1127.5299</ele>
        <time>2010-01-01T00:30:09Z</time>
      </trkpt>
      <trkpt lat="45.79917" lon="6.17559">
        <ele>1127</ele>
        <time>2010-01-01T00:30:11Z</time>
      </trkpt>
      <trkpt lat="45.79917" lon="6.17561">
        <ele>1127</ele>
        <time>2010-01-01T00:30:12Z</time>
      </trkpt>
      <trkpt lat="45.79918" lon="6.1756">
        <ele>1127</ele>
        <time>2010-01-01T00:30:12Z</time>
      </trkpt>
      <trkpt lat="45.79917" lon="6.17564">
        <ele>1127</ele>
        <time>2010-01-01T00:30:13Z</time>
      </trkpt>
      <trkpt lat="45.79915" lon="6.17565">
        <ele>1128</ele>
        <time>2010-01-01T00:30:14Z</time>
      </trkpt>
      <trkpt lat="45.79914" lon="6.17564">
        <ele>1128</ele>
        <time>2010-01-01T00:30:15Z</time>
      </trkpt>
      <trkpt lat="45.79913" lon="6.1756">
        <ele>1128</ele>
        <time>2010-01-01T00:30:16Z</time>
      </trkpt>
      <trkpt lat="45.79918" lon="6.1756">
        <ele>1128</ele>
        <time>2010-01-01T00:30:18Z</time>
      </trkpt>
      <trkpt lat="45.79923" lon="6.17566">
        <ele>1128</ele>
        <time>2010-01-01T00:30:20Z</time>
      </trkpt>
      <trkpt lat="45.79929" lon="6.17571">
        <ele>1128</ele>
        <time>2010-01-01T00:30:23Z</time>
      </trkpt>
      <trkpt lat="45.79931" lon="6.17575">
        <ele>1128</ele>
        <time>2010-01-01T00:30:25Z</time>
      </trkpt>
      <trkpt lat="45.79939" lon="6.17583">
        <ele>1133</ele>
        <time>2010-01-01T00:30:28Z</time>
      </trkpt>
      <trkpt lat="45.79941" lon="6.1759">
        <ele>1133.88</ele>
        <time>2010-01-01T00:30:31Z</time>
      </trkpt>
      <trkpt lat="45.79945" lon="6.17594">
        <ele>1135</ele>
        <time>2010-01-01T00:30:32Z</time>
      </trkpt>
      <trkpt lat="45.79948" lon="6.17604">
        <ele>1136</ele>
        <time>2010-01-01T00:30:36Z</time>
      </trkpt>
      <trkpt lat="45.79953" lon="6.1761">
        <ele>1137</ele>
        <time>2010-01-01T00:30:38Z</time>
      </trkpt>
      <trkpt lat="45.79956" lon="6.1762">
        <ele>1137</ele>
        <time>2010-01-01T00:30:41Z</time>
      </trkpt>
      <trkpt lat="45.79963" lon="6.17637">
        <ele>1141</ele>
        <time>2010-01-01T00:30:47Z</time>
      </trkpt>
      <trkpt lat="45.79968" lon="6.17642">
        <ele>1141.6599</ele>
        <time>2010-01-01T00:30:49Z</time>
      </trkpt>
      <trkpt lat="45.7997" lon="6.17647">
        <ele>1143</ele>
        <time>2010-01-01T00:30:50Z</time>
      </trkpt>
      <trkpt lat="45.79975" lon="6.17651">
        <ele>1145</ele>
        <time>2010-01-01T00:30:53Z</time>
      </trkpt>
      <trkpt lat="45.79976" lon="6.17655">
        <ele>1145.43</ele>
        <time>2010-01-01T00:30:54Z</time>
      </trkpt>
      <trkpt lat="45.79982" lon="6.17662">
        <ele>1146</ele>
        <time>2010-01-01T00:30:57Z</time>
      </trkpt>
      <trkpt lat="45.79984" lon="6.17671">
        <ele>1146</ele>
        <time>2010-01-01T00:31:00Z</time>
      </trkpt>
      <trkpt lat="45.7999" lon="6.17684">
        <ele>1148</ele>
        <time>2010-01-01T00:31:04Z</time>
      </trkpt>
      <trkpt lat="45.79991" lon="6.17694">
        <ele>1149.28</ele>
        <time>2010-01-01T00:31:07Z</time>
      </trkpt>
      <trkpt lat="45.79997" lon="6.17702">
        <ele>1154</ele>
        <time>2010-01-01T00:31:10Z</time>
      </trkpt>
      <trkpt lat="45.79998" lon="6.17709">
        <ele>1155</ele>
        <time>2010-01-01T00:31:12Z</time>
      </trkpt>
      <trkpt lat="45.80003" lon="6.17713">
        <ele>1155.3939</ele>
        <time>2010-01-01T00:31:14Z</time>
      </trkpt>
      <trkpt lat="45.80006" lon="6.17713">
        <ele>1156</ele>
        <time>2010-01-01T00:31:16Z</time>
      </trkpt>
      <trkpt lat="45.8001" lon="6.1772">
        <ele>1157</ele>
        <time>2010-01-01T00:31:18Z</time>
      </trkpt>
      <trkpt lat="45.80013" lon="6.17721">
        <ele>1157</ele>
        <time>2010-01-01T00:31:19Z</time>
      </trkpt>
      <trkpt lat="45.8003" lon="6.17748">
        <ele>1164.31</ele>
        <time>2010-01-01T00:31:29Z</time>
      </trkpt>
      <trkpt lat="45.80037" lon="6.17757">
        <ele>1166</ele>
        <time>2010-01-01T00:31:33Z</time>
      </trkpt>
      <trkpt lat="45.80045" lon="6.17761">
        <ele>1169.7676</ele>
        <time>2010-01-01T00:31:37Z</time>
      </trkpt>
      <trkpt lat="45.80049" lon="6.17773">
        <ele>1173</ele>
        <time>2010-01-01T00:31:40Z</time>
      </trkpt>
      <trkpt lat="45.80051" lon="6.17772">
        <ele>1173.4</ele>
        <time>2010-01-01T00:31:41Z</time>
      </trkpt>
      <trkpt lat="45.80055" lon="6.17775">
        <ele>1174</ele>
        <time>2010-01-01T00:31:43Z</time>
      </trkpt>
      <trkpt lat="45.80058" lon="6.1778">
        <ele>1176</ele>
        <time>2010-01-01T00:31:45Z</time>
      </trkpt>
      <trkpt lat="45.8006" lon="6.17788">
        <ele>1176.2999</ele>
        <time>2010-01-01T00:31:47Z</time>
      </trkpt>
      <trkpt lat="45.80064" lon="6.17797">
        <ele>1179</ele>
        <time>2010-01-01T00:31:50Z</time>
      </trkpt>
      <trkpt lat="45.8007" lon="6.178">
        <ele>1180.8</ele>
        <time>2010-01-01T00:31:53Z</time>
      </trkpt>
      <trkpt lat="45.80068" lon="6.17801">
        <ele>1182</ele>
        <time>2010-01-01T00:31:54Z</time>
      </trkpt>
      <trkpt lat="45.80068" lon="6.178">
        <ele>1182</ele>
        <time>2010-01-01T00:31:54Z</time>
      </trkpt>
      <trkpt lat="45.80065" lon="6.17802">
        <ele>1184</ele>
        <time>2010-01-01T00:31:55Z</time>
      </trkpt>
      <trkpt lat="45.80063" lon="6.17809">
        <ele>1184</ele>
        <time>2010-01-01T00:31:57Z</time>
      </trkpt>
      <trkpt lat="45.80063" lon="6.17812">
        <ele>1185</ele>
        <time>2010-01-01T00:31:58Z</time>
      </trkpt>
      <trkpt lat="45.80057" lon="6.17816">
        <ele>1187</ele>
        <time>2010-01-01T00:32:01Z</time>
      </trkpt>
      <trkpt lat="45.80051" lon="6.17816">
        <ele>1188</ele>
        <time>2010-01-01T00:32:03Z</time>
      </trkpt>
      <trkpt lat="45.80048" lon="6.17812">
        <ele>1188.39</ele>
        <time>2010-01-01T00:32:05Z</time>
      </trkpt>
      <trkpt lat="45.80044" lon="6.1781">
        <ele>1189</ele>
        <time>2010-01-01T00:32:07Z</time>
      </trkpt>
      <trkpt lat="45.80039" lon="6.17813">
        <ele>1189.8699</ele>
        <time>2010-01-01T00:32:09Z</time>
      </trkpt>
      <trkpt lat="45.80034" lon="6.1781">
        <ele>1192</ele>
        <time>2010-01-01T00:32:11Z</time>
      </trkpt>
      <trkpt lat="45.80028" lon="6.17811">
        <ele>1194.2899</ele>
        <time>2010-01-01T00:32:14Z</time>
      </trkpt>
      <trkpt lat="45.80019" lon="6.17817">
        <ele>1197</ele>
        <time>2010-01-01T00:32:17Z</time>
      </trkpt>
      <trkpt lat="45.8001" lon="6.17811">
        <ele>1198</ele>
        <time>2010-01-01T00:32:21Z</time>
      </trkpt>
      <trkpt lat="45.80007" lon="6.17812">
        <ele>1198.3799</ele>
        <time>2010-01-01T00:32:23Z</time>
      </trkpt>
      <trkpt lat="45.80004" lon="6.17811">
        <ele>1199</ele>
        <time>2010-01-01T00:32:24Z</time>
      </trkpt>
      <trkpt lat="45.79996" lon="6.17816">
        <ele>1199</ele>
        <time>2010-01-01T00:32:27Z</time>
      </trkpt>
      <trkpt lat="45.79985" lon="6.17815">
        <ele>1202</ele>
        <time>2010-01-01T00:32:32Z</time>
      </trkpt>
      <trkpt lat="45.79981" lon="6.17816">
        <ele>1202.7599</ele>
        <time>2010-01-01T00:32:33Z</time>
      </trkpt>
      <trkpt lat="45.79971" lon="6.17802">
        <ele>1205</ele>
        <time>2010-01-01T00:32:39Z</time>
      </trkpt>
      <trkpt lat="45.79964" lon="6.17797">
        <ele>1207</ele>
        <time>2010-01-01T00:32:42Z</time>
      </trkpt>
      <trkpt lat="45.7996" lon="6.17792">
        <ele>1209</ele>
        <time>2010-01-01T00:32:44Z</time>
      </trkpt>
      <trkpt lat="45.79957" lon="6.17795">
        <ele>1209</ele>
        <time>2010-01-01T00:32:46Z</time>
      </trkpt>
      <trkpt lat="45.7995" lon="6.17793">
        <ele>1210</ele>
        <time>2010-01-01T00:32:49Z</time>
      </trkpt>
      <trkpt lat="45.7994" lon="6.17797">
        <ele>1211</ele>
        <time>2010-01-01T00:32:53Z</time>
      </trkpt>
      <trkpt lat="45.79935" lon="6.17795">
        <ele>1211.9307</ele>
        <time>2010-01-01T00:32:55Z</time>
      </trkpt>
      <trkpt lat="45.79928" lon="6.17798">
        <ele>1213</ele>
        <time>2010-01-01T00:32:58Z</time>
      </trkpt>
      <trkpt lat="45.79924" lon="6.17796">
        <ele>1213</ele>
        <time>2010-01-01T00:32:59Z</time>
      </trkpt>
      <trkpt lat="45.7992" lon="6.17797">
        <ele>1213</ele>
        <time>2010-01-01T00:33:01Z</time>
      </trkpt>
      <trkpt lat="45.7991" lon="6.17793">
        <ele>1215</ele>
        <time>2010-01-01T00:33:05Z</time>
      </trkpt>
      <trkpt lat="45.79907" lon="6.17792">
        <ele>1215</ele>
        <time>2010-01-01T00:33:07Z</time>
      </trkpt>
      <trkpt lat="45.79902" lon="6.17794">
        <ele>1217</ele>
        <time>2010-01-01T00:33:08Z</time>
      </trkpt>
      <trkpt lat="45.79895" lon="6.1779">
        <ele>1221</ele>
        <time>2010-01-01T00:33:12Z</time>
      </trkpt>
      <trkpt lat="45.79889" lon="6.17791">
        <ele>1224</ele>
        <time>2010-01-01T00:33:14Z</time>
      </trkpt>
      <trkpt lat="45.79883" lon="6.17785">
        <ele>1225</ele>
        <time>2010-01-01T00:33:17Z</time>
      </trkpt>
      <trkpt lat="45.79876" lon="6.17788">
        <ele>1226</ele>
        <time>2010-01-01T00:33:20Z</time>
      </trkpt>
      <trkpt lat="45.79875" lon="6.1779">
        <ele>1228</ele>
        <time>2010-01-01T00:33:20Z</time>
      </trkpt>
      <trkpt lat="45.79872" lon="6.17785">
        <ele>1229</ele>
        <time>2010-01-01T00:33:22Z</time>
      </trkpt>
      <trkpt lat="45.79866" lon="6.17783">
        <ele>1231</ele>
        <time>2010-01-01T00:33:24Z</time>
      </trkpt>
      <trkpt lat="45.79859" lon="6.17786">
        <ele>1231</ele>
        <time>2010-01-01T00:33:27Z</time>
      </trkpt>
      <trkpt lat="45.79852" lon="6.17785">
        <ele>1233</ele>
        <time>2010-01-01T00:33:30Z</time>
      </trkpt>
      <trkpt lat="45.79847" lon="6.1779">
        <ele>1233</ele>
        <time>2010-01-01T00:33:33Z</time>
      </trkpt>
      <trkpt lat="45.7984" lon="6.17792">
        <ele>1235</ele>
        <time>2010-01-01T00:33:35Z</time>
      </trkpt>
      <trkpt lat="45.79836" lon="6.17794">
        <ele>1235</ele>
        <time>2010-01-01T00:33:37Z</time>
      </trkpt>
      <trkpt lat="45.79834" lon="6.17794">
        <ele>1235</ele>
        <time>2010-01-01T00:33:38Z</time>
      </trkpt>
      <trkpt lat="45.79831" lon="6.17796">
        <ele>1238</ele>
        <time>2010-01-01T00:33:39Z</time>
      </trkpt>
      <trkpt lat="45.79828" lon="6.17794">
        <ele>1241</ele>
        <time>2010-01-01T00:33:41Z</time>
      </trkpt>
      <trkpt lat="45.79827" lon="6.17797">
        <ele>1241</ele>
        <time>2010-01-01T00:33:42Z</time>
      </trkpt>
      <trkpt lat="45.79825" lon="6.17796">
        <ele>1241.6799</ele>
        <time>2010-01-01T00:33:42Z</time>
      </trkpt>
      <trkpt lat="45.79809" lon="6.17799">
        <ele>1245</ele>
        <time>2010-01-01T00:33:49Z</time>
      </trkpt>
      <trkpt lat="45.79806" lon="6.17798">
        <ele>1245</ele>
        <time>2010-01-01T00:33:50Z</time>
      </trkpt>
      <trkpt lat="45.79802" lon="6.17799">
        <ele>1245</ele>
        <time>2010-01-01T00:33:52Z</time>
      </trkpt>
      <trkpt lat="45.79801" lon="6.17798">
        <ele>1246</ele>
        <time>2010-01-01T00:33:52Z</time>
      </trkpt>
      <trkpt lat="45.79798" lon="6.17801">
        <ele>1246</ele>
        <time>2010-01-01T00:33:53Z</time>
      </trkpt>
      <trkpt lat="45.79797" lon="6.178">
        <ele>1246</ele>
        <time>2010-01-01T00:33:54Z</time>
      </trkpt>
      <trkpt lat="45.79793" lon="6.178">
        <ele>1247.3499</ele>
        <time>2010-01-01T00:33:56Z</time>
      </trkpt>
      <trkpt lat="45.79791" lon="6.17801">
        <ele>1249</ele>
        <time>2010-01-01T00:33:56Z</time>
      </trkpt>
      <trkpt lat="45.79788" lon="6.17809">
        <ele>1250.29</ele>
        <time>2010-01-01T00:33:59Z</time>
      </trkpt>
      <trkpt lat="45.79776" lon="6.17814">
        <ele>1254</ele>
        <time>2010-01-01T00:34:04Z</time>
      </trkpt>
      <trkpt lat="45.79771" lon="6.17812">
        <ele>1255</ele>
        <time>2010-01-01T00:34:06Z</time>
      </trkpt>
      <trkpt lat="45.79764" lon="6.17805">
        <ele>1257</ele>
        <time>2010-01-01T00:34:09Z</time>
      </trkpt>
      <trkpt lat="45.79759" lon="6.17803">
        <ele>1258</ele>
        <time>2010-01-01T00:34:12Z</time>
      </trkpt>
      <trkpt lat="45.79753" lon="6.17798">
        <ele>1259</ele>
        <time>2010-01-01T00:34:14Z</time>
      </trkpt>
      <trkpt lat="45.7974" lon="6.17794">
        <ele>1261</ele>
        <time>2010-01-01T00:34:20Z</time>
      </trkpt>
      <trkpt lat="45.79736" lon="6.17795">
        <ele>1261</ele>
        <time>2010-01-01T00:34:21Z</time>
      </trkpt>
      <trkpt lat="45.79735" lon="6.17791">
        <ele>1261.8316</ele>
        <time>2010-01-01T00:34:22Z</time>
      </trkpt>
      <trkpt lat="45.79733" lon="6.1779">
        <ele>1263</ele>
        <time>2010-01-01T00:34:23Z</time>
      </trkpt>
      <trkpt lat="45.79718" lon="6.17787">
        <ele>1268</ele>
        <time>2010-01-01T00:34:29Z</time>
      </trkpt>
      <trkpt lat="45.79714" lon="6.17807">
        <ele>1273</ele>
        <time>2010-01-01T00:34:35Z</time>
      </trkpt>
      <trkpt lat="45.79711" lon="6.17811">
        <ele>1273</ele>
        <time>2010-01-01T00:34:37Z</time>
      </trkpt>
      <trkpt lat="45.79704" lon="6.17814">
        <ele>1274.8199</ele>
        <time>2010-01-01T00:34:40Z</time>
      </trkpt>
      <trkpt lat="45.79701" lon="6.17819">
        <ele>1276</ele>
        <time>2010-01-01T00:34:42Z</time>
      </trkpt>
      <trkpt lat="45.79695" lon="6.17822">
        <ele>1277</ele>
        <time>2010-01-01T00:34:44Z</time>
      </trkpt>
      <trkpt lat="45.79691" lon="6.17834">
        <ele>1278</ele>
        <time>2010-01-01T00:34:48Z</time>
      </trkpt>
      <trkpt lat="45.79692" lon="6.1784">
        <ele>1279</ele>
        <time>2010-01-01T00:34:50Z</time>
      </trkpt>
      <trkpt lat="45.79692" lon="6.17837">
        <ele>1279</ele>
        <time>2010-01-01T00:34:50Z</time>
      </trkpt>
      <trkpt lat="45.79694" lon="6.17837">
        <ele>1279</ele>
        <time>2010-01-01T00:34:51Z</time>
      </trkpt>
      <trkpt lat="45.79691" lon="6.17842">
        <ele>1279</ele>
        <time>2010-01-01T00:34:53Z</time>
      </trkpt>
      <trkpt lat="45.79692" lon="6.17842">
        <ele>1279</ele>
        <time>2010-01-01T00:34:53Z</time>
      </trkpt>
      <trkpt lat="45.79692" lon="6.1784">
        <ele>1279</ele>
        <time>2010-01-01T00:34:54Z</time>
      </trkpt>
      <trkpt lat="45.79696" lon="6.17845">
        <ele>1279</ele>
        <time>2010-01-01T00:34:56Z</time>
      </trkpt>
      <trkpt lat="45.797" lon="6.17848">
        <ele>1279</ele>
        <time>2010-01-01T00:34:58Z</time>
      </trkpt>
      <trkpt lat="45.79696" lon="6.17847">
        <ele>1279</ele>
        <time>2010-01-01T00:34:59Z</time>
      </trkpt>
      <trkpt lat="45.79696" lon="6.17845">
        <ele>1279</ele>
        <time>2010-01-01T00:35:00Z</time>
      </trkpt>
      <trkpt lat="45.79693" lon="6.17844">
        <ele>1280</ele>
        <time>2010-01-01T00:35:01Z</time>
      </trkpt>
      <trkpt lat="45.79693" lon="6.1784">
        <ele>1280</ele>
        <time>2010-01-01T00:35:02Z</time>
      </trkpt>
      <trkpt lat="45.79692" lon="6.17842">
        <ele>1280</ele>
        <time>2010-01-01T00:35:02Z</time>
      </trkpt>
      <trkpt lat="45.79688" lon="6.1784">
        <ele>1280</ele>
        <time>2010-01-01T00:35:04Z</time>
      </trkpt>
      <trkpt lat="45.79689" lon="6.1784">
        <ele>1280</ele>
        <time>2010-01-01T00:35:04Z</time>
      </trkpt>
      <trkpt lat="45.79686" lon="6.17844">
        <ele>1280</ele>
        <time>2010-01-01T00:35:06Z</time>
      </trkpt>
      <trkpt lat="45.79688" lon="6.17843">
        <ele>1280</ele>
        <time>2010-01-01T00:35:07Z</time>
      </trkpt>
      <trkpt lat="45.79687" lon="6.17845">
        <ele>1280</ele>
        <time>2010-01-01T00:35:07Z</time>
      </trkpt>
      <trkpt lat="45.7969" lon="6.17846">
        <ele>1280</ele>
        <time>2010-01-01T00:35:08Z</time>
      </trkpt>
      <trkpt lat="45.79694" lon="6.17839">
        <ele>1279</ele>
        <time>2010-01-01T00:35:11Z</time>
      </trkpt>
      <trkpt lat="45.79693" lon="6.1784">
        <ele>1279</ele>
        <time>2010-01-01T00:35:11Z</time>
      </trkpt>
      <trkpt lat="45.7969" lon="6.17837">
        <ele>1281</ele>
        <time>2010-01-01T00:35:13Z</time>
      </trkpt>
      <trkpt lat="45.7969" lon="6.17839">
        <ele>1280</ele>
        <time>2010-01-01T00:35:13Z</time>
      </trkpt>
      <trkpt lat="45.79691" lon="6.17838">
        <ele>1280</ele>
        <time>2010-01-01T00:35:14Z</time>
      </trkpt>
      <trkpt lat="45.79688" lon="6.17836">
        <ele>1280</ele>
        <time>2010-01-01T00:35:15Z</time>
      </trkpt>
      <trkpt lat="45.79689" lon="6.17838">
        <ele>1280</ele>
        <time>2010-01-01T00:35:15Z</time>
      </trkpt>
      <trkpt lat="45.79692" lon="6.1784">
        <ele>1279</ele>
        <time>2010-01-01T00:35:17Z</time>
      </trkpt>
      <trkpt lat="45.79688" lon="6.17848">
        <ele>1279</ele>
        <time>2010-01-01T00:35:19Z</time>
      </trkpt>
      <trkpt lat="45.79688" lon="6.17844">
        <ele>1280</ele>
        <time>2010-01-01T00:35:20Z</time>
      </trkpt>
      <trkpt lat="45.79685" lon="6.17843">
        <ele>1280</ele>
        <time>2010-01-01T00:35:21Z</time>
      </trkpt>
      <trkpt lat="45.79683" lon="6.17843">
        <ele>1280</ele>
        <time>2010-01-01T00:35:22Z</time>
      </trkpt>
      <trkpt lat="45.79685" lon="6.17844">
        <ele>1279</ele>
        <time>2010-01-01T00:35:23Z</time>
      </trkpt>
      <trkpt lat="45.79687" lon="6.17846">
        <ele>1279</ele>
        <time>2010-01-01T00:35:24Z</time>
      </trkpt>
      <trkpt lat="45.79687" lon="6.17845">
        <ele>1279</ele>
        <time>2010-01-01T00:35:24Z</time>
      </trkpt>
      <trkpt lat="45.79685" lon="6.17845">
        <ele>1279</ele>
        <time>2010-01-01T00:35:25Z</time>
      </trkpt>
      <trkpt lat="45.79689" lon="6.17845">
        <ele>1279</ele>
        <time>2010-01-01T00:35:27Z</time>
      </trkpt>
      <trkpt lat="45.79688" lon="6.17844">
        <ele>1279</ele>
        <time>2010-01-01T00:35:27Z</time>
      </trkpt>
      <trkpt lat="45.79684" lon="6.17846">
        <ele>1279</ele>
        <time>2010-01-01T00:35:29Z</time>
      </trkpt>
      <trkpt lat="45.7968" lon="6.17846">
        <ele>1278</ele>
        <time>2010-01-01T00:35:31Z</time>
      </trkpt>
      <trkpt lat="45.79683" lon="6.17843">
        <ele>1278</ele>
        <time>2010-01-01T00:35:32Z</time>
      </trkpt>
      <trkpt lat="45.79683" lon="6.17844">
        <ele>1278</ele>
        <time>2010-01-01T00:35:33Z</time>
      </trkpt>
      <trkpt lat="45.79687" lon="6.17842">
        <ele>1280</ele>
        <time>2010-01-01T00:35:34Z</time>
      </trkpt>
      <trkpt lat="45.79688" lon="6.17843">
        <ele>1280</ele>
        <time>2010-01-01T00:35:35Z</time>
      </trkpt>
      <trkpt lat="45.79688" lon="6.17846">
        <ele>1279</ele>
        <time>2010-01-01T00:35:36Z</time>
      </trkpt>
      <trkpt lat="45.79689" lon="6.17845">
        <ele>1279</ele>
        <time>2010-01-01T00:35:36Z</time>
      </trkpt>
      <trkpt lat="45.7969" lon="6.17847">
        <ele>1279</ele>
        <time>2010-01-01T00:35:37Z</time>
      </trkpt>
      <trkpt lat="45.79693" lon="6.17846">
        <ele>1279</ele>
        <time>2010-01-01T00:35:38Z</time>
      </trkpt>
      <trkpt lat="45.79694" lon="6.17848">
        <ele>1279</ele>
        <time>2010-01-01T00:35:39Z</time>
      </trkpt>
      <trkpt lat="45.79693" lon="6.17845">
        <ele>1279</ele>
        <time>2010-01-01T00:35:40Z</time>
      </trkpt>
      <trkpt lat="45.79691" lon="6.17843">
        <ele>1279</ele>
        <time>2010-01-01T00:35:41Z</time>
      </trkpt>
      <trkpt lat="45.79691" lon="6.17848">
        <ele>1280</ele>
        <time>2010-01-01T00:35:42Z</time>
      </trkpt>
      <trkpt lat="45.79694" lon="6.17848">
        <ele>1280</ele>
        <time>2010-01-01T00:35:43Z</time>
      </trkpt>
      <trkpt lat="45.79691" lon="6.17843">
        <ele>1280</ele>
        <time>2010-01-01T00:35:45Z</time>
      </trkpt>
      <trkpt lat="45.79693" lon="6.17846">
        <ele>1279</ele>
        <time>2010-01-01T00:35:46Z</time>
      </trkpt>
      <trkpt lat="45.79692" lon="6.1785">
        <ele>1281</ele>
        <time>2010-01-01T00:35:47Z</time>
      </trkpt>
      <trkpt lat="45.79692" lon="6.17856">
        <ele>1285</ele>
        <time>2010-01-01T00:35:49Z</time>
      </trkpt>
      <trkpt lat="45.79699" lon="6.17858">
        <ele>1287</ele>
        <time>2010-01-01T00:35:51Z</time>
      </trkpt>
      <trkpt lat="45.797" lon="6.17873">
        <ele>1289</ele>
        <time>2010-01-01T00:35:55Z</time>
      </trkpt>
      <trkpt lat="45.79704" lon="6.1788">
        <ele>1293</ele>
        <time>2010-01-01T00:35:58Z</time>
      </trkpt>
      <trkpt lat="45.7971" lon="6.17887">
        <ele>1293</ele>
        <time>2010-01-01T00:36:01Z</time>
      </trkpt>
      <trkpt lat="45.79715" lon="6.17887">
        <ele>1295</ele>
        <time>2010-01-01T00:36:03Z</time>
      </trkpt>
      <trkpt lat="45.7972" lon="6.17891">
        <ele>1295</ele>
        <time>2010-01-01T00:36:05Z</time>
      </trkpt>
      <trkpt lat="45.79728" lon="6.17891">
        <ele>1300</ele>
        <time>2010-01-01T00:36:09Z</time>
      </trkpt>
      <trkpt lat="45.79736" lon="6.17897">
        <ele>1302</ele>
        <time>2010-01-01T00:36:12Z</time>
      </trkpt>
      <trkpt lat="45.79745" lon="6.17899">
        <ele>1303</ele>
        <time>2010-01-01T00:36:16Z</time>
      </trkpt>
      <trkpt lat="45.79753" lon="6.17904">
        <ele>1306</ele>
        <time>2010-01-01T00:36:19Z</time>
      </trkpt>
      <trkpt lat="45.79778" lon="6.17902">
        <ele>1307</ele>
        <time>2010-01-01T00:36:29Z</time>
      </trkpt>
      <trkpt lat="45.79783" lon="6.17904">
        <ele>1309</ele>
        <time>2010-01-01T00:36:32Z</time>
      </trkpt>
      <trkpt lat="45.79796" lon="6.17916">
        <ele>1311</ele>
        <time>2010-01-01T00:36:38Z</time>
      </trkpt>
      <trkpt lat="45.79807" lon="6.17917">
        <ele>1311.72</ele>
        <time>2010-01-01T00:36:42Z</time>
      </trkpt>
      <trkpt lat="45.79814" lon="6.17922">
        <ele>1313</ele>
        <time>2010-01-01T00:36:45Z</time>
      </trkpt>
      <trkpt lat="45.79821" lon="6.17929">
        <ele>1313</ele>
        <time>2010-01-01T00:36:49Z</time>
      </trkpt>
      <trkpt lat="45.79831" lon="6.17929">
        <ele>1317</ele>
        <time>2010-01-01T00:36:52Z</time>
      </trkpt>
      <trkpt lat="45.79837" lon="6.17931">
        <ele>1317</ele>
        <time>2010-01-01T00:36:55Z</time>
      </trkpt>
      <trkpt lat="45.79844" lon="6.17938">
        <ele>1317</ele>
        <time>2010-01-01T00:36:58Z</time>
      </trkpt>
      <trkpt lat="45.79852" lon="6.17939">
        <ele>1317</ele>
        <time>2010-01-01T00:37:01Z</time>
      </trkpt>
      <trkpt lat="45.79859" lon="6.17944">
        <ele>1314</ele>
        <time>2010-01-01T00:37:04Z</time>
      </trkpt>
      <trkpt lat="45.79862" lon="6.1795">
        <ele>1311</ele>
        <time>2010-01-01T00:37:06Z</time>
      </trkpt>
      <trkpt lat="45.79867" lon="6.17954">
        <ele>1310</ele>
        <time>2010-01-01T00:37:09Z</time>
      </trkpt>
      <trkpt lat="45.79872" lon="6.17963">
        <ele>1310</ele>
        <time>2010-01-01T00:37:12Z</time>
      </trkpt>
      <trkpt lat="45.79879" lon="6.17967">
        <ele>1310</ele>
        <time>2010-01-01T00:37:15Z</time>
      </trkpt>
      <trkpt lat="45.79885" lon="6.17968">
        <ele>1310</ele>
        <time>2010-01-01T00:37:18Z</time>
      </trkpt>
      <trkpt lat="45.7989" lon="6.1797">
        <ele>1310</ele>
        <time>2010-01-01T00:37:20Z</time>
      </trkpt>
      <trkpt lat="45.79896" lon="6.17977">
        <ele>1310</ele>
        <time>2010-01-01T00:37:23Z</time>
      </trkpt>
      <trkpt lat="45.79907" lon="6.17984">
        <ele>1309</ele>
        <time>2010-01-01T00:37:28Z</time>
      </trkpt>
      <trkpt lat="45.79919" lon="6.17994">
        <ele>1309</ele>
        <time>2010-01-01T00:37:33Z</time>
      </trkpt>
      <trkpt lat="45.7993" lon="6.17995">
        <ele>1309</ele>
        <time>2010-01-01T00:37:38Z</time>
      </trkpt>
      <trkpt lat="45.79936" lon="6.17992">
        <ele>1309</ele>
        <time>2010-01-01T00:37:40Z</time>
      </trkpt>
      <trkpt lat="45.79942" lon="6.17998">
        <ele>1310</ele>
        <time>2010-01-01T00:37:43Z</time>
      </trkpt>
      <trkpt lat="45.79947" lon="6.18">
        <ele>1310</ele>
        <time>2010-01-01T00:37:45Z</time>
      </trkpt>
      <trkpt lat="45.79956" lon="6.17999">
        <ele>1310</ele>
        <time>2010-01-01T00:37:49Z</time>
      </trkpt>
      <trkpt lat="45.79963" lon="6.17997">
        <ele>1309.6732</ele>
        <time>2010-01-01T00:37:52Z</time>
      </trkpt>
      <trkpt lat="45.79968" lon="6.17998">
        <ele>1309</ele>
        <time>2010-01-01T00:37:54Z</time>
      </trkpt>
      <trkpt lat="45.79976" lon="6.17997">
        <ele>1309</ele>
        <time>2010-01-01T00:37:57Z</time>
      </trkpt>
      <trkpt lat="45.79979" lon="6.17999">
        <ele>1309</ele>
        <time>2010-01-01T00:37:58Z</time>
      </trkpt>
      <trkpt lat="45.79991" lon="6.17996">
        <ele>1309</ele>
        <time>2010-01-01T00:38:03Z</time>
      </trkpt>
      <trkpt lat="45.80003" lon="6.17999">
        <ele>1309</ele>
        <time>2010-01-01T00:38:08Z</time>
      </trkpt>
      <trkpt lat="45.8001" lon="6.18004">
        <ele>1309</ele>
        <time>2010-01-01T00:38:11Z</time>
      </trkpt>
      <trkpt lat="45.80034" lon="6.17998">
        <ele>1310</ele>
        <time>2010-01-01T00:38:21Z</time>
      </trkpt>
      <trkpt lat="45.80039" lon="6.17994">
        <ele>1312</ele>
        <time>2010-01-01T00:38:23Z</time>
      </trkpt>
      <trkpt lat="45.80046" lon="6.17993">
        <ele>1312</ele>
        <time>2010-01-01T00:38:26Z</time>
      </trkpt>
      <trkpt lat="45.80051" lon="6.1799">
        <ele>1312</ele>
        <time>2010-01-01T00:38:28Z</time>
      </trkpt>
      <trkpt lat="45.80061" lon="6.17998">
        <ele>1315.2929</ele>
        <time>2010-01-01T00:38:33Z</time>
      </trkpt>
      <trkpt lat="45.80065" lon="6.18">
        <ele>1316</ele>
        <time>2010-01-01T00:38:34Z</time>
      </trkpt>
      <trkpt lat="45.8007" lon="6.17993">
        <ele>1318</ele>
        <time>2010-01-01T00:38:37Z</time>
      </trkpt>
      <trkpt lat="45.80069" lon="6.17988">
        <ele>1318</ele>
        <time>2010-01-01T00:38:39Z</time>
      </trkpt>
      <trkpt lat="45.80064" lon="6.1799">
        <ele>1318</ele>
        <time>2010-01-01T00:38:41Z</time>
      </trkpt>
      <trkpt lat="45.80065" lon="6.17988">
        <ele>1316</ele>
        <time>2010-01-01T00:38:42Z</time>
      </trkpt>
      <trkpt lat="45.80068" lon="6.17989">
        <ele>1318</ele>
        <time>2010-01-01T00:38:43Z</time>
      </trkpt>
      <trkpt lat="45.80074" lon="6.18">
        <ele>1318</ele>
        <time>2010-01-01T00:38:47Z</time>
      </trkpt>
      <trkpt lat="45.80085" lon="6.18004">
        <ele>1316</ele>
        <time>2010-01-01T00:38:51Z</time>
      </trkpt>
      <trkpt lat="45.80094" lon="6.18012">
        <ele>1316</ele>
        <time>2010-01-01T00:38:56Z</time>
      </trkpt>
      <trkpt lat="45.80098" lon="6.18012">
        <ele>1313</ele>
        <time>2010-01-01T00:38:58Z</time>
      </trkpt>
      <trkpt lat="45.80101" lon="6.1801">
        <ele>1312.26</ele>
        <time>2010-01-01T00:38:59Z</time>
      </trkpt>
      <trkpt lat="45.80108" lon="6.18011">
        <ele>1311</ele>
        <time>2010-01-01T00:39:02Z</time>
      </trkpt>
      <trkpt lat="45.80119" lon="6.18018">
        <ele>1311</ele>
        <time>2010-01-01T00:39:06Z</time>
      </trkpt>
      <trkpt lat="45.80131" lon="6.18018">
        <ele>1310</ele>
        <time>2010-01-01T00:39:11Z</time>
      </trkpt>
      <trkpt lat="45.80135" lon="6.18016">
        <ele>1310</ele>
        <time>2010-01-01T00:39:13Z</time>
      </trkpt>
      <trkpt lat="45.80144" lon="6.18022">
        <ele>1309</ele>
        <time>2010-01-01T00:39:17Z</time>
      </trkpt>
      <trkpt lat="45.80151" lon="6.1802">
        <ele>1307.16</ele>
        <time>2010-01-01T00:39:20Z</time>
      </trkpt>
      <trkpt lat="45.80161" lon="6.18023">
        <ele>1302</ele>
        <time>2010-01-01T00:39:24Z</time>
      </trkpt>
      <trkpt lat="45.80168" lon="6.18022">
        <ele>1300</ele>
        <time>2010-01-01T00:39:27Z</time>
      </trkpt>
      <trkpt lat="45.8017" lon="6.18027">
        <ele>1300</ele>
        <time>2010-01-01T00:39:28Z</time>
      </trkpt>
      <trkpt lat="45.80176" lon="6.18029">
        <ele>1300</ele>
        <time>2010-01-01T00:39:30Z</time>
      </trkpt>
      <trkpt lat="45.80212" lon="6.18031">
        <ele>1299</ele>
        <time>2010-01-01T00:39:45Z</time>
      </trkpt>
      <trkpt lat="45.80234" lon="6.1804">
        <ele>1300</ele>
        <time>2010-01-01T00:39:54Z</time>
      </trkpt>
      <trkpt lat="45.80252" lon="6.18055">
        <ele>1300</ele>
        <time>2010-01-01T00:40:03Z</time>
      </trkpt>
      <trkpt lat="45.80264" lon="6.18055">
        <ele>1298</ele>
        <time>2010-01-01T00:40:07Z</time>
      </trkpt>
      <trkpt lat="45.80276" lon="6.18059">
        <ele>1296.24</ele>
        <time>2010-01-01T00:40:12Z</time>
      </trkpt>
      <trkpt lat="45.80283" lon="6.18063">
        <ele>1293.6354</ele>
        <time>2010-01-01T00:40:15Z</time>
      </trkpt>
      <trkpt lat="45.80291" lon="6.18064">
        <ele>1290</ele>
        <time>2010-01-01T00:40:19Z</time>
      </trkpt>
      <trkpt lat="45.80299" lon="6.1807">
        <ele>1288</ele>
        <time>2010-01-01T00:40:22Z</time>
      </trkpt>
      <trkpt lat="45.80305" lon="6.18072">
        <ele>1283.34</ele>
        <time>2010-01-01T00:40:24Z</time>
      </trkpt>
      <trkpt lat="45.80309" lon="6.18071">
        <ele>1282</ele>
        <time>2010-01-01T00:40:26Z</time>
      </trkpt>
      <trkpt lat="45.8032" lon="6.18074">
        <ele>1278</ele>
        <time>2010-01-01T00:40:31Z</time>
      </trkpt>
      <trkpt lat="45.80333" lon="6.18086">
        <ele>1271.1485</ele>
        <time>2010-01-01T00:40:37Z</time>
      </trkpt>
      <trkpt lat="45.80344" lon="6.18091">
        <ele>1266</ele>
        <time>2010-01-01T00:40:42Z</time>
      </trkpt>
      <trkpt lat="45.80361" lon="6.18092">
        <ele>1262.57</ele>
        <time>2010-01-01T00:40:48Z</time>
      </trkpt>
      <trkpt lat="45.80371" lon="6.18098">
        <ele>1260</ele>
        <time>2010-01-01T00:40:53Z</time>
      </trkpt>
      <trkpt lat="45.80398" lon="6.18105">
        <ele>1253</ele>
        <time>2010-01-01T00:41:03Z</time>
      </trkpt>
      <trkpt lat="45.80405" lon="6.1811">
        <ele>1251</ele>
        <time>2010-01-01T00:41:07Z</time>
      </trkpt>
      <trkpt lat="45.80425" lon="6.18117">
        <ele>1246</ele>
        <time>2010-01-01T00:41:15Z</time>
      </trkpt>
      <trkpt lat="45.80428" lon="6.18123">
        <ele>1243</ele>
        <time>2010-01-01T00:41:17Z</time>
      </trkpt>
      <trkpt lat="45.80434" lon="6.18126">
        <ele>1241</ele>
        <time>2010-01-01T00:41:19Z</time>
      </trkpt>
      <trkpt lat="45.80441" lon="6.18132">
        <ele>1238</ele>
        <time>2010-01-01T00:41:23Z</time>
      </trkpt>
      <trkpt lat="45.80448" lon="6.18131">
        <ele>1232.59</ele>
        <time>2010-01-01T00:41:25Z</time>
      </trkpt>
      <trkpt lat="45.80456" lon="6.18132">
        <ele>1231</ele>
        <time>2010-01-01T00:41:29Z</time>
      </trkpt>
      <trkpt lat="45.80473" lon="6.1814">
        <ele>1226</ele>
        <time>2010-01-01T00:41:36Z</time>
      </trkpt>
      <trkpt lat="45.80483" lon="6.18141">
        <ele>1223</ele>
        <time>2010-01-01T00:41:40Z</time>
      </trkpt>
      <trkpt lat="45.80493" lon="6.18139">
        <ele>1220.69</ele>
        <time>2010-01-01T00:41:44Z</time>
      </trkpt>
      <trkpt lat="45.80517" lon="6.18142">
        <ele>1214.59</ele>
        <time>2010-01-01T00:41:54Z</time>
      </trkpt>
      <trkpt lat="45.80535" lon="6.18151">
        <ele>1211</ele>
        <time>2010-01-01T00:42:01Z</time>
      </trkpt>
      <trkpt lat="45.80543" lon="6.18152">
        <ele>1210.44</ele>
        <time>2010-01-01T00:42:05Z</time>
      </trkpt>
      <trkpt lat="45.8055" lon="6.18157">
        <ele>1209</ele>
        <time>2010-01-01T00:42:08Z</time>
      </trkpt>
      <trkpt lat="45.80558" lon="6.18158">
        <ele>1209</ele>
        <time>2010-01-01T00:42:11Z</time>
      </trkpt>
      <trkpt lat="45.80569" lon="6.18164">
        <ele>1208.6039</ele>
        <time>2010-01-01T00:42:15Z</time>
      </trkpt>
      <trkpt lat="45.80574" lon="6.18166">
        <ele>1208</ele>
        <time>2010-01-01T00:42:18Z</time>
      </trkpt>
      <trkpt lat="45.80589" lon="6.18179">
        <ele>1203</ele>
        <time>2010-01-01T00:42:25Z</time>
      </trkpt>
      <trkpt lat="45.80602" lon="6.18186">
        <ele>1199</ele>
        <time>2010-01-01T00:42:30Z</time>
      </trkpt>
      <trkpt lat="45.80608" lon="6.18187">
        <ele>1198.2</ele>
        <time>2010-01-01T00:42:32Z</time>
      </trkpt>
      <trkpt lat="45.80613" lon="6.18185">
        <ele>1195</ele>
        <time>2010-01-01T00:42:35Z</time>
      </trkpt>
      <trkpt lat="45.80616" lon="6.18187">
        <ele>1194</ele>
        <time>2010-01-01T00:42:36Z</time>
      </trkpt>
      <trkpt lat="45.80622" lon="6.18185">
        <ele>1193.61</ele>
        <time>2010-01-01T00:42:38Z</time>
      </trkpt>
      <trkpt lat="45.80633" lon="6.18188">
        <ele>1190.61</ele>
        <time>2010-01-01T00:42:43Z</time>
      </trkpt>
      <trkpt lat="45.80641" lon="6.18193">
        <ele>1187.5353</ele>
        <time>2010-01-01T00:42:46Z</time>
      </trkpt>
      <trkpt lat="45.8065" lon="6.18203">
        <ele>1185</ele>
        <time>2010-01-01T00:42:51Z</time>
      </trkpt>
      <trkpt lat="45.80667" lon="6.18215">
        <ele>1180</ele>
        <time>2010-01-01T00:42:58Z</time>
      </trkpt>
      <trkpt lat="45.8067" lon="6.18221">
        <ele>1178.89</ele>
        <time>2010-01-01T00:43:01Z</time>
      </trkpt>
      <trkpt lat="45.80676" lon="6.18228">
        <ele>1177</ele>
        <time>2010-01-01T00:43:04Z</time>
      </trkpt>
      <trkpt lat="45.80679" lon="6.1824">
        <ele>1170.52</ele>
        <time>2010-01-01T00:43:07Z</time>
      </trkpt>
      <trkpt lat="45.80687" lon="6.18242">
        <ele>1169</ele>
        <time>2010-01-01T00:43:10Z</time>
      </trkpt>
      <trkpt lat="45.80696" lon="6.1825">
        <ele>1168.62</ele>
        <time>2010-01-01T00:43:15Z</time>
      </trkpt>
      <trkpt lat="45.80698" lon="6.1825">
        <ele>1168</ele>
        <time>2010-01-01T00:43:15Z</time>
      </trkpt>
      <trkpt lat="45.80704" lon="6.18246">
        <ele>1168</ele>
        <time>2010-01-01T00:43:18Z</time>
      </trkpt>
      <trkpt lat="45.80721" lon="6.18249">
        <ele>1162</ele>
        <time>2010-01-01T00:43:25Z</time>
      </trkpt>
      <trkpt lat="45.80726" lon="6.18251">
        <ele>1162</ele>
        <time>2010-01-01T00:43:27Z</time>
      </trkpt>
      <trkpt lat="45.80737" lon="6.18262">
        <ele>1155.5247</ele>
        <time>2010-01-01T00:43:32Z</time>
      </trkpt>
      <trkpt lat="45.80759" lon="6.18272">
        <ele>1152</ele>
        <time>2010-01-01T00:43:41Z</time>
      </trkpt>
      <trkpt lat="45.80762" lon="6.18272">
        <ele>1151</ele>
        <time>2010-01-01T00:43:43Z</time>
      </trkpt>
      <trkpt lat="45.80769" lon="6.18275">
        <ele>1148.5299</ele>
        <time>2010-01-01T00:43:46Z</time>
      </trkpt>
      <trkpt lat="45.80784" lon="6.18273">
        <ele>1146</ele>
        <time>2010-01-01T00:43:52Z</time>
      </trkpt>
      <trkpt lat="45.80797" lon="6.18278">
        <ele>1143</ele>
        <time>2010-01-01T00:43:57Z</time>
      </trkpt>
      <trkpt lat="45.80803" lon="6.18276">
        <ele>1139</ele>
        <time>2010-01-01T00:44:00Z</time>
      </trkpt>
      <trkpt lat="45.80809" lon="6.18279">
        <ele>1139</ele>
        <time>2010-01-01T00:44:02Z</time>
      </trkpt>
      <trkpt lat="45.80816" lon="6.18281">
        <ele>1134.5299</ele>
        <time>2010-01-01T00:44:05Z</time>
      </trkpt>
      <trkpt lat="45.8082" lon="6.1828">
        <ele>1132.5346</ele>
        <time>2010-01-01T00:44:07Z</time>
      </trkpt>
      <trkpt lat="45.8083" lon="6.18284">
        <ele>1126.64</ele>
        <time>2010-01-01T00:44:11Z</time>
      </trkpt>
      <trkpt lat="45.80844" lon="6.18296">
        <ele>1121.54</ele>
        <time>2010-01-01T00:44:17Z</time>
      </trkpt>
      <trkpt lat="45.8085" lon="6.18298">
        <ele>1119.64</ele>
        <time>2010-01-01T00:44:20Z</time>
      </trkpt>
      <trkpt lat="45.80858" lon="6.18308">
        <ele>1117</ele>
        <time>2010-01-01T00:44:24Z</time>
      </trkpt>
      <trkpt lat="45.80862" lon="6.18308">
        <ele>1116.54</ele>
        <time>2010-01-01T00:44:26Z</time>
      </trkpt>
      <trkpt lat="45.80875" lon="6.18313">
        <ele>1114.62</ele>
        <time>2010-01-01T00:44:31Z</time>
      </trkpt>
      <trkpt lat="45.80882" lon="6.18323">
        <ele>1111.62</ele>
        <time>2010-01-01T00:44:35Z</time>
      </trkpt>
      <trkpt lat="45.80888" lon="6.18323">
        <ele>1106.65</ele>
        <time>2010-01-01T00:44:37Z</time>
      </trkpt>
      <trkpt lat="45.80899" lon="6.1834">
        <ele>1100.55</ele>
        <time>2010-01-01T00:44:43Z</time>
      </trkpt>
      <trkpt lat="45.80904" lon="6.18342">
        <ele>1099</ele>
        <time>2010-01-01T00:44:46Z</time>
      </trkpt>
      <trkpt lat="45.80911" lon="6.18341">
        <ele>1096.56</ele>
        <time>2010-01-01T00:44:49Z</time>
      </trkpt>
      <trkpt lat="45.80916" lon="6.18351">
        <ele>1094</ele>
        <time>2010-01-01T00:44:52Z</time>
      </trkpt>
      <trkpt lat="45.80918" lon="6.1836">
        <ele>1091.55</ele>
        <time>2010-01-01T00:44:55Z</time>
      </trkpt>
      <trkpt lat="45.80926" lon="6.18366">
        <ele>1090</ele>
        <time>2010-01-01T00:44:58Z</time>
      </trkpt>
      <trkpt lat="45.80935" lon="6.18371">
        <ele>1089</ele>
        <time>2010-01-01T00:45:02Z</time>
      </trkpt>
      <trkpt lat="45.80946" lon="6.18371">
        <ele>1087</ele>
        <time>2010-01-01T00:45:06Z</time>
      </trkpt>
      <trkpt lat="45.80956" lon="6.18384">
        <ele>1082</ele>
        <time>2010-01-01T00:45:12Z</time>
      </trkpt>
      <trkpt lat="45.80965" lon="6.18385">
        <ele>1079</ele>
        <time>2010-01-01T00:45:15Z</time>
      </trkpt>
      <trkpt lat="45.80989" lon="6.18396">
        <ele>1074</ele>
        <time>2010-01-01T00:45:25Z</time>
      </trkpt>
      <trkpt lat="45.81004" lon="6.184">
        <ele>1068.693</ele>
        <time>2010-01-01T00:45:32Z</time>
      </trkpt>
      <trkpt lat="45.81024" lon="6.18412">
        <ele>1062.56</ele>
        <time>2010-01-01T00:45:40Z</time>
      </trkpt>
      <trkpt lat="45.81039" lon="6.18418">
        <ele>1060</ele>
        <time>2010-01-01T00:45:46Z</time>
      </trkpt>
      <trkpt lat="45.81051" lon="6.18425">
        <ele>1057</ele>
        <time>2010-01-01T00:45:52Z</time>
      </trkpt>
      <trkpt lat="45.81055" lon="6.18427">
        <ele>1057</ele>
        <time>2010-01-01T00:45:53Z</time>
      </trkpt>
      <trkpt lat="45.8106" lon="6.18435">
        <ele>1057</ele>
        <time>2010-01-01T00:45:56Z</time>
      </trkpt>
      <trkpt lat="45.8106" lon="6.18437">
        <ele>1057</ele>
        <time>2010-01-01T00:45:57Z</time>
      </trkpt>
      <trkpt lat="45.81058" lon="6.18438">
        <ele>1057</ele>
        <time>2010-01-01T00:45:58Z</time>
      </trkpt>
      <trkpt lat="45.81058" lon="6.1844">
        <ele>1057</ele>
        <time>2010-01-01T00:45:58Z</time>
      </trkpt>
      <trkpt lat="45.8106" lon="6.1844">
        <ele>1057</ele>
        <time>2010-01-01T00:45:59Z</time>
      </trkpt>
      <trkpt lat="45.81058" lon="6.1844">
        <ele>1057</ele>
        <time>2010-01-01T00:46:00Z</time>
      </trkpt>
      <trkpt lat="45.81055" lon="6.18438">
        <ele>1057</ele>
        <time>2010-01-01T00:46:01Z</time>
      </trkpt>
      <trkpt lat="45.81057" lon="6.18437">
        <ele>1057</ele>
        <time>2010-01-01T00:46:02Z</time>
      </trkpt>
      <trkpt lat="45.81057" lon="6.18434">
        <ele>1056</ele>
        <time>2010-01-01T00:46:03Z</time>
      </trkpt>
      <trkpt lat="45.81058" lon="6.18434">
        <ele>1056</ele>
        <time>2010-01-01T00:46:03Z</time>
      </trkpt>
      <trkpt lat="45.81058" lon="6.18435">
        <ele>1056</ele>
        <time>2010-01-01T00:46:04Z</time>
      </trkpt>
      <trkpt lat="45.81057" lon="6.1843">
        <ele>1057</ele>
        <time>2010-01-01T00:46:05Z</time>
      </trkpt>
      <trkpt lat="45.81061" lon="6.18431">
        <ele>1057</ele>
        <time>2010-01-01T00:46:07Z</time>
      </trkpt>
      <trkpt lat="45.81069" lon="6.18429">
        <ele>1057</ele>
        <time>2010-01-01T00:46:10Z</time>
      </trkpt>
      <trkpt lat="45.81076" lon="6.1843">
        <ele>1057</ele>
        <time>2010-01-01T00:46:12Z</time>
      </trkpt>
      <trkpt lat="45.81083" lon="6.18429">
        <ele>1053</ele>
        <time>2010-01-01T00:46:15Z</time>
      </trkpt>
      <trkpt lat="45.81094" lon="6.18436">
        <ele>1049</ele>
        <time>2010-01-01T00:46:20Z</time>
      </trkpt>
      <trkpt lat="45.81108" lon="6.1845">
        <ele>1042.69</ele>
        <time>2010-01-01T00:46:27Z</time>
      </trkpt>
      <trkpt lat="45.81123" lon="6.18456">
        <ele>1038.38</ele>
        <time>2010-01-01T00:46:33Z</time>
      </trkpt>
      <trkpt lat="45.81129" lon="6.1846">
        <ele>1035</ele>
        <time>2010-01-01T00:46:36Z</time>
      </trkpt>
      <trkpt lat="45.81145" lon="6.18476">
        <ele>1034</ele>
        <time>2010-01-01T00:46:44Z</time>
      </trkpt>
      <trkpt lat="45.81168" lon="6.1849">
        <ele>1031.8484</ele>
        <time>2010-01-01T00:46:54Z</time>
      </trkpt>
      <trkpt lat="45.81183" lon="6.18503">
        <ele>1027</ele>
        <time>2010-01-01T00:47:01Z</time>
      </trkpt>
      <trkpt lat="45.8121" lon="6.18515">
        <ele>1014.7</ele>
        <time>2010-01-01T00:47:12Z</time>
      </trkpt>
      <trkpt lat="45.81223" lon="6.18514">
        <ele>1011</ele>
        <time>2010-01-01T00:47:17Z</time>
      </trkpt>
      <trkpt lat="45.81229" lon="6.18516">
        <ele>1009</ele>
        <time>2010-01-01T00:47:19Z</time>
      </trkpt>
      <trkpt lat="45.8124" lon="6.18524">
        <ele>1009</ele>
        <time>2010-01-01T00:47:25Z</time>
      </trkpt>
      <trkpt lat="45.81247" lon="6.18526">
        <ele>1007.83</ele>
        <time>2010-01-01T00:47:27Z</time>
      </trkpt>
      <trkpt lat="45.81256" lon="6.18531">
        <ele>1004.8299</ele>
        <time>2010-01-01T00:47:31Z</time>
      </trkpt>
      <trkpt lat="45.81267" lon="6.1855">
        <ele>996</ele>
        <time>2010-01-01T00:47:38Z</time>
      </trkpt>
      <trkpt lat="45.81274" lon="6.18559">
        <ele>992</ele>
        <time>2010-01-01T00:47:42Z</time>
      </trkpt>
      <trkpt lat="45.81285" lon="6.18565">
        <ele>989</ele>
        <time>2010-01-01T00:47:46Z</time>
      </trkpt>
      <trkpt lat="45.81309" lon="6.186">
        <ele>979.52</ele>
        <time>2010-01-01T00:48:00Z</time>
      </trkpt>
      <trkpt lat="45.81311" lon="6.186">
        <ele>978.52</ele>
        <time>2010-01-01T00:48:01Z</time>
      </trkpt>
      <trkpt lat="45.8132" lon="6.18606">
        <ele>974.5294</ele>
        <time>2010-01-01T00:48:05Z</time>
      </trkpt>
      <trkpt lat="45.81327" lon="6.18607">
        <ele>972</ele>
        <time>2010-01-01T00:48:08Z</time>
      </trkpt>
      <trkpt lat="45.81332" lon="6.18614">
        <ele>969.62</ele>
        <time>2010-01-01T00:48:10Z</time>
      </trkpt>
      <trkpt lat="45.81337" lon="6.18618">
        <ele>967</ele>
        <time>2010-01-01T00:48:13Z</time>
      </trkpt>
      <trkpt lat="45.81348" lon="6.18625">
        <ele>962.62</ele>
        <time>2010-01-01T00:48:18Z</time>
      </trkpt>
      <trkpt lat="45.81354" lon="6.18625">
        <ele>959.52</ele>
        <time>2010-01-01T00:48:20Z</time>
      </trkpt>
      <trkpt lat="45.81364" lon="6.18631">
        <ele>955.52</ele>
        <time>2010-01-01T00:48:24Z</time>
      </trkpt>
      <trkpt lat="45.81377" lon="6.18646">
        <ele>948.63</ele>
        <time>2010-01-01T00:48:31Z</time>
      </trkpt>
      <trkpt lat="45.81387" lon="6.18655">
        <ele>943.55</ele>
        <time>2010-01-01T00:48:36Z</time>
      </trkpt>
      <trkpt lat="45.81401" lon="6.18654">
        <ele>939</ele>
        <time>2010-01-01T00:48:41Z</time>
      </trkpt>
      <trkpt lat="45.81403" lon="6.18655">
        <ele>938.52999</ele>
        <time>2010-01-01T00:48:42Z</time>
      </trkpt>
      <trkpt lat="45.81411" lon="6.1866">
        <ele>935.53</ele>
        <time>2010-01-01T00:48:46Z</time>
      </trkpt>
      <trkpt lat="45.81416" lon="6.18666">
        <ele>933.65657</ele>
        <time>2010-01-01T00:48:48Z</time>
      </trkpt>
      <trkpt lat="45.81421" lon="6.18668">
        <ele>930.53</ele>
        <time>2010-01-01T00:48:50Z</time>
      </trkpt>
      <trkpt lat="45.81429" lon="6.18676">
        <ele>927.63</ele>
        <time>2010-01-01T00:48:54Z</time>
      </trkpt>
      <trkpt lat="45.81433" lon="6.18676">
        <ele>924.53</ele>
        <time>2010-01-01T00:48:56Z</time>
      </trkpt>
      <trkpt lat="45.8144" lon="6.18681">
        <ele>921.55555</ele>
        <time>2010-01-01T00:48:59Z</time>
      </trkpt>
      <trkpt lat="45.81445" lon="6.18691">
        <ele>919.54</ele>
        <time>2010-01-01T00:49:02Z</time>
      </trkpt>
      <trkpt lat="45.81453" lon="6.18701">
        <ele>915.64</ele>
        <time>2010-01-01T00:49:07Z</time>
      </trkpt>
      <trkpt lat="45.81459" lon="6.18715">
        <ele>911.08911</ele>
        <time>2010-01-01T00:49:11Z</time>
      </trkpt>
      <trkpt lat="45.81474" lon="6.1873">
        <ele>904.54</ele>
        <time>2010-01-01T00:49:19Z</time>
      </trkpt>
      <trkpt lat="45.81476" lon="6.18731">
        <ele>904</ele>
        <time>2010-01-01T00:49:20Z</time>
      </trkpt>
      <trkpt lat="45.81486" lon="6.18718">
        <ele>903</ele>
        <time>2010-01-01T00:49:25Z</time>
      </trkpt>
      <trkpt lat="45.81491" lon="6.18715">
        <ele>903</ele>
        <time>2010-01-01T00:49:27Z</time>
      </trkpt>
      <trkpt lat="45.81495" lon="6.18717">
        <ele>903</ele>
        <time>2010-01-01T00:49:29Z</time>
      </trkpt>
      <trkpt lat="45.81493" lon="6.1872">
        <ele>903</ele>
        <time>2010-01-01T00:49:30Z</time>
      </trkpt>
      <trkpt lat="45.81494" lon="6.18718">
        <ele>903</ele>
        <time>2010-01-01T00:49:30Z</time>
      </trkpt>
      <trkpt lat="45.81493" lon="6.18718">
        <ele>903</ele>
        <time>2010-01-01T00:49:31Z</time>
      </trkpt>
      <trkpt lat="45.81494" lon="6.18721">
        <ele>903</ele>
        <time>2010-01-01T00:49:31Z</time>
      </trkpt>
      <trkpt lat="45.81495" lon="6.18718">
        <ele>903</ele>
        <time>2010-01-01T00:49:32Z</time>
      </trkpt>
      <trkpt lat="45.81496" lon="6.18719">
        <ele>903</ele>
        <time>2010-01-01T00:49:33Z</time>
      </trkpt>
      <trkpt lat="45.81495" lon="6.18719">
        <ele>903</ele>
        <time>2010-01-01T00:49:33Z</time>
      </trkpt>
      <trkpt lat="45.81495" lon="6.18717">
        <ele>903</ele>
        <time>2010-01-01T00:49:34Z</time>
      </trkpt>
      <trkpt lat="45.81496" lon="6.18718">
        <ele>903</ele>
        <time>2010-01-01T00:49:34Z</time>
      </trkpt>
      <trkpt lat="45.81496" lon="6.18716">
        <ele>902</ele>
        <time>2010-01-01T00:49:35Z</time>
      </trkpt>
      <trkpt lat="45.81495" lon="6.18718">
        <ele>902</ele>
        <time>2010-01-01T00:49:35Z</time>
      </trkpt>
      <trkpt lat="45.81494" lon="6.18716">
        <ele>903</ele>
        <time>2010-01-01T00:49:36Z</time>
      </trkpt>
      <trkpt lat="45.81492" lon="6.18716">
        <ele>902</ele>
        <time>2010-01-01T00:49:36Z</time>
      </trkpt>
      <trkpt lat="45.81495" lon="6.18714">
        <ele>903</ele>
        <time>2010-01-01T00:49:38Z</time>
      </trkpt>
      <trkpt lat="45.81494" lon="6.18718">
        <ele>903</ele>
        <time>2010-01-01T00:49:39Z</time>
      </trkpt>
      <trkpt lat="45.81495" lon="6.18718">
        <ele>903</ele>
        <time>2010-01-01T00:49:39Z</time>
      </trkpt>
      <trkpt lat="45.81494" lon="6.18717">
        <ele>903</ele>
        <time>2010-01-01T00:49:40Z</time>
      </trkpt>
      <trkpt lat="45.81496" lon="6.18718">
        <ele>903</ele>
        <time>2010-01-01T00:49:40Z</time>
      </trkpt>
      <trkpt lat="45.81496" lon="6.18717">
        <ele>903</ele>
        <time>2010-01-01T00:49:41Z</time>
      </trkpt>
      <trkpt lat="45.81499" lon="6.1872">
        <ele>903</ele>
        <time>2010-01-01T00:49:42Z</time>
      </trkpt>
      <trkpt lat="45.81498" lon="6.18719">
        <ele>903</ele>
        <time>2010-01-01T00:49:43Z</time>
      </trkpt>
      <trkpt lat="45.81496" lon="6.18721">
        <ele>903</ele>
        <time>2010-01-01T00:49:43Z</time>
      </trkpt>
      <trkpt lat="45.81494" lon="6.18719">
        <ele>903</ele>
        <time>2010-01-01T00:49:44Z</time>
      </trkpt>
      <trkpt lat="45.81497" lon="6.18725">
        <ele>903</ele>
        <time>2010-01-01T00:49:46Z</time>
      </trkpt>
      <trkpt lat="45.81496" lon="6.18726">
        <ele>902</ele>
        <time>2010-01-01T00:49:47Z</time>
      </trkpt>
      <trkpt lat="45.81498" lon="6.18724">
        <ele>901</ele>
        <time>2010-01-01T00:49:47Z</time>
      </trkpt>
      <trkpt lat="45.81499" lon="6.18726">
        <ele>901</ele>
        <time>2010-01-01T00:49:48Z</time>
      </trkpt>
      <trkpt lat="45.815" lon="6.18736">
        <ele>901</ele>
        <time>2010-01-01T00:49:51Z</time>
      </trkpt>
      <trkpt lat="45.81504" lon="6.18737">
        <ele>901</ele>
        <time>2010-01-01T00:49:52Z</time>
      </trkpt>
      <trkpt lat="45.81508" lon="6.18742">
        <ele>900.0198</ele>
        <time>2010-01-01T00:49:54Z</time>
      </trkpt>
      <trkpt lat="45.81522" lon="6.18748">
        <ele>893.57</ele>
        <time>2010-01-01T00:50:00Z</time>
      </trkpt>
      <trkpt lat="45.81525" lon="6.18751">
        <ele>893</ele>
        <time>2010-01-01T00:50:02Z</time>
      </trkpt>
      <trkpt lat="45.81527" lon="6.18764">
        <ele>890</ele>
        <time>2010-01-01T00:50:05Z</time>
      </trkpt>
      <trkpt lat="45.81531" lon="6.18769">
        <ele>885.57</ele>
        <time>2010-01-01T00:50:07Z</time>
      </trkpt>
      <trkpt lat="45.8154" lon="6.18777">
        <ele>882</ele>
        <time>2010-01-01T00:50:12Z</time>
      </trkpt>
      <trkpt lat="45.81546" lon="6.1878">
        <ele>879.67</ele>
        <time>2010-01-01T00:50:14Z</time>
      </trkpt>
      <trkpt lat="45.8155" lon="6.18784">
        <ele>877</ele>
        <time>2010-01-01T00:50:16Z</time>
      </trkpt>
      <trkpt lat="45.81557" lon="6.18788">
        <ele>875</ele>
        <time>2010-01-01T00:50:19Z</time>
      </trkpt>
      <trkpt lat="45.81559" lon="6.18794">
        <ele>871.68999</ele>
        <time>2010-01-01T00:50:21Z</time>
      </trkpt>
      <trkpt lat="45.81563" lon="6.188">
        <ele>870</ele>
        <time>2010-01-01T00:50:24Z</time>
      </trkpt>
      <trkpt lat="45.81571" lon="6.18804">
        <ele>868.16001</ele>
        <time>2010-01-01T00:50:27Z</time>
      </trkpt>
      <trkpt lat="45.81575" lon="6.18804">
        <ele>867</ele>
        <time>2010-01-01T00:50:29Z</time>
      </trkpt>
      <trkpt lat="45.81577" lon="6.188">
        <ele>864</ele>
        <time>2010-01-01T00:50:30Z</time>
      </trkpt>
      <trkpt lat="45.81583" lon="6.18802">
        <ele>861</ele>
        <time>2010-01-01T00:50:32Z</time>
      </trkpt>
      <trkpt lat="45.8159" lon="6.18806">
        <ele>856.58</ele>
        <time>2010-01-01T00:50:35Z</time>
      </trkpt>
      <trkpt lat="45.81597" lon="6.18819">
        <ele>852</ele>
        <time>2010-01-01T00:50:40Z</time>
      </trkpt>
      <trkpt lat="45.81596" lon="6.1883">
        <ele>849</ele>
        <time>2010-01-01T00:50:43Z</time>
      </trkpt>
      <trkpt lat="45.81599" lon="6.18839">
        <ele>845.59</ele>
        <time>2010-01-01T00:50:46Z</time>
      </trkpt>
      <trkpt lat="45.81599" lon="6.18847">
        <ele>843.60605</ele>
        <time>2010-01-01T00:50:48Z</time>
      </trkpt>
      <trkpt lat="45.81603" lon="6.18857">
        <ele>841</ele>
        <time>2010-01-01T00:50:51Z</time>
      </trkpt>
      <trkpt lat="45.81602" lon="6.18863">
        <ele>840</ele>
        <time>2010-01-01T00:50:53Z</time>
      </trkpt>
      <trkpt lat="45.81605" lon="6.18873">
        <ele>838.59</ele>
        <time>2010-01-01T00:50:56Z</time>
      </trkpt>
      <trkpt lat="45.81604" lon="6.18876">
        <ele>838</ele>
        <time>2010-01-01T00:50:57Z</time>
      </trkpt>
      <trkpt lat="45.81601" lon="6.1888">
        <ele>837.59</ele>
        <time>2010-01-01T00:50:58Z</time>
      </trkpt>
      <trkpt lat="45.81597" lon="6.18881">
        <ele>836.30999</ele>
        <time>2010-01-01T00:51:00Z</time>
      </trkpt>
      <trkpt lat="45.81582" lon="6.18883">
        <ele>835.59</ele>
        <time>2010-01-01T00:51:06Z</time>
      </trkpt>
      <trkpt lat="45.81576" lon="6.18886">
        <ele>835</ele>
        <time>2010-01-01T00:51:09Z</time>
      </trkpt>
      <trkpt lat="45.81572" lon="6.18889">
        <ele>834.2</ele>
        <time>2010-01-01T00:51:11Z</time>
      </trkpt>
      <trkpt lat="45.81575" lon="6.18893">
        <ele>833</ele>
        <time>2010-01-01T00:51:12Z</time>
      </trkpt>
      <trkpt lat="45.81574" lon="6.18895">
        <ele>831</ele>
        <time>2010-01-01T00:51:13Z</time>
      </trkpt>
      <trkpt lat="45.81563" lon="6.18906">
        <ele>827</ele>
        <time>2010-01-01T00:51:18Z</time>
      </trkpt>
      <trkpt lat="45.81544" lon="6.18918">
        <ele>820.6</ele>
        <time>2010-01-01T00:51:26Z</time>
      </trkpt>
      <trkpt lat="45.8153" lon="6.18929">
        <ele>814.5</ele>
        <time>2010-01-01T00:51:33Z</time>
      </trkpt>
      <trkpt lat="45.81521" lon="6.18932">
        <ele>813</ele>
        <time>2010-01-01T00:51:37Z</time>
      </trkpt>
      <trkpt lat="45.81517" lon="6.18937">
        <ele>813</ele>
        <time>2010-01-01T00:51:39Z</time>
      </trkpt>
      <trkpt lat="45.81509" lon="6.18938">
        <ele>811.57575</ele>
        <time>2010-01-01T00:51:42Z</time>
      </trkpt>
      <trkpt lat="45.81502" lon="6.18941">
        <ele>810</ele>
        <time>2010-01-01T00:51:45Z</time>
      </trkpt>
      <trkpt lat="45.81467" lon="6.1896">
        <ele>796.60999</ele>
        <time>2010-01-01T00:52:00Z</time>
      </trkpt>
      <trkpt lat="45.81456" lon="6.1896">
        <ele>795</ele>
        <time>2010-01-01T00:52:04Z</time>
      </trkpt>
      <trkpt lat="45.81424" lon="6.18954">
        <ele>791.51</ele>
        <time>2010-01-01T00:52:17Z</time>
      </trkpt>
      <trkpt lat="45.81421" lon="6.18956">
        <ele>790</ele>
        <time>2010-01-01T00:52:19Z</time>
      </trkpt>
      <trkpt lat="45.81418" lon="6.18964">
        <ele>787</ele>
        <time>2010-01-01T00:52:21Z</time>
      </trkpt>
      <trkpt lat="45.81406" lon="6.18975">
        <ele>778.62</ele>
        <time>2010-01-01T00:52:26Z</time>
      </trkpt>
      <trkpt lat="45.81384" lon="6.18984">
        <ele>770.62</ele>
        <time>2010-01-01T00:52:36Z</time>
      </trkpt>
      <trkpt lat="45.81358" lon="6.18986">
        <ele>764.62</ele>
        <time>2010-01-01T00:52:46Z</time>
      </trkpt>
      <trkpt lat="45.81352" lon="6.18989">
        <ele>762.52</ele>
        <time>2010-01-01T00:52:49Z</time>
      </trkpt>
      <trkpt lat="45.81349" lon="6.18989">
        <ele>761.04</ele>
        <time>2010-01-01T00:52:50Z</time>
      </trkpt>
      <trkpt lat="45.81337" lon="6.18984">
        <ele>759</ele>
        <time>2010-01-01T00:52:55Z</time>
      </trkpt>
      <trkpt lat="45.8133" lon="6.18986">
        <ele>757.62</ele>
        <time>2010-01-01T00:52:58Z</time>
      </trkpt>
      <trkpt lat="45.81315" lon="6.18993">
        <ele>751.62</ele>
        <time>2010-01-01T00:53:04Z</time>
      </trkpt>
      <trkpt lat="45.81306" lon="6.19002">
        <ele>748.53464</ele>
        <time>2010-01-01T00:53:08Z</time>
      </trkpt>
      <trkpt lat="45.81305" lon="6.19006">
        <ele>746.52999</ele>
        <time>2010-01-01T00:53:10Z</time>
      </trkpt>
      <trkpt lat="45.81295" lon="6.19014">
        <ele>742.06001</ele>
        <time>2010-01-01T00:53:14Z</time>
      </trkpt>
      <trkpt lat="45.81292" lon="6.1902">
        <ele>740.53534</ele>
        <time>2010-01-01T00:53:16Z</time>
      </trkpt>
      <trkpt lat="45.81289" lon="6.19028">
        <ele>735.63</ele>
        <time>2010-01-01T00:53:19Z</time>
      </trkpt>
      <trkpt lat="45.81286" lon="6.19032">
        <ele>733.63366</ele>
        <time>2010-01-01T00:53:21Z</time>
      </trkpt>
      <trkpt lat="45.81281" lon="6.1905">
        <ele>727</ele>
        <time>2010-01-01T00:53:26Z</time>
      </trkpt>
      <trkpt lat="45.81277" lon="6.19056">
        <ele>723.53464</ele>
        <time>2010-01-01T00:53:28Z</time>
      </trkpt>
      <trkpt lat="45.81278" lon="6.19062">
        <ele>720.56435</ele>
        <time>2010-01-01T00:53:30Z</time>
      </trkpt>
      <trkpt lat="45.81271" lon="6.19081">
        <ele>716.64</ele>
        <time>2010-01-01T00:53:36Z</time>
      </trkpt>
      <trkpt lat="45.81265" lon="6.19104">
        <ele>714</ele>
        <time>2010-01-01T00:53:43Z</time>
      </trkpt>
      <trkpt lat="45.81246" lon="6.19119">
        <ele>710</ele>
        <time>2010-01-01T00:53:52Z</time>
      </trkpt>
      <trkpt lat="45.8124" lon="6.19139">
        <ele>703.64</ele>
        <time>2010-01-01T00:53:58Z</time>
      </trkpt>
      <trkpt lat="45.81229" lon="6.19152">
        <ele>696.54</ele>
        <time>2010-01-01T00:54:03Z</time>
      </trkpt>
      <trkpt lat="45.81226" lon="6.19154">
        <ele>696.45999</ele>
        <time>2010-01-01T00:54:05Z</time>
      </trkpt>
      <trkpt lat="45.81213" lon="6.19153">
        <ele>696</ele>
        <time>2010-01-01T00:54:10Z</time>
      </trkpt>
      <trkpt lat="45.81204" lon="6.19156">
        <ele>695.63636</ele>
        <time>2010-01-01T00:54:14Z</time>
      </trkpt>
      <trkpt lat="45.81179" lon="6.19205">
        <ele>682.55445</ele>
        <time>2010-01-01T00:54:31Z</time>
      </trkpt>
      <trkpt lat="45.8117" lon="6.19216">
        <ele>679.55</ele>
        <time>2010-01-01T00:54:35Z</time>
      </trkpt>
      <trkpt lat="45.81159" lon="6.19222">
        <ele>677.64999</ele>
        <time>2010-01-01T00:54:40Z</time>
      </trkpt>
      <trkpt lat="45.81143" lon="6.19226">
        <ele>673.55445</ele>
        <time>2010-01-01T00:54:46Z</time>
      </trkpt>
      <trkpt lat="45.81138" lon="6.19229">
        <ele>672.65</ele>
        <time>2010-01-01T00:54:49Z</time>
      </trkpt>
      <trkpt lat="45.81135" lon="6.1924">
        <ele>670</ele>
        <time>2010-01-01T00:54:52Z</time>
      </trkpt>
      <trkpt lat="45.81133" lon="6.1924">
        <ele>669</ele>
        <time>2010-01-01T00:54:53Z</time>
      </trkpt>
      <trkpt lat="45.81134" lon="6.19233">
        <ele>669</ele>
        <time>2010-01-01T00:54:55Z</time>
      </trkpt>
      <trkpt lat="45.81129" lon="6.19232">
        <ele>669</ele>
        <time>2010-01-01T00:54:56Z</time>
      </trkpt>
      <trkpt lat="45.81131" lon="6.19235">
        <ele>669</ele>
        <time>2010-01-01T00:54:58Z</time>
      </trkpt>
      <trkpt lat="45.81128" lon="6.19234">
        <ele>669</ele>
        <time>2010-01-01T00:54:59Z</time>
      </trkpt>
      <trkpt lat="45.81127" lon="6.19231">
        <ele>669</ele>
        <time>2010-01-01T00:55:00Z</time>
      </trkpt>
      <trkpt lat="45.81131" lon="6.19231">
        <ele>670</ele>
        <time>2010-01-01T00:55:02Z</time>
      </trkpt>
      <trkpt lat="45.81131" lon="6.19229">
        <ele>669</ele>
        <time>2010-01-01T00:55:02Z</time>
      </trkpt>
      <trkpt lat="45.81131" lon="6.19232">
        <ele>669</ele>
        <time>2010-01-01T00:55:03Z</time>
      </trkpt>
      <trkpt lat="45.81128" lon="6.19234">
        <ele>669</ele>
        <time>2010-01-01T00:55:04Z</time>
      </trkpt>
      <trkpt lat="45.81133" lon="6.19232">
        <ele>669</ele>
        <time>2010-01-01T00:55:07Z</time>
      </trkpt>
      <trkpt lat="45.81132" lon="6.19231">
        <ele>669</ele>
        <time>2010-01-01T00:55:07Z</time>
      </trkpt>
      <trkpt lat="45.81133" lon="6.19231">
        <ele>669</ele>
        <time>2010-01-01T00:55:07Z</time>
      </trkpt>
      <trkpt lat="45.81127" lon="6.19232">
        <ele>669</ele>
        <time>2010-01-01T00:55:10Z</time>
      </trkpt>
      <trkpt lat="45.81118" lon="6.19239">
        <ele>669</ele>
        <time>2010-01-01T00:55:14Z</time>
      </trkpt>
      <trkpt lat="45.81109" lon="6.19243">
        <ele>669</ele>
        <time>2010-01-01T00:55:18Z</time>
      </trkpt>
      <trkpt lat="45.81101" lon="6.19252">
        <ele>669</ele>
        <time>2010-01-01T00:55:22Z</time>
      </trkpt>
      <trkpt lat="45.81097" lon="6.19267">
        <ele>668</ele>
        <time>2010-01-01T00:55:26Z</time>
      </trkpt>
      <trkpt lat="45.81089" lon="6.19276">
        <ele>668</ele>
        <time>2010-01-01T00:55:30Z</time>
      </trkpt>
      <trkpt lat="45.81077" lon="6.19274">
        <ele>668</ele>
        <time>2010-01-01T00:55:35Z</time>
      </trkpt>
      <trkpt lat="45.81053" lon="6.19275">
        <ele>668</ele>
        <time>2010-01-01T00:55:45Z</time>
      </trkpt>
      <trkpt lat="45.81042" lon="6.19271">
        <ele>666</ele>
        <time>2010-01-01T00:55:49Z</time>
      </trkpt>
      <trkpt lat="45.81042" lon="6.19269">
        <ele>666</ele>
        <time>2010-01-01T00:55:50Z</time>
      </trkpt>
      <trkpt lat="45.81043" lon="6.19273">
        <ele>665</ele>
        <time>2010-01-01T00:55:51Z</time>
      </trkpt>
      <trkpt lat="45.81034" lon="6.19281">
        <ele>665</ele>
        <time>2010-01-01T00:55:55Z</time>
      </trkpt>
      <trkpt lat="45.81018" lon="6.19304">
        <ele>664</ele>
        <time>2010-01-01T00:56:04Z</time>
      </trkpt>
      <trkpt lat="45.81008" lon="6.1931">
        <ele>663</ele>
        <time>2010-01-01T00:56:09Z</time>
      </trkpt>
      <trkpt lat="45.81002" lon="6.19316">
        <ele>663</ele>
        <time>2010-01-01T00:56:12Z</time>
      </trkpt>
      <trkpt lat="45.80996" lon="6.19319">
        <ele>662</ele>
        <time>2010-01-01T00:56:14Z</time>
      </trkpt>
      <trkpt lat="45.80997" lon="6.19321">
        <ele>663</ele>
        <time>2010-01-01T00:56:15Z</time>
      </trkpt>
      <trkpt lat="45.80996" lon="6.19321">
        <ele>663</ele>
        <time>2010-01-01T00:56:16Z</time>
      </trkpt>
      <trkpt lat="45.80995" lon="6.19324">
        <ele>663</ele>
        <time>2010-01-01T00:56:17Z</time>
      </trkpt>
      <trkpt lat="45.80994" lon="6.19321">
        <ele>663</ele>
        <time>2010-01-01T00:56:18Z</time>
      </trkpt>
      <trkpt lat="45.80997" lon="6.19319">
        <ele>663</ele>
        <time>2010-01-01T00:56:19Z</time>
      </trkpt>
      <trkpt lat="45.80997" lon="6.1932">
        <ele>663</ele>
        <time>2010-01-01T00:56:19Z</time>
      </trkpt>
      <trkpt lat="45.80993" lon="6.1932">
        <ele>663</ele>
        <time>2010-01-01T00:56:21Z</time>
      </trkpt>
      <trkpt lat="45.80994" lon="6.1932">
        <ele>663</ele>
        <time>2010-01-01T00:56:21Z</time>
      </trkpt>
      <trkpt lat="45.80994" lon="6.19318">
        <ele>663</ele>
        <time>2010-01-01T00:56:22Z</time>
      </trkpt>
      <trkpt lat="45.80992" lon="6.19317">
        <ele>663</ele>
        <time>2010-01-01T00:56:23Z</time>
      </trkpt>
      <trkpt lat="45.80978" lon="6.19315">
        <ele>663</ele>
        <time>2010-01-01T00:56:29Z</time>
      </trkpt>
      <trkpt lat="45.80958" lon="6.19311">
        <ele>663</ele>
        <time>2010-01-01T00:56:37Z</time>
      </trkpt>
      <trkpt lat="45.80952" lon="6.19312">
        <ele>665</ele>
        <time>2010-01-01T00:56:39Z</time>
      </trkpt>
      <trkpt lat="45.80944" lon="6.19318">
        <ele>665</ele>
        <time>2010-01-01T00:56:43Z</time>
      </trkpt>
      <trkpt lat="45.80938" lon="6.19328">
        <ele>668</ele>
        <time>2010-01-01T00:56:46Z</time>
      </trkpt>
      <trkpt lat="45.80933" lon="6.19335">
        <ele>668.46999</ele>
        <time>2010-01-01T00:56:49Z</time>
      </trkpt>
      <trkpt lat="45.80932" lon="6.1934">
        <ele>669</ele>
        <time>2010-01-01T00:56:51Z</time>
      </trkpt>
      <trkpt lat="45.80927" lon="6.19347">
        <ele>669</ele>
        <time>2010-01-01T00:56:54Z</time>
      </trkpt>
      <trkpt lat="45.80925" lon="6.19354">
        <ele>669</ele>
        <time>2010-01-01T00:56:56Z</time>
      </trkpt>
      <trkpt lat="45.80916" lon="6.19362">
        <ele>669</ele>
        <time>2010-01-01T00:57:00Z</time>
      </trkpt>
      <trkpt lat="45.80912" lon="6.19368">
        <ele>670</ele>
        <time>2010-01-01T00:57:02Z</time>
      </trkpt>
      <trkpt lat="45.80913" lon="6.19371">
        <ele>670</ele>
        <time>2010-01-01T00:57:03Z</time>
      </trkpt>
      <trkpt lat="45.80921" lon="6.19377">
        <ele>670</ele>
        <time>2010-01-01T00:57:07Z</time>
      </trkpt>
      <trkpt lat="45.80915" lon="6.19383">
        <ele>671</ele>
        <time>2010-01-01T00:57:10Z</time>
      </trkpt>
      <trkpt lat="45.80914" lon="6.19385">
        <ele>671</ele>
        <time>2010-01-01T00:57:10Z</time>
      </trkpt>
      <trkpt lat="45.80897" lon="6.19398">
        <ele>671.44</ele>
        <time>2010-01-01T00:57:18Z</time>
      </trkpt>
      <trkpt lat="45.80889" lon="6.194">
        <ele>672</ele>
        <time>2010-01-01T00:57:21Z</time>
      </trkpt>
      <trkpt lat="45.80877" lon="6.19398">
        <ele>672</ele>
        <time>2010-01-01T00:57:26Z</time>
      </trkpt>
      <trkpt lat="45.80847" lon="6.194">
        <ele>674</ele>
        <time>2010-01-01T00:57:38Z</time>
      </trkpt>
      <trkpt lat="45.80829" lon="6.19406">
        <ele>677</ele>
        <time>2010-01-01T00:57:46Z</time>
      </trkpt>
      <trkpt lat="45.80796" lon="6.19406">
        <ele>678</ele>
        <time>2010-01-01T00:57:59Z</time>
      </trkpt>
      <trkpt lat="45.80781" lon="6.19409">
        <ele>679</ele>
        <time>2010-01-01T00:58:05Z</time>
      </trkpt>
      <trkpt lat="45.80774" lon="6.19407">
        <ele>679.85998</ele>
        <time>2010-01-01T00:58:08Z</time>
      </trkpt>
      <trkpt lat="45.8077" lon="6.19404">
        <ele>681</ele>
        <time>2010-01-01T00:58:10Z</time>
      </trkpt>
      <trkpt lat="45.80762" lon="6.19404">
        <ele>681</ele>
        <time>2010-01-01T00:58:13Z</time>
      </trkpt>
      <trkpt lat="45.80755" lon="6.19402">
        <ele>682.04997</ele>
        <time>2010-01-01T00:58:16Z</time>
      </trkpt>
      <trkpt lat="45.80745" lon="6.19397">
        <ele>685.13793</ele>
        <time>2010-01-01T00:58:20Z</time>
      </trkpt>
      <trkpt lat="45.80738" lon="6.19402">
        <ele>687</ele>
        <time>2010-01-01T00:58:23Z</time>
      </trkpt>
      <trkpt lat="45.80725" lon="6.19407">
        <ele>688</ele>
        <time>2010-01-01T00:58:28Z</time>
      </trkpt>
      <trkpt lat="45.80722" lon="6.19411">
        <ele>689</ele>
        <time>2010-01-01T00:58:30Z</time>
      </trkpt>
      <trkpt lat="45.80714" lon="6.19412">
        <ele>689</ele>
        <time>2010-01-01T00:58:33Z</time>
      </trkpt>
      <trkpt lat="45.80666" lon="6.19397">
        <ele>696.65999</ele>
        <time>2010-01-01T00:58:53Z</time>
      </trkpt>
      <trkpt lat="45.80661" lon="6.19397">
        <ele>698</ele>
        <time>2010-01-01T00:58:55Z</time>
      </trkpt>
      <trkpt lat="45.80656" lon="6.19402">
        <ele>698.93</ele>
        <time>2010-01-01T00:58:57Z</time>
      </trkpt>
      <trkpt lat="45.80648" lon="6.19405">
        <ele>703</ele>
        <time>2010-01-01T00:59:01Z</time>
      </trkpt>
      <trkpt lat="45.80645" lon="6.1941">
        <ele>704</ele>
        <time>2010-01-01T00:59:02Z</time>
      </trkpt>
      <trkpt lat="45.80642" lon="6.19413">
        <ele>705</ele>
        <time>2010-01-01T00:59:04Z</time>
      </trkpt>
      <trkpt lat="45.80633" lon="6.19413">
        <ele>707.43</ele>
        <time>2010-01-01T00:59:07Z</time>
      </trkpt>
      <trkpt lat="45.80628" lon="6.19417">
        <ele>708.64</ele>
        <time>2010-01-01T00:59:10Z</time>
      </trkpt>
      <trkpt lat="45.80628" lon="6.19419">
        <ele>710</ele>
        <time>2010-01-01T00:59:10Z</time>
      </trkpt>
      <trkpt lat="45.80632" lon="6.19421">
        <ele>711</ele>
        <time>2010-01-01T00:59:12Z</time>
      </trkpt>
      <trkpt lat="45.80635" lon="6.19426">
        <ele>711.64</ele>
        <time>2010-01-01T00:59:14Z</time>
      </trkpt>
      <trkpt lat="45.80637" lon="6.19433">
        <ele>713.49999</ele>
        <time>2010-01-01T00:59:16Z</time>
      </trkpt>
      <trkpt lat="45.80633" lon="6.19441">
        <ele>716</ele>
        <time>2010-01-01T00:59:19Z</time>
      </trkpt>
      <trkpt lat="45.80632" lon="6.19448">
        <ele>718</ele>
        <time>2010-01-01T00:59:21Z</time>
      </trkpt>
      <trkpt lat="45.80638" lon="6.19452">
        <ele>720</ele>
        <time>2010-01-01T00:59:23Z</time>
      </trkpt>
      <trkpt lat="45.80644" lon="6.19471">
        <ele>722</ele>
        <time>2010-01-01T00:59:29Z</time>
      </trkpt>
      <trkpt lat="45.80642" lon="6.19478">
        <ele>724</ele>
        <time>2010-01-01T00:59:31Z</time>
      </trkpt>
      <trkpt lat="45.80641" lon="6.19479">
        <ele>724</ele>
        <time>2010-01-01T00:59:32Z</time>
      </trkpt>
      <trkpt lat="45.80623" lon="6.19474">
        <ele>727</ele>
        <time>2010-01-01T00:59:39Z</time>
      </trkpt>
      <trkpt lat="45.8062" lon="6.1948">
        <ele>728</ele>
        <time>2010-01-01T00:59:41Z</time>
      </trkpt>
      <trkpt lat="45.8062" lon="6.19484">
        <ele>730</ele>
        <time>2010-01-01T00:59:43Z</time>
      </trkpt>
      <trkpt lat="45.80623" lon="6.19486">
        <ele>730</ele>
        <time>2010-01-01T00:59:44Z</time>
      </trkpt>
      <trkpt lat="45.80627" lon="6.19494">
        <ele>732</ele>
        <time>2010-01-01T00:59:47Z</time>
      </trkpt>
      <trkpt lat="45.80629" lon="6.19497">
        <ele>733</ele>
        <time>2010-01-01T00:59:48Z</time>
      </trkpt>
      <trkpt lat="45.80632" lon="6.19504">
        <ele>735</ele>
        <time>2010-01-01T00:59:50Z</time>
      </trkpt>
      <trkpt lat="45.80634" lon="6.19506">
        <ele>735.29999</ele>
        <time>2010-01-01T00:59:51Z</time>
      </trkpt>
      <trkpt lat="45.80636" lon="6.19515">
        <ele>736</ele>
        <time>2010-01-01T00:59:54Z</time>
      </trkpt>
      <trkpt lat="45.80634" lon="6.19524">
        <ele>739</ele>
        <time>2010-01-01T00:59:56Z</time>
      </trkpt>
      <trkpt lat="45.80625" lon="6.19518">
        <ele>741</ele>
        <time>2010-01-01T01:00:00Z</time>
      </trkpt>
      <trkpt lat="45.80618" lon="6.19521">
        <ele>741</ele>
        <time>2010-01-01T01:00:03Z</time>
      </trkpt>
      <trkpt lat="45.80609" lon="6.19519">
        <ele>743</ele>
        <time>2010-01-01T01:00:07Z</time>
      </trkpt>
      <trkpt lat="45.80606" lon="6.19523">
        <ele>743</ele>
        <time>2010-01-01T01:00:09Z</time>
      </trkpt>
      <trkpt lat="45.80607" lon="6.19532">
        <ele>748.46999</ele>
        <time>2010-01-01T01:00:11Z</time>
      </trkpt>
      <trkpt lat="45.80613" lon="6.19542">
        <ele>750</ele>
        <time>2010-01-01T01:00:15Z</time>
      </trkpt>
      <trkpt lat="45.80621" lon="6.1959">
        <ele>759</ele>
        <time>2010-01-01T01:00:29Z</time>
      </trkpt>
      <trkpt lat="45.80625" lon="6.19593">
        <ele>759</ele>
        <time>2010-01-01T01:00:30Z</time>
      </trkpt>
      <trkpt lat="45.80629" lon="6.19593">
        <ele>759</ele>
        <time>2010-01-01T01:00:32Z</time>
      </trkpt>
      <trkpt lat="45.80671" lon="6.19592">
        <ele>759</ele>
        <time>2010-01-01T01:00:49Z</time>
      </trkpt>
      <trkpt lat="45.80706" lon="6.19597">
        <ele>757</ele>
        <time>2010-01-01T01:01:03Z</time>
      </trkpt>
      <trkpt lat="45.80716" lon="6.19601">
        <ele>756</ele>
        <time>2010-01-01T01:01:07Z</time>
      </trkpt>
      <trkpt lat="45.80727" lon="6.19609">
        <ele>756</ele>
        <time>2010-01-01T01:01:12Z</time>
      </trkpt>
      <trkpt lat="45.80737" lon="6.19613">
        <ele>755.62376</ele>
        <time>2010-01-01T01:01:16Z</time>
      </trkpt>
      <trkpt lat="45.80741" lon="6.19616">
        <ele>755</ele>
        <time>2010-01-01T01:01:18Z</time>
      </trkpt>
      <trkpt lat="45.80763" lon="6.19657">
        <ele>757</ele>
        <time>2010-01-01T01:01:32Z</time>
      </trkpt>
      <trkpt lat="45.80766" lon="6.19679">
        <ele>761</ele>
        <time>2010-01-01T01:01:39Z</time>
      </trkpt>
      <trkpt lat="45.80764" lon="6.19686">
        <ele>761</ele>
        <time>2010-01-01T01:01:41Z</time>
      </trkpt>
      <trkpt lat="45.80765" lon="6.19689">
        <ele>761</ele>
        <time>2010-01-01T01:01:42Z</time>
      </trkpt>
      <trkpt lat="45.80759" lon="6.1969">
        <ele>761</ele>
        <time>2010-01-01T01:01:44Z</time>
      </trkpt>
      <trkpt lat="45.80765" lon="6.19691">
        <ele>762</ele>
        <time>2010-01-01T01:01:47Z</time>
      </trkpt>
      <trkpt lat="45.80764" lon="6.19689">
        <ele>762</ele>
        <time>2010-01-01T01:01:47Z</time>
      </trkpt>
      <trkpt lat="45.80762" lon="6.19691">
        <ele>761</ele>
        <time>2010-01-01T01:01:49Z</time>
      </trkpt>
      <trkpt lat="45.80764" lon="6.19687">
        <ele>762</ele>
        <time>2010-01-01T01:01:50Z</time>
      </trkpt>
      <trkpt lat="45.80755" lon="6.19707">
        <ele>763</ele>
        <time>2010-01-01T01:01:57Z</time>
      </trkpt>
      <trkpt lat="45.80747" lon="6.19713">
        <ele>765</ele>
        <time>2010-01-01T01:02:00Z</time>
      </trkpt>
      <trkpt lat="45.80743" lon="6.19713">
        <ele>765</ele>
        <time>2010-01-01T01:02:02Z</time>
      </trkpt>
      <trkpt lat="45.8074" lon="6.19712">
        <ele>767</ele>
        <time>2010-01-01T01:02:03Z</time>
      </trkpt>
      <trkpt lat="45.80729" lon="6.19701">
        <ele>769</ele>
        <time>2010-01-01T01:02:09Z</time>
      </trkpt>
      <trkpt lat="45.80722" lon="6.19699">
        <ele>769</ele>
        <time>2010-01-01T01:02:11Z</time>
      </trkpt>
      <trkpt lat="45.80714" lon="6.19691">
        <ele>770</ele>
        <time>2010-01-01T01:02:15Z</time>
      </trkpt>
      <trkpt lat="45.80699" lon="6.19685">
        <ele>770</ele>
        <time>2010-01-01T01:02:21Z</time>
      </trkpt>
      <trkpt lat="45.8069" lon="6.19678">
        <ele>769</ele>
        <time>2010-01-01T01:02:26Z</time>
      </trkpt>
      <trkpt lat="45.80672" lon="6.19671">
        <ele>769.65999</ele>
        <time>2010-01-01T01:02:33Z</time>
      </trkpt>
      <trkpt lat="45.80664" lon="6.19666">
        <ele>771</ele>
        <time>2010-01-01T01:02:37Z</time>
      </trkpt>
      <trkpt lat="45.80651" lon="6.19664">
        <ele>770.57</ele>
        <time>2010-01-01T01:02:42Z</time>
      </trkpt>
      <trkpt lat="45.8063" lon="6.19657">
        <ele>770</ele>
        <time>2010-01-01T01:02:51Z</time>
      </trkpt>
      <trkpt lat="45.80624" lon="6.19652">
        <ele>770</ele>
        <time>2010-01-01T01:02:53Z</time>
      </trkpt>
      <trkpt lat="45.80599" lon="6.19643">
        <ele>776</ele>
        <time>2010-01-01T01:03:03Z</time>
      </trkpt>
      <trkpt lat="45.80584" lon="6.19642">
        <ele>779</ele>
        <time>2010-01-01T01:03:09Z</time>
      </trkpt>
      <trkpt lat="45.80567" lon="6.19638">
        <ele>781.85998</ele>
        <time>2010-01-01T01:03:16Z</time>
      </trkpt>
      <trkpt lat="45.80561" lon="6.19635">
        <ele>783</ele>
        <time>2010-01-01T01:03:19Z</time>
      </trkpt>
      <trkpt lat="45.80544" lon="6.19633">
        <ele>785</ele>
        <time>2010-01-01T01:03:26Z</time>
      </trkpt>
      <trkpt lat="45.80534" lon="6.19628">
        <ele>785</ele>
        <time>2010-01-01T01:03:30Z</time>
      </trkpt>
      <trkpt lat="45.80522" lon="6.19626">
        <ele>786</ele>
        <time>2010-01-01T01:03:35Z</time>
      </trkpt>
      <trkpt lat="45.80512" lon="6.19619">
        <ele>789</ele>
        <time>2010-01-01T01:03:39Z</time>
      </trkpt>
      <trkpt lat="45.80507" lon="6.1962">
        <ele>791</ele>
        <time>2010-01-01T01:03:41Z</time>
      </trkpt>
      <trkpt lat="45.80504" lon="6.19617">
        <ele>793</ele>
        <time>2010-01-01T01:03:43Z</time>
      </trkpt>
      <trkpt lat="45.80481" lon="6.19614">
        <ele>795</ele>
        <time>2010-01-01T01:03:52Z</time>
      </trkpt>
      <trkpt lat="45.80477" lon="6.19612">
        <ele>795.89998</ele>
        <time>2010-01-01T01:03:53Z</time>
      </trkpt>
      <trkpt lat="45.80467" lon="6.19612">
        <ele>799.90908</ele>
        <time>2010-01-01T01:03:58Z</time>
      </trkpt>
      <trkpt lat="45.80462" lon="6.19611">
        <ele>801</ele>
        <time>2010-01-01T01:04:00Z</time>
      </trkpt>
      <trkpt lat="45.80446" lon="6.19609">
        <ele>804</ele>
        <time>2010-01-01T01:04:06Z</time>
      </trkpt>
      <trkpt lat="45.80421" lon="6.19595">
        <ele>806</ele>
        <time>2010-01-01T01:04:17Z</time>
      </trkpt>
      <trkpt lat="45.80415" lon="6.19593">
        <ele>808</ele>
        <time>2010-01-01T01:04:19Z</time>
      </trkpt>
      <trkpt lat="45.80399" lon="6.19593">
        <ele>810</ele>
        <time>2010-01-01T01:04:26Z</time>
      </trkpt>
      <trkpt lat="45.80375" lon="6.19583">
        <ele>814</ele>
        <time>2010-01-01T01:04:36Z</time>
      </trkpt>
      <trkpt lat="45.80357" lon="6.19582">
        <ele>815.91998</ele>
        <time>2010-01-01T01:04:43Z</time>
      </trkpt>
      <trkpt lat="45.80321" lon="6.19575">
        <ele>823.37999</ele>
        <time>2010-01-01T01:04:57Z</time>
      </trkpt>
      <trkpt lat="45.80314" lon="6.19572">
        <ele>824</ele>
        <time>2010-01-01T01:05:00Z</time>
      </trkpt>
      <trkpt lat="45.80306" lon="6.19566">
        <ele>826</ele>
        <time>2010-01-01T01:05:04Z</time>
      </trkpt>
      <trkpt lat="45.80293" lon="6.19567">
        <ele>829</ele>
        <time>2010-01-01T01:05:09Z</time>
      </trkpt>
      <trkpt lat="45.80284" lon="6.19563">
        <ele>830</ele>
        <time>2010-01-01T01:05:13Z</time>
      </trkpt>
      <trkpt lat="45.8026" lon="6.19561">
        <ele>831.69998</ele>
        <time>2010-01-01T01:05:22Z</time>
      </trkpt>
      <trkpt lat="45.80256" lon="6.19558">
        <ele>833</ele>
        <time>2010-01-01T01:05:24Z</time>
      </trkpt>
      <trkpt lat="45.80238" lon="6.19556">
        <ele>833</ele>
        <time>2010-01-01T01:05:31Z</time>
      </trkpt>
      <trkpt lat="45.80233" lon="6.19554">
        <ele>835</ele>
        <time>2010-01-01T01:05:34Z</time>
      </trkpt>
      <trkpt lat="45.80224" lon="6.19556">
        <ele>835</ele>
        <time>2010-01-01T01:05:37Z</time>
      </trkpt>
      <trkpt lat="45.80209" lon="6.19554">
        <ele>837</ele>
        <time>2010-01-01T01:05:43Z</time>
      </trkpt>
      <trkpt lat="45.80178" lon="6.19546">
        <ele>836</ele>
        <time>2010-01-01T01:05:56Z</time>
      </trkpt>
      <trkpt lat="45.80174" lon="6.19542">
        <ele>836</ele>
        <time>2010-01-01T01:05:58Z</time>
      </trkpt>
      <trkpt lat="45.80166" lon="6.19542">
        <ele>836</ele>
        <time>2010-01-01T01:06:01Z</time>
      </trkpt>
      <trkpt lat="45.80154" lon="6.19546">
        <ele>831</ele>
        <time>2010-01-01T01:06:06Z</time>
      </trkpt>
      <trkpt lat="45.80148" lon="6.19545">
        <ele>830.54</ele>
        <time>2010-01-01T01:06:08Z</time>
      </trkpt>
      <trkpt lat="45.80133" lon="6.19538">
        <ele>830</ele>
        <time>2010-01-01T01:06:14Z</time>
      </trkpt>
      <trkpt lat="45.80113" lon="6.19534">
        <ele>830</ele>
        <time>2010-01-01T01:06:23Z</time>
      </trkpt>
      <trkpt lat="45.80108" lon="6.19531">
        <ele>830</ele>
        <time>2010-01-01T01:06:25Z</time>
      </trkpt>
      <trkpt lat="45.80081" lon="6.19526">
        <ele>830.44999</ele>
        <time>2010-01-01T01:06:35Z</time>
      </trkpt>
      <trkpt lat="45.80056" lon="6.19506">
        <ele>829.29706</ele>
        <time>2010-01-01T01:06:47Z</time>
      </trkpt>
      <trkpt lat="45.80048" lon="6.19503">
        <ele>827</ele>
        <time>2010-01-01T01:06:50Z</time>
      </trkpt>
      <trkpt lat="45.80042" lon="6.19498">
        <ele>827</ele>
        <time>2010-01-01T01:06:53Z</time>
      </trkpt>
      <trkpt lat="45.80035" lon="6.19484">
        <ele>824</ele>
        <time>2010-01-01T01:06:58Z</time>
      </trkpt>
      <trkpt lat="45.80026" lon="6.19475">
        <ele>822</ele>
        <time>2010-01-01T01:07:02Z</time>
      </trkpt>
      <trkpt lat="45.80013" lon="6.19469">
        <ele>820</ele>
        <time>2010-01-01T01:07:07Z</time>
      </trkpt>
      <trkpt lat="45.80004" lon="6.1946">
        <ele>819</ele>
        <time>2010-01-01T01:07:12Z</time>
      </trkpt>
      <trkpt lat="45.79995" lon="6.19456">
        <ele>819</ele>
        <time>2010-01-01T01:07:16Z</time>
      </trkpt>
      <trkpt lat="45.79976" lon="6.19441">
        <ele>815</ele>
        <time>2010-01-01T01:07:24Z</time>
      </trkpt>
      <trkpt lat="45.79972" lon="6.1944">
        <ele>815</ele>
        <time>2010-01-01T01:07:26Z</time>
      </trkpt>
      <trkpt lat="45.79958" lon="6.19438">
        <ele>813</ele>
        <time>2010-01-01T01:07:32Z</time>
      </trkpt>
      <trkpt lat="45.79943" lon="6.19432">
        <ele>812</ele>
        <time>2010-01-01T01:07:38Z</time>
      </trkpt>
      <trkpt lat="45.79917" lon="6.19412">
        <ele>808</ele>
        <time>2010-01-01T01:07:50Z</time>
      </trkpt>
      <trkpt lat="45.79909" lon="6.19403">
        <ele>806.68</ele>
        <time>2010-01-01T01:07:54Z</time>
      </trkpt>
      <trkpt lat="45.79899" lon="6.19394">
        <ele>805</ele>
        <time>2010-01-01T01:07:59Z</time>
      </trkpt>
      <trkpt lat="45.7988" lon="6.19383">
        <ele>800</ele>
        <time>2010-01-01T01:08:07Z</time>
      </trkpt>
      <trkpt lat="45.79876" lon="6.19383">
        <ele>799.57</ele>
        <time>2010-01-01T01:08:08Z</time>
      </trkpt>
      <trkpt lat="45.79873" lon="6.19383">
        <ele>799</ele>
        <time>2010-01-01T01:08:09Z</time>
      </trkpt>
      <trkpt lat="45.79872" lon="6.19381">
        <ele>798</ele>
        <time>2010-01-01T01:08:10Z</time>
      </trkpt>
      <trkpt lat="45.79871" lon="6.19383">
        <ele>798</ele>
        <time>2010-01-01T01:08:11Z</time>
      </trkpt>
      <trkpt lat="45.79869" lon="6.19379">
        <ele>797</ele>
        <time>2010-01-01T01:08:12Z</time>
      </trkpt>
      <trkpt lat="45.79867" lon="6.19379">
        <ele>797</ele>
        <time>2010-01-01T01:08:13Z</time>
      </trkpt>
      <trkpt lat="45.79871" lon="6.1938">
        <ele>797</ele>
        <time>2010-01-01T01:08:14Z</time>
      </trkpt>
      <trkpt lat="45.79873" lon="6.19375">
        <ele>797</ele>
        <time>2010-01-01T01:08:16Z</time>
      </trkpt>
      <trkpt lat="45.7987" lon="6.19374">
        <ele>797</ele>
        <time>2010-01-01T01:08:18Z</time>
      </trkpt>
      <trkpt lat="45.7987" lon="6.19372">
        <ele>797</ele>
        <time>2010-01-01T01:08:18Z</time>
      </trkpt>
      <trkpt lat="45.79867" lon="6.19375">
        <ele>797</ele>
        <time>2010-01-01T01:08:19Z</time>
      </trkpt>
      <trkpt lat="45.79869" lon="6.19375">
        <ele>797</ele>
        <time>2010-01-01T01:08:20Z</time>
      </trkpt>
      <trkpt lat="45.7987" lon="6.19374">
        <ele>797</ele>
        <time>2010-01-01T01:08:20Z</time>
      </trkpt>
      <trkpt lat="45.79867" lon="6.19373">
        <ele>798</ele>
        <time>2010-01-01T01:08:21Z</time>
      </trkpt>
      <trkpt lat="45.79869" lon="6.19375">
        <ele>798</ele>
        <time>2010-01-01T01:08:22Z</time>
      </trkpt>
      <trkpt lat="45.79868" lon="6.19375">
        <ele>798</ele>
        <time>2010-01-01T01:08:23Z</time>
      </trkpt>
      <trkpt lat="45.79868" lon="6.19378">
        <ele>798</ele>
        <time>2010-01-01T01:08:23Z</time>
      </trkpt>
      <trkpt lat="45.79867" lon="6.19376">
        <ele>798</ele>
        <time>2010-01-01T01:08:24Z</time>
      </trkpt>
      <trkpt lat="45.79856" lon="6.19385">
        <ele>801</ele>
        <time>2010-01-01T01:08:29Z</time>
      </trkpt>
      <trkpt lat="45.79854" lon="6.19384">
        <ele>801</ele>
        <time>2010-01-01T01:08:30Z</time>
      </trkpt>
      <trkpt lat="45.79849" lon="6.19387">
        <ele>802.2</ele>
        <time>2010-01-01T01:08:32Z</time>
      </trkpt>
      <trkpt lat="45.79828" lon="6.1939">
        <ele>807</ele>
        <time>2010-01-01T01:08:40Z</time>
      </trkpt>
      <trkpt lat="45.79808" lon="6.194">
        <ele>809</ele>
        <time>2010-01-01T01:08:49Z</time>
      </trkpt>
      <trkpt lat="45.79799" lon="6.19401">
        <ele>809</ele>
        <time>2010-01-01T01:08:53Z</time>
      </trkpt>
      <trkpt lat="45.79795" lon="6.19403">
        <ele>809</ele>
        <time>2010-01-01T01:08:55Z</time>
      </trkpt>
      <trkpt lat="45.79788" lon="6.19402">
        <ele>809</ele>
        <time>2010-01-01T01:08:57Z</time>
      </trkpt>
      <trkpt lat="45.79784" lon="6.19398">
        <ele>809</ele>
        <time>2010-01-01T01:08:59Z</time>
      </trkpt>
      <trkpt lat="45.79758" lon="6.19392">
        <ele>813</ele>
        <time>2010-01-01T01:09:10Z</time>
      </trkpt>
      <trkpt lat="45.79754" lon="6.19391">
        <ele>813</ele>
        <time>2010-01-01T01:09:11Z</time>
      </trkpt>
      <trkpt lat="45.79751" lon="6.19393">
        <ele>813</ele>
        <time>2010-01-01T01:09:12Z</time>
      </trkpt>
      <trkpt lat="45.79747" lon="6.19393">
        <ele>815.20001</ele>
        <time>2010-01-01T01:09:14Z</time>
      </trkpt>
      <trkpt lat="45.79739" lon="6.19388">
        <ele>817</ele>
        <time>2010-01-01T01:09:18Z</time>
      </trkpt>
      <trkpt lat="45.79731" lon="6.19388">
        <ele>819.48</ele>
        <time>2010-01-01T01:09:21Z</time>
      </trkpt>
      <trkpt lat="45.79728" lon="6.19385">
        <ele>820</ele>
        <time>2010-01-01T01:09:22Z</time>
      </trkpt>
      <trkpt lat="45.79719" lon="6.1938">
        <ele>821</ele>
        <time>2010-01-01T01:09:26Z</time>
      </trkpt>
      <trkpt lat="45.79708" lon="6.1938">
        <ele>822</ele>
        <time>2010-01-01T01:09:31Z</time>
      </trkpt>
      <trkpt lat="45.79688" lon="6.19383">
        <ele>823</ele>
        <time>2010-01-01T01:09:39Z</time>
      </trkpt>
      <trkpt lat="45.79684" lon="6.19386">
        <ele>827</ele>
        <time>2010-01-01T01:09:41Z</time>
      </trkpt>
      <trkpt lat="45.79675" lon="6.19387">
        <ele>829.78</ele>
        <time>2010-01-01T01:09:44Z</time>
      </trkpt>
      <trkpt lat="45.79665" lon="6.19384">
        <ele>831</ele>
        <time>2010-01-01T01:09:48Z</time>
      </trkpt>
      <trkpt lat="45.79661" lon="6.19381">
        <ele>831</ele>
        <time>2010-01-01T01:09:50Z</time>
      </trkpt>
      <trkpt lat="45.79649" lon="6.19377">
        <ele>831</ele>
        <time>2010-01-01T01:09:55Z</time>
      </trkpt>
      <trkpt lat="45.79642" lon="6.19377">
        <ele>831.94</ele>
        <time>2010-01-01T01:09:58Z</time>
      </trkpt>
      <trkpt lat="45.79637" lon="6.19375">
        <ele>833</ele>
        <time>2010-01-01T01:10:00Z</time>
      </trkpt>
      <trkpt lat="45.79629" lon="6.19378">
        <ele>833</ele>
        <time>2010-01-01T01:10:03Z</time>
      </trkpt>
      <trkpt lat="45.79624" lon="6.19378">
        <ele>836</ele>
        <time>2010-01-01T01:10:05Z</time>
      </trkpt>
      <trkpt lat="45.79614" lon="6.1938">
        <ele>838</ele>
        <time>2010-01-01T01:10:09Z</time>
      </trkpt>
      <trkpt lat="45.79608" lon="6.19376">
        <ele>840</ele>
        <time>2010-01-01T01:10:12Z</time>
      </trkpt>
      <trkpt lat="45.79604" lon="6.19375">
        <ele>840</ele>
        <time>2010-01-01T01:10:14Z</time>
      </trkpt>
      <trkpt lat="45.79597" lon="6.1938">
        <ele>840</ele>
        <time>2010-01-01T01:10:17Z</time>
      </trkpt>
      <trkpt lat="45.79591" lon="6.19381">
        <ele>840</ele>
        <time>2010-01-01T01:10:19Z</time>
      </trkpt>
      <trkpt lat="45.79588" lon="6.19386">
        <ele>840</ele>
        <time>2010-01-01T01:10:21Z</time>
      </trkpt>
      <trkpt lat="45.79581" lon="6.1939">
        <ele>841</ele>
        <time>2010-01-01T01:10:24Z</time>
      </trkpt>
      <trkpt lat="45.79579" lon="6.19387">
        <ele>841</ele>
        <time>2010-01-01T01:10:25Z</time>
      </trkpt>
      <trkpt lat="45.7958" lon="6.19374">
        <ele>840</ele>
        <time>2010-01-01T01:10:29Z</time>
      </trkpt>
      <trkpt lat="45.79577" lon="6.1937">
        <ele>840</ele>
        <time>2010-01-01T01:10:30Z</time>
      </trkpt>
      <trkpt lat="45.79578" lon="6.19366">
        <ele>840</ele>
        <time>2010-01-01T01:10:31Z</time>
      </trkpt>
      <trkpt lat="45.79577" lon="6.1936">
        <ele>840</ele>
        <time>2010-01-01T01:10:33Z</time>
      </trkpt>
      <trkpt lat="45.79573" lon="6.19356">
        <ele>839</ele>
        <time>2010-01-01T01:10:35Z</time>
      </trkpt>
      <trkpt lat="45.79568" lon="6.19354">
        <ele>839</ele>
        <time>2010-01-01T01:10:37Z</time>
      </trkpt>
      <trkpt lat="45.79561" lon="6.19349">
        <ele>840</ele>
        <time>2010-01-01T01:10:40Z</time>
      </trkpt>
      <trkpt lat="45.79554" lon="6.19342">
        <ele>841.3861</ele>
        <time>2010-01-01T01:10:44Z</time>
      </trkpt>
      <trkpt lat="45.79547" lon="6.19341">
        <ele>844.84615</ele>
        <time>2010-01-01T01:10:47Z</time>
      </trkpt>
      <trkpt lat="45.79542" lon="6.19342">
        <ele>846</ele>
        <time>2010-01-01T01:10:48Z</time>
      </trkpt>
      <trkpt lat="45.79533" lon="6.19342">
        <ele>848</ele>
        <time>2010-01-01T01:10:52Z</time>
      </trkpt>
      <trkpt lat="45.79512" lon="6.19331">
        <ele>850</ele>
        <time>2010-01-01T01:11:01Z</time>
      </trkpt>
      <trkpt lat="45.79497" lon="6.19333">
        <ele>852</ele>
        <time>2010-01-01T01:11:07Z</time>
      </trkpt>
      <trkpt lat="45.79481" lon="6.19329">
        <ele>853</ele>
        <time>2010-01-01T01:11:14Z</time>
      </trkpt>
      <trkpt lat="45.79473" lon="6.19331">
        <ele>853</ele>
        <time>2010-01-01T01:11:17Z</time>
      </trkpt>
      <trkpt lat="45.79469" lon="6.19334">
        <ele>853</ele>
        <time>2010-01-01T01:11:19Z</time>
      </trkpt>
      <trkpt lat="45.79457" lon="6.19368">
        <ele>857</ele>
        <time>2010-01-01T01:11:29Z</time>
      </trkpt>
      <trkpt lat="45.79452" lon="6.19375">
        <ele>857</ele>
        <time>2010-01-01T01:11:32Z</time>
      </trkpt>
      <trkpt lat="45.79446" lon="6.19379">
        <ele>859</ele>
        <time>2010-01-01T01:11:35Z</time>
      </trkpt>
      <trkpt lat="45.79441" lon="6.19384">
        <ele>859</ele>
        <time>2010-01-01T01:11:37Z</time>
      </trkpt>
      <trkpt lat="45.7943" lon="6.19385">
        <ele>862</ele>
        <time>2010-01-01T01:11:42Z</time>
      </trkpt>
      <trkpt lat="45.79425" lon="6.19384">
        <ele>865</ele>
        <time>2010-01-01T01:11:44Z</time>
      </trkpt>
      <trkpt lat="45.79413" lon="6.19385">
        <ele>865</ele>
        <time>2010-01-01T01:11:48Z</time>
      </trkpt>
      <trkpt lat="45.79408" lon="6.19384">
        <ele>866</ele>
        <time>2010-01-01T01:11:50Z</time>
      </trkpt>
      <trkpt lat="45.79401" lon="6.19386">
        <ele>866.41583</ele>
        <time>2010-01-01T01:11:53Z</time>
      </trkpt>
      <trkpt lat="45.79398" lon="6.19383">
        <ele>867</ele>
        <time>2010-01-01T01:11:55Z</time>
      </trkpt>
      <trkpt lat="45.79392" lon="6.19372">
        <ele>867</ele>
        <time>2010-01-01T01:11:59Z</time>
      </trkpt>
      <trkpt lat="45.79391" lon="6.19365">
        <ele>868</ele>
        <time>2010-01-01T01:12:01Z</time>
      </trkpt>
      <trkpt lat="45.79386" lon="6.19356">
        <ele>868</ele>
        <time>2010-01-01T01:12:04Z</time>
      </trkpt>
      <trkpt lat="45.7938" lon="6.19351">
        <ele>868</ele>
        <time>2010-01-01T01:12:06Z</time>
      </trkpt>
      <trkpt lat="45.79352" lon="6.19343">
        <ele>867</ele>
        <time>2010-01-01T01:12:18Z</time>
      </trkpt>
      <trkpt lat="45.79347" lon="6.19344">
        <ele>867</ele>
        <time>2010-01-01T01:12:20Z</time>
      </trkpt>
      <trkpt lat="45.79337" lon="6.19351">
        <ele>867</ele>
        <time>2010-01-01T01:12:24Z</time>
      </trkpt>
      <trkpt lat="45.79332" lon="6.19351">
        <ele>867</ele>
        <time>2010-01-01T01:12:27Z</time>
      </trkpt>
      <trkpt lat="45.79321" lon="6.19349">
        <ele>867</ele>
        <time>2010-01-01T01:12:31Z</time>
      </trkpt>
      <trkpt lat="45.79305" lon="6.19341">
        <ele>867</ele>
        <time>2010-01-01T01:12:37Z</time>
      </trkpt>
      <trkpt lat="45.79286" lon="6.19343">
        <ele>861</ele>
        <time>2010-01-01T01:12:45Z</time>
      </trkpt>
      <trkpt lat="45.79264" lon="6.19339">
        <ele>859.59</ele>
        <time>2010-01-01T01:12:54Z</time>
      </trkpt>
      <trkpt lat="45.79257" lon="6.1934">
        <ele>859</ele>
        <time>2010-01-01T01:12:57Z</time>
      </trkpt>
      <trkpt lat="45.79229" lon="6.19346">
        <ele>862</ele>
        <time>2010-01-01T01:13:08Z</time>
      </trkpt>
      <trkpt lat="45.79217" lon="6.19344">
        <ele>862</ele>
        <time>2010-01-01T01:13:13Z</time>
      </trkpt>
      <trkpt lat="45.79209" lon="6.19345">
        <ele>862</ele>
        <time>2010-01-01T01:13:17Z</time>
      </trkpt>
      <trkpt lat="45.79188" lon="6.19341">
        <ele>862.8</ele>
        <time>2010-01-01T01:13:25Z</time>
      </trkpt>
      <trkpt lat="45.79174" lon="6.19343">
        <ele>864</ele>
        <time>2010-01-01T01:13:31Z</time>
      </trkpt>
      <trkpt lat="45.79168" lon="6.19346">
        <ele>864</ele>
        <time>2010-01-01T01:13:33Z</time>
      </trkpt>
      <trkpt lat="45.79163" lon="6.19352">
        <ele>864.48999</ele>
        <time>2010-01-01T01:13:36Z</time>
      </trkpt>
      <trkpt lat="45.79156" lon="6.19352">
        <ele>865</ele>
        <time>2010-01-01T01:13:38Z</time>
      </trkpt>
      <trkpt lat="45.79149" lon="6.19356">
        <ele>865</ele>
        <time>2010-01-01T01:13:41Z</time>
      </trkpt>
      <trkpt lat="45.79136" lon="6.19355">
        <ele>863</ele>
        <time>2010-01-01T01:13:47Z</time>
      </trkpt>
      <trkpt lat="45.79129" lon="6.19357">
        <ele>863</ele>
        <time>2010-01-01T01:13:49Z</time>
      </trkpt>
      <trkpt lat="45.79125" lon="6.19359">
        <ele>863</ele>
        <time>2010-01-01T01:13:51Z</time>
      </trkpt>
      <trkpt lat="45.7912" lon="6.19367">
        <ele>862.02</ele>
        <time>2010-01-01T01:13:54Z</time>
      </trkpt>
      <trkpt lat="45.79098" lon="6.19377">
        <ele>860.51485</ele>
        <time>2010-01-01T01:14:04Z</time>
      </trkpt>
      <trkpt lat="45.79089" lon="6.19377">
        <ele>860</ele>
        <time>2010-01-01T01:14:07Z</time>
      </trkpt>
      <trkpt lat="45.79076" lon="6.19374">
        <ele>861</ele>
        <time>2010-01-01T01:14:12Z</time>
      </trkpt>
      <trkpt lat="45.79062" lon="6.19366">
        <ele>861</ele>
        <time>2010-01-01T01:14:18Z</time>
      </trkpt>
      <trkpt lat="45.79044" lon="6.19373">
        <ele>861</ele>
        <time>2010-01-01T01:14:26Z</time>
      </trkpt>
      <trkpt lat="45.79032" lon="6.19373">
        <ele>862</ele>
        <time>2010-01-01T01:14:31Z</time>
      </trkpt>
      <trkpt lat="45.79021" lon="6.19372">
        <ele>862</ele>
        <time>2010-01-01T01:14:35Z</time>
      </trkpt>
      <trkpt lat="45.79001" lon="6.19356">
        <ele>858.52</ele>
        <time>2010-01-01T01:14:44Z</time>
      </trkpt>
      <trkpt lat="45.78986" lon="6.19335">
        <ele>856</ele>
        <time>2010-01-01T01:14:53Z</time>
      </trkpt>
      <trkpt lat="45.78977" lon="6.19328">
        <ele>855</ele>
        <time>2010-01-01T01:14:57Z</time>
      </trkpt>
      <trkpt lat="45.78971" lon="6.19327">
        <ele>853</ele>
        <time>2010-01-01T01:14:59Z</time>
      </trkpt>
      <trkpt lat="45.78962" lon="6.1933">
        <ele>853</ele>
        <time>2010-01-01T01:15:03Z</time>
      </trkpt>
      <trkpt lat="45.78952" lon="6.19329">
        <ele>853.94</ele>
        <time>2010-01-01T01:15:07Z</time>
      </trkpt>
      <trkpt lat="45.7894" lon="6.19325">
        <ele>855</ele>
        <time>2010-01-01T01:15:12Z</time>
      </trkpt>
      <trkpt lat="45.7893" lon="6.19318">
        <ele>855</ele>
        <time>2010-01-01T01:15:16Z</time>
      </trkpt>
      <trkpt lat="45.78929" lon="6.19312">
        <ele>855</ele>
        <time>2010-01-01T01:15:18Z</time>
      </trkpt>
      <trkpt lat="45.78926" lon="6.19319">
        <ele>854</ele>
        <time>2010-01-01T01:15:20Z</time>
      </trkpt>
      <trkpt lat="45.78929" lon="6.19302">
        <ele>854</ele>
        <time>2010-01-01T01:15:25Z</time>
      </trkpt>
      <trkpt lat="45.78927" lon="6.1929">
        <ele>854</ele>
        <time>2010-01-01T01:15:28Z</time>
      </trkpt>
      <trkpt lat="45.78923" lon="6.19285">
        <ele>854</ele>
        <time>2010-01-01T01:15:30Z</time>
      </trkpt>
      <trkpt lat="45.78913" lon="6.19281">
        <ele>852</ele>
        <time>2010-01-01T01:15:35Z</time>
      </trkpt>
      <trkpt lat="45.7891" lon="6.19278">
        <ele>852</ele>
        <time>2010-01-01T01:15:36Z</time>
      </trkpt>
      <trkpt lat="45.789" lon="6.19277">
        <ele>848</ele>
        <time>2010-01-01T01:15:40Z</time>
      </trkpt>
      <trkpt lat="45.78896" lon="6.19275">
        <ele>848</ele>
        <time>2010-01-01T01:15:42Z</time>
      </trkpt>
      <trkpt lat="45.78893" lon="6.19265">
        <ele>844</ele>
        <time>2010-01-01T01:15:45Z</time>
      </trkpt>
      <trkpt lat="45.78895" lon="6.19251">
        <ele>840</ele>
        <time>2010-01-01T01:15:49Z</time>
      </trkpt>
      <trkpt lat="45.78892" lon="6.19246">
        <ele>839.55</ele>
        <time>2010-01-01T01:15:51Z</time>
      </trkpt>
      <trkpt lat="45.78888" lon="6.19243">
        <ele>839</ele>
        <time>2010-01-01T01:15:53Z</time>
      </trkpt>
      <trkpt lat="45.78879" lon="6.19244">
        <ele>838</ele>
        <time>2010-01-01T01:15:56Z</time>
      </trkpt>
      <trkpt lat="45.78872" lon="6.19242">
        <ele>838</ele>
        <time>2010-01-01T01:15:59Z</time>
      </trkpt>
      <trkpt lat="45.78854" lon="6.19232">
        <ele>837</ele>
        <time>2010-01-01T01:16:07Z</time>
      </trkpt>
      <trkpt lat="45.78845" lon="6.19224">
        <ele>837</ele>
        <time>2010-01-01T01:16:11Z</time>
      </trkpt>
      <trkpt lat="45.78837" lon="6.1922">
        <ele>837</ele>
        <time>2010-01-01T01:16:14Z</time>
      </trkpt>
      <trkpt lat="45.78829" lon="6.19213">
        <ele>835</ele>
        <time>2010-01-01T01:16:18Z</time>
      </trkpt>
      <trkpt lat="45.78813" lon="6.1919">
        <ele>835</ele>
        <time>2010-01-01T01:16:27Z</time>
      </trkpt>
      <trkpt lat="45.78803" lon="6.19182">
        <ele>834</ele>
        <time>2010-01-01T01:16:32Z</time>
      </trkpt>
      <trkpt lat="45.78795" lon="6.19172">
        <ele>834</ele>
        <time>2010-01-01T01:16:36Z</time>
      </trkpt>
      <trkpt lat="45.78783" lon="6.19163">
        <ele>834</ele>
        <time>2010-01-01T01:16:41Z</time>
      </trkpt>
      <trkpt lat="45.78772" lon="6.1916">
        <ele>834</ele>
        <time>2010-01-01T01:16:46Z</time>
      </trkpt>
      <trkpt lat="45.78755" lon="6.1916">
        <ele>834</ele>
        <time>2010-01-01T01:16:53Z</time>
      </trkpt>
      <trkpt lat="45.78744" lon="6.19163">
        <ele>834</ele>
        <time>2010-01-01T01:16:57Z</time>
      </trkpt>
      <trkpt lat="45.78735" lon="6.19167">
        <ele>833</ele>
        <time>2010-01-01T01:17:01Z</time>
      </trkpt>
      <trkpt lat="45.78727" lon="6.19173">
        <ele>833</ele>
        <time>2010-01-01T01:17:05Z</time>
      </trkpt>
      <trkpt lat="45.78721" lon="6.19174">
        <ele>835</ele>
        <time>2010-01-01T01:17:07Z</time>
      </trkpt>
      <trkpt lat="45.78715" lon="6.19178">
        <ele>835</ele>
        <time>2010-01-01T01:17:10Z</time>
      </trkpt>
      <trkpt lat="45.78709" lon="6.19178">
        <ele>835</ele>
        <time>2010-01-01T01:17:12Z</time>
      </trkpt>
      <trkpt lat="45.78699" lon="6.19183">
        <ele>834.67</ele>
        <time>2010-01-01T01:17:16Z</time>
      </trkpt>
      <trkpt lat="45.78686" lon="6.19186">
        <ele>834</ele>
        <time>2010-01-01T01:17:22Z</time>
      </trkpt>
      <trkpt lat="45.78676" lon="6.1919">
        <ele>835</ele>
        <time>2010-01-01T01:17:26Z</time>
      </trkpt>
      <trkpt lat="45.78672" lon="6.1919">
        <ele>835</ele>
        <time>2010-01-01T01:17:27Z</time>
      </trkpt>
      <trkpt lat="45.78658" lon="6.19196">
        <ele>838</ele>
        <time>2010-01-01T01:17:33Z</time>
      </trkpt>
      <trkpt lat="45.78649" lon="6.19203">
        <ele>840</ele>
        <time>2010-01-01T01:17:37Z</time>
      </trkpt>
      <trkpt lat="45.78642" lon="6.19214">
        <ele>840</ele>
        <time>2010-01-01T01:17:41Z</time>
      </trkpt>
      <trkpt lat="45.78639" lon="6.19225">
        <ele>840</ele>
        <time>2010-01-01T01:17:45Z</time>
      </trkpt>
      <trkpt lat="45.78631" lon="6.19239">
        <ele>840</ele>
        <time>2010-01-01T01:17:50Z</time>
      </trkpt>
      <trkpt lat="45.78627" lon="6.19251">
        <ele>840</ele>
        <time>2010-01-01T01:17:54Z</time>
      </trkpt>
      <trkpt lat="45.78626" lon="6.19265">
        <ele>840</ele>
        <time>2010-01-01T01:17:57Z</time>
      </trkpt>
      <trkpt lat="45.78622" lon="6.1927">
        <ele>840</ele>
        <time>2010-01-01T01:17:59Z</time>
      </trkpt>
      <trkpt lat="45.78607" lon="6.19276">
        <ele>840</ele>
        <time>2010-01-01T01:18:06Z</time>
      </trkpt>
      <trkpt lat="45.78592" lon="6.19277">
        <ele>840</ele>
        <time>2010-01-01T01:18:11Z</time>
      </trkpt>
      <trkpt lat="45.78571" lon="6.19284">
        <ele>840</ele>
        <time>2010-01-01T01:18:20Z</time>
      </trkpt>
      <trkpt lat="45.78552" lon="6.19293">
        <ele>841</ele>
        <time>2010-01-01T01:18:28Z</time>
      </trkpt>
      <trkpt lat="45.78542" lon="6.19292">
        <ele>841</ele>
        <time>2010-01-01T01:18:32Z</time>
      </trkpt>
      <trkpt lat="45.78543" lon="6.19292">
        <ele>841</ele>
        <time>2010-01-01T01:18:32Z</time>
      </trkpt>
      <trkpt lat="45.78542" lon="6.1929">
        <ele>841</ele>
        <time>2010-01-01T01:18:33Z</time>
      </trkpt>
      <trkpt lat="45.78541" lon="6.19291">
        <ele>841</ele>
        <time>2010-01-01T01:18:34Z</time>
      </trkpt>
      <trkpt lat="45.78549" lon="6.19292">
        <ele>840</ele>
        <time>2010-01-01T01:18:37Z</time>
      </trkpt>
      <trkpt lat="45.78544" lon="6.19293">
        <ele>841</ele>
        <time>2010-01-01T01:18:39Z</time>
      </trkpt>
      <trkpt lat="45.78539" lon="6.19291">
        <ele>841</ele>
        <time>2010-01-01T01:18:41Z</time>
      </trkpt>
      <trkpt lat="45.78537" lon="6.19289">
        <ele>841</ele>
        <time>2010-01-01T01:18:42Z</time>
      </trkpt>
      <trkpt lat="45.78542" lon="6.19286">
        <ele>841</ele>
        <time>2010-01-01T01:18:44Z</time>
      </trkpt>
      <trkpt lat="45.7854" lon="6.19286">
        <ele>843</ele>
        <time>2010-01-01T01:18:45Z</time>
      </trkpt>
      <trkpt lat="45.78541" lon="6.19285">
        <ele>843</ele>
        <time>2010-01-01T01:18:45Z</time>
      </trkpt>
      <trkpt lat="45.78539" lon="6.19285">
        <ele>842</ele>
        <time>2010-01-01T01:18:46Z</time>
      </trkpt>
      <trkpt lat="45.78541" lon="6.19285">
        <ele>842</ele>
        <time>2010-01-01T01:18:46Z</time>
      </trkpt>
      <trkpt lat="45.7854" lon="6.19283">
        <ele>842</ele>
        <time>2010-01-01T01:18:47Z</time>
      </trkpt>
      <trkpt lat="45.78535" lon="6.19282">
        <ele>842</ele>
        <time>2010-01-01T01:18:49Z</time>
      </trkpt>
      <trkpt lat="45.78519" lon="6.19284">
        <ele>840</ele>
        <time>2010-01-01T01:18:55Z</time>
      </trkpt>
      <trkpt lat="45.78508" lon="6.19289">
        <ele>837.6</ele>
        <time>2010-01-01T01:19:00Z</time>
      </trkpt>
      <trkpt lat="45.78496" lon="6.19289">
        <ele>833.08</ele>
        <time>2010-01-01T01:19:05Z</time>
      </trkpt>
      <trkpt lat="45.78494" lon="6.19292">
        <ele>831</ele>
        <time>2010-01-01T01:19:06Z</time>
      </trkpt>
      <trkpt lat="45.78488" lon="6.19293">
        <ele>831</ele>
        <time>2010-01-01T01:19:08Z</time>
      </trkpt>
      <trkpt lat="45.78484" lon="6.19299">
        <ele>824.64</ele>
        <time>2010-01-01T01:19:10Z</time>
      </trkpt>
      <trkpt lat="45.78473" lon="6.19305">
        <ele>821.63</ele>
        <time>2010-01-01T01:19:15Z</time>
      </trkpt>
      <trkpt lat="45.78473" lon="6.19314">
        <ele>817</ele>
        <time>2010-01-01T01:19:18Z</time>
      </trkpt>
      <trkpt lat="45.78467" lon="6.19316">
        <ele>816.26</ele>
        <time>2010-01-01T01:19:20Z</time>
      </trkpt>
      <trkpt lat="45.78462" lon="6.19325">
        <ele>813</ele>
        <time>2010-01-01T01:19:23Z</time>
      </trkpt>
      <trkpt lat="45.78454" lon="6.19333">
        <ele>810.63</ele>
        <time>2010-01-01T01:19:27Z</time>
      </trkpt>
      <trkpt lat="45.78435" lon="6.19338">
        <ele>808</ele>
        <time>2010-01-01T01:19:35Z</time>
      </trkpt>
      <trkpt lat="45.78435" lon="6.19342">
        <ele>806</ele>
        <time>2010-01-01T01:19:36Z</time>
      </trkpt>
      <trkpt lat="45.78433" lon="6.19342">
        <ele>806</ele>
        <time>2010-01-01T01:19:36Z</time>
      </trkpt>
      <trkpt lat="45.78433" lon="6.1934">
        <ele>804.63</ele>
        <time>2010-01-01T01:19:37Z</time>
      </trkpt>
      <trkpt lat="45.78435" lon="6.1934">
        <ele>804</ele>
        <time>2010-01-01T01:19:38Z</time>
      </trkpt>
      <trkpt lat="45.78434" lon="6.19342">
        <ele>805</ele>
        <time>2010-01-01T01:19:38Z</time>
      </trkpt>
      <trkpt lat="45.78428" lon="6.19341">
        <ele>804</ele>
        <time>2010-01-01T01:19:41Z</time>
      </trkpt>
      <trkpt lat="45.78422" lon="6.19342">
        <ele>804</ele>
        <time>2010-01-01T01:19:43Z</time>
      </trkpt>
      <trkpt lat="45.78413" lon="6.19348">
        <ele>804</ele>
        <time>2010-01-01T01:19:47Z</time>
      </trkpt>
      <trkpt lat="45.78403" lon="6.19352">
        <ele>791.64999</ele>
        <time>2010-01-01T01:19:51Z</time>
      </trkpt>
      <trkpt lat="45.78391" lon="6.19363">
        <ele>786</ele>
        <time>2010-01-01T01:19:57Z</time>
      </trkpt>
      <trkpt lat="45.78386" lon="6.19369">
        <ele>784</ele>
        <time>2010-01-01T01:20:00Z</time>
      </trkpt>
      <trkpt lat="45.7838" lon="6.19372">
        <ele>781.64999</ele>
        <time>2010-01-01T01:20:02Z</time>
      </trkpt>
      <trkpt lat="45.78378" lon="6.19377">
        <ele>778.65656</ele>
        <time>2010-01-01T01:20:04Z</time>
      </trkpt>
      <trkpt lat="45.7837" lon="6.19383">
        <ele>777</ele>
        <time>2010-01-01T01:20:08Z</time>
      </trkpt>
      <trkpt lat="45.7836" lon="6.19387">
        <ele>774</ele>
        <time>2010-01-01T01:20:12Z</time>
      </trkpt>
      <trkpt lat="45.78351" lon="6.19386">
        <ele>772.65</ele>
        <time>2010-01-01T01:20:15Z</time>
      </trkpt>
      <trkpt lat="45.78349" lon="6.19387">
        <ele>770.65</ele>
        <time>2010-01-01T01:20:16Z</time>
      </trkpt>
      <trkpt lat="45.78347" lon="6.19392">
        <ele>768</ele>
        <time>2010-01-01T01:20:18Z</time>
      </trkpt>
      <trkpt lat="45.78355" lon="6.19398">
        <ele>764</ele>
        <time>2010-01-01T01:20:21Z</time>
      </trkpt>
      <trkpt lat="45.78366" lon="6.19398">
        <ele>762</ele>
        <time>2010-01-01T01:20:26Z</time>
      </trkpt>
      <trkpt lat="45.7837" lon="6.19403">
        <ele>759.58</ele>
        <time>2010-01-01T01:20:28Z</time>
      </trkpt>
      <trkpt lat="45.78368" lon="6.19406">
        <ele>759</ele>
        <time>2010-01-01T01:20:29Z</time>
      </trkpt>
      <trkpt lat="45.7836" lon="6.1941">
        <ele>759</ele>
        <time>2010-01-01T01:20:32Z</time>
      </trkpt>
      <trkpt lat="45.78343" lon="6.19415">
        <ele>754.98001</ele>
        <time>2010-01-01T01:20:39Z</time>
      </trkpt>
      <trkpt lat="45.78335" lon="6.1942">
        <ele>750</ele>
        <time>2010-01-01T01:20:43Z</time>
      </trkpt>
      <trkpt lat="45.78325" lon="6.1942">
        <ele>747.66</ele>
        <time>2010-01-01T01:20:47Z</time>
      </trkpt>
      <trkpt lat="45.78322" lon="6.19421">
        <ele>747</ele>
        <time>2010-01-01T01:20:48Z</time>
      </trkpt>
      <trkpt lat="45.78321" lon="6.19424">
        <ele>746</ele>
        <time>2010-01-01T01:20:49Z</time>
      </trkpt>
      <trkpt lat="45.78326" lon="6.19427">
        <ele>744.66</ele>
        <time>2010-01-01T01:20:51Z</time>
      </trkpt>
      <trkpt lat="45.7833" lon="6.19433">
        <ele>742</ele>
        <time>2010-01-01T01:20:53Z</time>
      </trkpt>
      <trkpt lat="45.78344" lon="6.1944">
        <ele>740</ele>
        <time>2010-01-01T01:20:59Z</time>
      </trkpt>
      <trkpt lat="45.7835" lon="6.19442">
        <ele>737</ele>
        <time>2010-01-01T01:21:01Z</time>
      </trkpt>
      <trkpt lat="45.78356" lon="6.19448">
        <ele>733</ele>
        <time>2010-01-01T01:21:04Z</time>
      </trkpt>
      <trkpt lat="45.78365" lon="6.19453">
        <ele>729.1485</ele>
        <time>2010-01-01T01:21:08Z</time>
      </trkpt>
      <trkpt lat="45.78369" lon="6.19459">
        <ele>725.56999</ele>
        <time>2010-01-01T01:21:11Z</time>
      </trkpt>
      <trkpt lat="45.78385" lon="6.1946">
        <ele>719.58</ele>
        <time>2010-01-01T01:21:17Z</time>
      </trkpt>
      <trkpt lat="45.78392" lon="6.19463">
        <ele>716.68</ele>
        <time>2010-01-01T01:21:20Z</time>
      </trkpt>
      <trkpt lat="45.78394" lon="6.19465">
        <ele>716</ele>
        <time>2010-01-01T01:21:21Z</time>
      </trkpt>
      <trkpt lat="45.78394" lon="6.1947">
        <ele>714.58</ele>
        <time>2010-01-01T01:21:22Z</time>
      </trkpt>
      <trkpt lat="45.78392" lon="6.19481">
        <ele>712.58</ele>
        <time>2010-01-01T01:21:25Z</time>
      </trkpt>
      <trkpt lat="45.78382" lon="6.19496">
        <ele>706.68</ele>
        <time>2010-01-01T01:21:31Z</time>
      </trkpt>
      <trkpt lat="45.78377" lon="6.19502">
        <ele>705</ele>
        <time>2010-01-01T01:21:33Z</time>
      </trkpt>
      <trkpt lat="45.78364" lon="6.19511">
        <ele>701.36</ele>
        <time>2010-01-01T01:21:39Z</time>
      </trkpt>
      <trkpt lat="45.78364" lon="6.19513">
        <ele>699.68</ele>
        <time>2010-01-01T01:21:40Z</time>
      </trkpt>
      <trkpt lat="45.78352" lon="6.19525">
        <ele>695</ele>
        <time>2010-01-01T01:21:46Z</time>
      </trkpt>
      <trkpt lat="45.78342" lon="6.19531">
        <ele>691</ele>
        <time>2010-01-01T01:21:50Z</time>
      </trkpt>
      <trkpt lat="45.78335" lon="6.19532">
        <ele>688.59</ele>
        <time>2010-01-01T01:21:53Z</time>
      </trkpt>
      <trkpt lat="45.78329" lon="6.19535">
        <ele>687</ele>
        <time>2010-01-01T01:21:55Z</time>
      </trkpt>
      <trkpt lat="45.78324" lon="6.19535">
        <ele>685</ele>
        <time>2010-01-01T01:21:57Z</time>
      </trkpt>
      <trkpt lat="45.78323" lon="6.19538">
        <ele>682.69</ele>
        <time>2010-01-01T01:21:58Z</time>
      </trkpt>
      <trkpt lat="45.78326" lon="6.19541">
        <ele>680.49505</ele>
        <time>2010-01-01T01:22:00Z</time>
      </trkpt>
      <trkpt lat="45.78325" lon="6.19544">
        <ele>678.68999</ele>
        <time>2010-01-01T01:22:01Z</time>
      </trkpt>
      <trkpt lat="45.7832" lon="6.19548">
        <ele>677.68999</ele>
        <time>2010-01-01T01:22:03Z</time>
      </trkpt>
      <trkpt lat="45.78308" lon="6.19549">
        <ele>673.48999</ele>
        <time>2010-01-01T01:22:08Z</time>
      </trkpt>
      <trkpt lat="45.78297" lon="6.19549">
        <ele>669.49</ele>
        <time>2010-01-01T01:22:12Z</time>
      </trkpt>
      <trkpt lat="45.7829" lon="6.19552">
        <ele>668.59</ele>
        <time>2010-01-01T01:22:15Z</time>
      </trkpt>
      <trkpt lat="45.78286" lon="6.19557">
        <ele>665.49</ele>
        <time>2010-01-01T01:22:17Z</time>
      </trkpt>
      <trkpt lat="45.78286" lon="6.19562">
        <ele>663.50495</ele>
        <time>2010-01-01T01:22:19Z</time>
      </trkpt>
      <trkpt lat="45.78281" lon="6.19568">
        <ele>660.5</ele>
        <time>2010-01-01T01:22:21Z</time>
      </trkpt>
      <trkpt lat="45.78264" lon="6.19569">
        <ele>656</ele>
        <time>2010-01-01T01:22:28Z</time>
      </trkpt>
      <trkpt lat="45.78259" lon="6.19565">
        <ele>653.6</ele>
        <time>2010-01-01T01:22:30Z</time>
      </trkpt>
      <trkpt lat="45.78246" lon="6.19561">
        <ele>647.5</ele>
        <time>2010-01-01T01:22:35Z</time>
      </trkpt>
      <trkpt lat="45.78236" lon="6.19554">
        <ele>644.69696</ele>
        <time>2010-01-01T01:22:40Z</time>
      </trkpt>
      <trkpt lat="45.78229" lon="6.19551">
        <ele>642</ele>
        <time>2010-01-01T01:22:43Z</time>
      </trkpt>
      <trkpt lat="45.78221" lon="6.1955">
        <ele>640.64646</ele>
        <time>2010-01-01T01:22:46Z</time>
      </trkpt>
      <trkpt lat="45.78218" lon="6.19557">
        <ele>636</ele>
        <time>2010-01-01T01:22:48Z</time>
      </trkpt>
      <trkpt lat="45.78215" lon="6.19557">
        <ele>635</ele>
        <time>2010-01-01T01:22:50Z</time>
      </trkpt>
      <trkpt lat="45.78211" lon="6.19553">
        <ele>633</ele>
        <time>2010-01-01T01:22:51Z</time>
      </trkpt>
      <trkpt lat="45.78202" lon="6.19557">
        <ele>628.61765</ele>
        <time>2010-01-01T01:22:55Z</time>
      </trkpt>
      <trkpt lat="45.782" lon="6.19555">
        <ele>625</ele>
        <time>2010-01-01T01:22:57Z</time>
      </trkpt>
      <trkpt lat="45.78198" lon="6.19565">
        <ele>623.51</ele>
        <time>2010-01-01T01:23:00Z</time>
      </trkpt>
      <trkpt lat="45.782" lon="6.19573">
        <ele>621.51</ele>
        <time>2010-01-01T01:23:02Z</time>
      </trkpt>
      <trkpt lat="45.782" lon="6.19581">
        <ele>620</ele>
        <time>2010-01-01T01:23:04Z</time>
      </trkpt>
      <trkpt lat="45.78196" lon="6.19598">
        <ele>618.69696</ele>
        <time>2010-01-01T01:23:09Z</time>
      </trkpt>
      <trkpt lat="45.78193" lon="6.19606">
        <ele>617</ele>
        <time>2010-01-01T01:23:12Z</time>
      </trkpt>
      <trkpt lat="45.7818" lon="6.19629">
        <ele>606</ele>
        <time>2010-01-01T01:23:20Z</time>
      </trkpt>
      <trkpt lat="45.78175" lon="6.19641">
        <ele>601.04</ele>
        <time>2010-01-01T01:23:24Z</time>
      </trkpt>
      <trkpt lat="45.78176" lon="6.19658">
        <ele>598.48</ele>
        <time>2010-01-01T01:23:29Z</time>
      </trkpt>
      <trkpt lat="45.78179" lon="6.1966">
        <ele>599.56565</ele>
        <time>2010-01-01T01:23:30Z</time>
      </trkpt>
      <trkpt lat="45.78179" lon="6.19662">
        <ele>599</ele>
        <time>2010-01-01T01:23:31Z</time>
      </trkpt>
      <trkpt lat="45.7818" lon="6.1966">
        <ele>598</ele>
        <time>2010-01-01T01:23:31Z</time>
      </trkpt>
      <trkpt lat="45.78179" lon="6.19661">
        <ele>598</ele>
        <time>2010-01-01T01:23:32Z</time>
      </trkpt>
      <trkpt lat="45.7818" lon="6.19662">
        <ele>598</ele>
        <time>2010-01-01T01:23:32Z</time>
      </trkpt>
      <trkpt lat="45.78178" lon="6.19657">
        <ele>598</ele>
        <time>2010-01-01T01:23:34Z</time>
      </trkpt>
      <trkpt lat="45.78175" lon="6.19658">
        <ele>598</ele>
        <time>2010-01-01T01:23:35Z</time>
      </trkpt>
      <trkpt lat="45.78179" lon="6.19656">
        <ele>598</ele>
        <time>2010-01-01T01:23:37Z</time>
      </trkpt>
      <trkpt lat="45.78187" lon="6.19648">
        <ele>599</ele>
        <time>2010-01-01T01:23:41Z</time>
      </trkpt>
      <trkpt lat="45.78189" lon="6.19649">
        <ele>598</ele>
        <time>2010-01-01T01:23:42Z</time>
      </trkpt>
      <trkpt lat="45.78191" lon="6.19645">
        <ele>598</ele>
        <time>2010-01-01T01:23:43Z</time>
      </trkpt>
      <trkpt lat="45.78186" lon="6.19646">
        <ele>598</ele>
        <time>2010-01-01T01:23:45Z</time>
      </trkpt>
      <trkpt lat="45.78183" lon="6.19651">
        <ele>598</ele>
        <time>2010-01-01T01:23:47Z</time>
      </trkpt>
      <trkpt lat="45.78185" lon="6.1966">
        <ele>597</ele>
        <time>2010-01-01T01:23:49Z</time>
      </trkpt>
      <trkpt lat="45.78191" lon="6.19672">
        <ele>597</ele>
        <time>2010-01-01T01:23:54Z</time>
      </trkpt>
      <trkpt lat="45.7819" lon="6.19675">
        <ele>597</ele>
        <time>2010-01-01T01:23:54Z</time>
      </trkpt>
      <trkpt lat="45.78191" lon="6.19686">
        <ele>597</ele>
        <time>2010-01-01T01:23:58Z</time>
      </trkpt>
      <trkpt lat="45.78189" lon="6.197">
        <ele>592</ele>
        <time>2010-01-01T01:24:01Z</time>
      </trkpt>
      <trkpt lat="45.7819" lon="6.19718">
        <ele>587</ele>
        <time>2010-01-01T01:24:07Z</time>
      </trkpt>
      <trkpt lat="45.78184" lon="6.19756">
        <ele>577.32001</ele>
        <time>2010-01-01T01:24:17Z</time>
      </trkpt>
      <trkpt lat="45.78183" lon="6.19765">
        <ele>576</ele>
        <time>2010-01-01T01:24:20Z</time>
      </trkpt>
      <trkpt lat="45.78181" lon="6.19774">
        <ele>573</ele>
        <time>2010-01-01T01:24:23Z</time>
      </trkpt>
      <trkpt lat="45.78184" lon="6.19788">
        <ele>570</ele>
        <time>2010-01-01T01:24:27Z</time>
      </trkpt>
      <trkpt lat="45.78183" lon="6.19793">
        <ele>570</ele>
        <time>2010-01-01T01:24:28Z</time>
      </trkpt>
      <trkpt lat="45.78184" lon="6.19806">
        <ele>568</ele>
        <time>2010-01-01T01:24:32Z</time>
      </trkpt>
      <trkpt lat="45.78184" lon="6.19829">
        <ele>565</ele>
        <time>2010-01-01T01:24:38Z</time>
      </trkpt>
      <trkpt lat="45.7818" lon="6.19849">
        <ele>558.56999</ele>
        <time>2010-01-01T01:24:44Z</time>
      </trkpt>
      <trkpt lat="45.78181" lon="6.19876">
        <ele>557</ele>
        <time>2010-01-01T01:24:52Z</time>
      </trkpt>
      <trkpt lat="45.78177" lon="6.19904">
        <ele>552.29706</ele>
        <time>2010-01-01T01:25:00Z</time>
      </trkpt>
      <trkpt lat="45.78178" lon="6.19945">
        <ele>542.14001</ele>
        <time>2010-01-01T01:25:11Z</time>
      </trkpt>
      <trkpt lat="45.78181" lon="6.1996">
        <ele>540</ele>
        <time>2010-01-01T01:25:16Z</time>
      </trkpt>
      <trkpt lat="45.78181" lon="6.19971">
        <ele>538.57425</ele>
        <time>2010-01-01T01:25:19Z</time>
      </trkpt>
      <trkpt lat="45.78178" lon="6.20002">
        <ele>535.18</ele>
        <time>2010-01-01T01:25:27Z</time>
      </trkpt>
      <trkpt lat="45.78182" lon="6.20041">
        <ele>531</ele>
        <time>2010-01-01T01:25:39Z</time>
      </trkpt>
      <trkpt lat="45.78181" lon="6.20056">
        <ele>529</ele>
        <time>2010-01-01T01:25:43Z</time>
      </trkpt>
      <trkpt lat="45.78189" lon="6.2008">
        <ele>527</ele>
        <time>2010-01-01T01:25:50Z</time>
      </trkpt>
      <trkpt lat="45.78204" lon="6.20109">
        <ele>523.74001</ele>
        <time>2010-01-01T01:26:00Z</time>
      </trkpt>
      <trkpt lat="45.78209" lon="6.20122">
        <ele>522</ele>
        <time>2010-01-01T01:26:04Z</time>
      </trkpt>
      <trkpt lat="45.78214" lon="6.20151">
        <ele>519.36</ele>
        <time>2010-01-01T01:26:13Z</time>
      </trkpt>
      <trkpt lat="45.78221" lon="6.20172">
        <ele>517.70707</ele>
        <time>2010-01-01T01:26:19Z</time>
      </trkpt>
      <trkpt lat="45.78226" lon="6.20219">
        <ele>513.18</ele>
        <time>2010-01-01T01:26:33Z</time>
      </trkpt>
      <trkpt lat="45.7822" lon="6.2024">
        <ele>511.18</ele>
        <time>2010-01-01T01:26:39Z</time>
      </trkpt>
      <trkpt lat="45.78219" lon="6.20268">
        <ele>509</ele>
        <time>2010-01-01T01:26:47Z</time>
      </trkpt>
      <trkpt lat="45.78217" lon="6.20281">
        <ele>508</ele>
        <time>2010-01-01T01:26:50Z</time>
      </trkpt>
      <trkpt lat="45.78216" lon="6.20283">
        <ele>508</ele>
        <time>2010-01-01T01:26:51Z</time>
      </trkpt>
      <trkpt lat="45.78212" lon="6.20286">
        <ele>508</ele>
        <time>2010-01-01T01:26:53Z</time>
      </trkpt>
      <trkpt lat="45.78199" lon="6.20291">
        <ele>508</ele>
        <time>2010-01-01T01:26:58Z</time>
      </trkpt>
      <trkpt lat="45.78176" lon="6.20293">
        <ele>506</ele>
        <time>2010-01-01T01:27:08Z</time>
      </trkpt>
      <trkpt lat="45.78164" lon="6.20299">
        <ele>505</ele>
        <time>2010-01-01T01:27:13Z</time>
      </trkpt>
      <trkpt lat="45.78166" lon="6.20301">
        <ele>505</ele>
        <time>2010-01-01T01:27:14Z</time>
      </trkpt>
      <trkpt lat="45.78166" lon="6.20302">
        <ele>505</ele>
        <time>2010-01-01T01:27:14Z</time>
      </trkpt>
      <trkpt lat="45.78164" lon="6.20301">
        <ele>505</ele>
        <time>2010-01-01T01:27:15Z</time>
      </trkpt>
      <trkpt lat="45.78163" lon="6.20298">
        <ele>504</ele>
        <time>2010-01-01T01:27:16Z</time>
      </trkpt>
      <trkpt lat="45.78163" lon="6.20296">
        <ele>504</ele>
        <time>2010-01-01T01:27:16Z</time>
      </trkpt>
      <trkpt lat="45.78167" lon="6.20295">
        <ele>504</ele>
        <time>2010-01-01T01:27:18Z</time>
      </trkpt>
      <trkpt lat="45.78163" lon="6.203">
        <ele>505</ele>
        <time>2010-01-01T01:27:20Z</time>
      </trkpt>
      <trkpt lat="45.7816" lon="6.20299">
        <ele>505</ele>
        <time>2010-01-01T01:27:21Z</time>
      </trkpt>
      <trkpt lat="45.7816" lon="6.20298">
        <ele>505</ele>
        <time>2010-01-01T01:27:22Z</time>
      </trkpt>
      <trkpt lat="45.78156" lon="6.20299">
        <ele>505</ele>
        <time>2010-01-01T01:27:23Z</time>
      </trkpt>
      <trkpt lat="45.78162" lon="6.20299">
        <ele>505</ele>
        <time>2010-01-01T01:27:25Z</time>
      </trkpt>
      <trkpt lat="45.78164" lon="6.20296">
        <ele>505</ele>
        <time>2010-01-01T01:27:26Z</time>
      </trkpt>
      <trkpt lat="45.78162" lon="6.20293">
        <ele>505</ele>
        <time>2010-01-01T01:27:28Z</time>
      </trkpt>
      <trkpt lat="45.78163" lon="6.2029">
        <ele>505</ele>
        <time>2010-01-01T01:27:28Z</time>
      </trkpt>
      <trkpt lat="45.78166" lon="6.20293">
        <ele>505</ele>
        <time>2010-01-01T01:27:30Z</time>
      </trkpt>
      <trkpt lat="45.78172" lon="6.20307">
        <ele>505</ele>
        <time>2010-01-01T01:27:34Z</time>
      </trkpt>
      <trkpt lat="45.78175" lon="6.20322">
        <ele>505</ele>
        <time>2010-01-01T01:27:39Z</time>
      </trkpt>
      <trkpt lat="45.78183" lon="6.20345">
        <ele>503</ele>
        <time>2010-01-01T01:27:46Z</time>
      </trkpt>
      <trkpt lat="45.782" lon="6.20375">
        <ele>500</ele>
        <time>2010-01-01T01:27:57Z</time>
      </trkpt>
      <trkpt lat="45.78216" lon="6.204">
        <ele>497</ele>
        <time>2010-01-01T01:28:06Z</time>
      </trkpt>
      <trkpt lat="45.78223" lon="6.20424">
        <ele>495</ele>
        <time>2010-01-01T01:28:13Z</time>
      </trkpt>
      <trkpt lat="45.78223" lon="6.20433">
        <ele>495</ele>
        <time>2010-01-01T01:28:16Z</time>
      </trkpt>
      <trkpt lat="45.78232" lon="6.20453">
        <ele>495</ele>
        <time>2010-01-01T01:28:22Z</time>
      </trkpt>
      <trkpt lat="45.78232" lon="6.2046">
        <ele>493.98001</ele>
        <time>2010-01-01T01:28:24Z</time>
      </trkpt>
      <trkpt lat="45.78234" lon="6.20473">
        <ele>493</ele>
        <time>2010-01-01T01:28:28Z</time>
      </trkpt>
      <trkpt lat="45.78241" lon="6.20492">
        <ele>493</ele>
        <time>2010-01-01T01:28:34Z</time>
      </trkpt>
      <trkpt lat="45.78246" lon="6.20516">
        <ele>491</ele>
        <time>2010-01-01T01:28:41Z</time>
      </trkpt>
      <trkpt lat="45.78248" lon="6.20542">
        <ele>490.18</ele>
        <time>2010-01-01T01:28:48Z</time>
      </trkpt>
      <trkpt lat="45.78255" lon="6.2057">
        <ele>489</ele>
        <time>2010-01-01T01:28:57Z</time>
      </trkpt>
      <trkpt lat="45.78254" lon="6.20582">
        <ele>488.27433</ele>
        <time>2010-01-01T01:29:00Z</time>
      </trkpt>
      <trkpt lat="45.78249" lon="6.20589">
        <ele>487</ele>
        <time>2010-01-01T01:29:03Z</time>
      </trkpt>
      <trkpt lat="45.78237" lon="6.20596">
        <ele>487</ele>
        <time>2010-01-01T01:29:09Z</time>
      </trkpt>
      <trkpt lat="45.7821" lon="6.20608">
        <ele>486</ele>
        <time>2010-01-01T01:29:20Z</time>
      </trkpt>
      <trkpt lat="45.782" lon="6.20615">
        <ele>485.00001</ele>
        <time>2010-01-01T01:29:24Z</time>
      </trkpt>
      <trkpt lat="45.78187" lon="6.20628">
        <ele>484</ele>
        <time>2010-01-01T01:29:30Z</time>
      </trkpt>
      <trkpt lat="45.78177" lon="6.20643">
        <ele>482</ele>
        <time>2010-01-01T01:29:36Z</time>
      </trkpt>
      <trkpt lat="45.7817" lon="6.20667">
        <ele>482</ele>
        <time>2010-01-01T01:29:43Z</time>
      </trkpt>
      <trkpt lat="45.78153" lon="6.20703">
        <ele>482</ele>
        <time>2010-01-01T01:29:56Z</time>
      </trkpt>
      <trkpt lat="45.78133" lon="6.20732">
        <ele>480</ele>
        <time>2010-01-01T01:30:07Z</time>
      </trkpt>
      <trkpt lat="45.78075" lon="6.20772">
        <ele>479</ele>
        <time>2010-01-01T01:30:33Z</time>
      </trkpt>
      <trkpt lat="45.7805" lon="6.20791">
        <ele>479</ele>
        <time>2010-01-01T01:30:44Z</time>
      </trkpt>
      <trkpt lat="45.78021" lon="6.2081">
        <ele>479</ele>
        <time>2010-01-01T01:30:57Z</time>
      </trkpt>
      <trkpt lat="45.77999" lon="6.20828">
        <ele>480</ele>
        <time>2010-01-01T01:31:07Z</time>
      </trkpt>
      <trkpt lat="45.7799" lon="6.20832">
        <ele>480</ele>
        <time>2010-01-01T01:31:11Z</time>
      </trkpt>
      <trkpt lat="45.77964" lon="6.20855">
        <ele>481</ele>
        <time>2010-01-01T01:31:23Z</time>
      </trkpt>
      <trkpt lat="45.77947" lon="6.20864">
        <ele>481</ele>
        <time>2010-01-01T01:31:30Z</time>
      </trkpt>
      <trkpt lat="45.77932" lon="6.20878">
        <ele>482</ele>
        <time>2010-01-01T01:31:37Z</time>
      </trkpt>
      <trkpt lat="45.77896" lon="6.20905">
        <ele>483</ele>
        <time>2010-01-01T01:31:54Z</time>
      </trkpt>
      <trkpt lat="45.77884" lon="6.20917">
        <ele>483</ele>
        <time>2010-01-01T01:32:00Z</time>
      </trkpt>
      <trkpt lat="45.77858" lon="6.20963">
        <ele>482</ele>
        <time>2010-01-01T01:32:16Z</time>
      </trkpt>
      <trkpt lat="45.77835" lon="6.21029">
        <ele>482</ele>
        <time>2010-01-01T01:32:37Z</time>
      </trkpt>
      <trkpt lat="45.7782" lon="6.21073">
        <ele>482</ele>
        <time>2010-01-01T01:32:50Z</time>
      </trkpt>
      <trkpt lat="45.77816" lon="6.21095">
        <ele>482</ele>
        <time>2010-01-01T01:32:57Z</time>
      </trkpt>
      <trkpt lat="45.77806" lon="6.21119">
        <ele>482</ele>
        <time>2010-01-01T01:33:04Z</time>
      </trkpt>
      <trkpt lat="45.7778" lon="6.21211">
        <ele>482</ele>
        <time>2010-01-01T01:33:32Z</time>
      </trkpt>
      <trkpt lat="45.77758" lon="6.21301">
        <ele>481</ele>
        <time>2010-01-01T01:33:59Z</time>
      </trkpt>
      <trkpt lat="45.77747" lon="6.21323">
        <ele>481</ele>
        <time>2010-01-01T01:34:06Z</time>
      </trkpt>
      <trkpt lat="45.7774" lon="6.21346">
        <ele>481</ele>
        <time>2010-01-01T01:34:13Z</time>
      </trkpt>
      <trkpt lat="45.77726" lon="6.2138">
        <ele>482</ele>
        <time>2010-01-01T01:34:24Z</time>
      </trkpt>
      <trkpt lat="45.77723" lon="6.21439">
        <ele>482</ele>
        <time>2010-01-01T01:34:41Z</time>
      </trkpt>
      <trkpt lat="45.77725" lon="6.21467">
        <ele>481</ele>
        <time>2010-01-01T01:34:49Z</time>
      </trkpt>
      <trkpt lat="45.77723" lon="6.21476">
        <ele>481</ele>
        <time>2010-01-01T01:34:51Z</time>
      </trkpt>
      <trkpt lat="45.77724" lon="6.21485">
        <ele>481.32999</ele>
        <time>2010-01-01T01:34:54Z</time>
      </trkpt>
      <trkpt lat="45.77723" lon="6.215">
        <ele>482</ele>
        <time>2010-01-01T01:34:58Z</time>
      </trkpt>
      <trkpt lat="45.77723" lon="6.21521">
        <ele>482</ele>
        <time>2010-01-01T01:35:04Z</time>
      </trkpt>
      <trkpt lat="45.7772" lon="6.21542">
        <ele>482</ele>
        <time>2010-01-01T01:35:10Z</time>
      </trkpt>
      <trkpt lat="45.77722" lon="6.21559">
        <ele>482</ele>
        <time>2010-01-01T01:35:15Z</time>
      </trkpt>
      <trkpt lat="45.7772" lon="6.21589">
        <ele>482</ele>
        <time>2010-01-01T01:35:23Z</time>
      </trkpt>
      <trkpt lat="45.77721" lon="6.21604">
        <ele>482</ele>
        <time>2010-01-01T01:35:27Z</time>
      </trkpt>
      <trkpt lat="45.7772" lon="6.21663">
        <ele>482</ele>
        <time>2010-01-01T01:35:44Z</time>
      </trkpt>
      <trkpt lat="45.77717" lon="6.21671">
        <ele>482</ele>
        <time>2010-01-01T01:35:46Z</time>
      </trkpt>
      <trkpt lat="45.77718" lon="6.2168">
        <ele>482</ele>
        <time>2010-01-01T01:35:49Z</time>
      </trkpt>
      <trkpt lat="45.77712" lon="6.21696">
        <ele>482</ele>
        <time>2010-01-01T01:35:54Z</time>
      </trkpt>
      <trkpt lat="45.77708" lon="6.21727">
        <ele>482</ele>
        <time>2010-01-01T01:36:02Z</time>
      </trkpt>
      <trkpt lat="45.77702" lon="6.21758">
        <ele>482</ele>
        <time>2010-01-01T01:36:11Z</time>
      </trkpt>
      <trkpt lat="45.77702" lon="6.2177">
        <ele>482.50999</ele>
        <time>2010-01-01T01:36:15Z</time>
      </trkpt>
      <trkpt lat="45.77696" lon="6.21817">
        <ele>484</ele>
        <time>2010-01-01T01:36:28Z</time>
      </trkpt>
      <trkpt lat="45.77691" lon="6.21833">
        <ele>484</ele>
        <time>2010-01-01T01:36:33Z</time>
      </trkpt>
      <trkpt lat="45.77678" lon="6.21865">
        <ele>484</ele>
        <time>2010-01-01T01:36:44Z</time>
      </trkpt>
      <trkpt lat="45.7767" lon="6.21882">
        <ele>484</ele>
        <time>2010-01-01T01:36:49Z</time>
      </trkpt>
      <trkpt lat="45.77655" lon="6.21907">
        <ele>484</ele>
        <time>2010-01-01T01:36:58Z</time>
      </trkpt>
      <trkpt lat="45.77651" lon="6.21916">
        <ele>484</ele>
        <time>2010-01-01T01:37:01Z</time>
      </trkpt>
      <trkpt lat="45.77648" lon="6.21921">
        <ele>484</ele>
        <time>2010-01-01T01:37:03Z</time>
      </trkpt>
      <trkpt lat="45.77634" lon="6.21933">
        <ele>484</ele>
        <time>2010-01-01T01:37:10Z</time>
      </trkpt>
      <trkpt lat="45.77612" lon="6.21964">
        <ele>485</ele>
        <time>2010-01-01T01:37:22Z</time>
      </trkpt>
      <trkpt lat="45.77605" lon="6.21971">
        <ele>485</ele>
        <time>2010-01-01T01:37:25Z</time>
      </trkpt>
      <trkpt lat="45.77601" lon="6.21982">
        <ele>485</ele>
        <time>2010-01-01T01:37:29Z</time>
      </trkpt>
      <trkpt lat="45.77594" lon="6.21995">
        <ele>485</ele>
        <time>2010-01-01T01:37:34Z</time>
      </trkpt>
      <trkpt lat="45.7759" lon="6.22009">
        <ele>485</ele>
        <time>2010-01-01T01:37:38Z</time>
      </trkpt>
      <trkpt lat="45.77583" lon="6.22047">
        <ele>486</ele>
        <time>2010-01-01T01:37:49Z</time>
      </trkpt>
      <trkpt lat="45.77586" lon="6.22055">
        <ele>486</ele>
        <time>2010-01-01T01:37:51Z</time>
      </trkpt>
      <trkpt lat="45.77591" lon="6.22061">
        <ele>486</ele>
        <time>2010-01-01T01:37:54Z</time>
      </trkpt>
      <trkpt lat="45.77596" lon="6.22064">
        <ele>486</ele>
        <time>2010-01-01T01:37:56Z</time>
      </trkpt>
    </trkseg>
  </trk>
</gpx>